<?xml version="1.0" encoding="UTF-8" standalone="no" ?>
<gpx xmlns="http://www.topografix.com/GPX/1/1" xmlns:xsi="http://www.w3.org/2001/XMLSchema-instance" xsi:schemaLocation="http://www.topografix.com/GPX/1/1 http://www.topografix.com/GPX/1/1/gpx.xsd" version="1.1" creator="VisuGPX - https://www.visugpx.com">
  <metadata>
    <name>Les Ormes jusqu'au Lac du Caillou à Ingrandes</name>
    <desc><![CDATA[
]]></desc>
  </metadata>
  <trk>
    <name><![CDATA[Les Ormes jusqu'au Lac du Caillou à Ingrandes_1]]></name>
    <trkseg>
      <trkpt lat="46.97327" lon="0.61565">
        <ele>90.900001525879</ele>
        <time>2019-07-21T04:44:00Z</time>
      </trkpt>
      <trkpt lat="46.97327" lon="0.61565">
        <ele>90.900001525879</ele>
        <time>2019-07-21T04:44:11Z</time>
      </trkpt>
      <trkpt lat="46.9733" lon="0.61564">
        <ele>89.900001525879</ele>
        <time>2019-07-21T04:44:15Z</time>
      </trkpt>
      <trkpt lat="46.9733" lon="0.61564">
        <ele>81.900001525879</ele>
        <time>2019-07-21T04:44:37Z</time>
      </trkpt>
      <trkpt lat="46.9733" lon="0.61561">
        <ele>81.900001525879</ele>
        <time>2019-07-21T04:44:40Z</time>
      </trkpt>
      <trkpt lat="46.97329" lon="0.61558">
        <ele>80.900001525879</ele>
        <time>2019-07-21T04:44:43Z</time>
      </trkpt>
      <trkpt lat="46.97328" lon="0.61555">
        <ele>80.900001525879</ele>
        <time>2019-07-21T04:44:45Z</time>
      </trkpt>
      <trkpt lat="46.97328" lon="0.61552">
        <ele>79.900001525879</ele>
        <time>2019-07-21T04:44:47Z</time>
      </trkpt>
      <trkpt lat="46.97328" lon="0.61549">
        <ele>78.900001525879</ele>
        <time>2019-07-21T04:44:50Z</time>
      </trkpt>
      <trkpt lat="46.97328" lon="0.61545">
        <ele>78.900001525879</ele>
        <time>2019-07-21T04:44:54Z</time>
      </trkpt>
      <trkpt lat="46.97328" lon="0.61543">
        <ele>78.900001525879</ele>
        <time>2019-07-21T04:44:56Z</time>
      </trkpt>
      <trkpt lat="46.97326" lon="0.6154">
        <ele>78.900001525879</ele>
        <time>2019-07-21T04:44:58Z</time>
      </trkpt>
      <trkpt lat="46.9732" lon="0.61536">
        <ele>77.900001525879</ele>
        <time>2019-07-21T04:45:02Z</time>
      </trkpt>
      <trkpt lat="46.97317" lon="0.61535">
        <ele>77.900001525879</ele>
        <time>2019-07-21T04:45:04Z</time>
      </trkpt>
      <trkpt lat="46.97285" lon="0.61533">
        <ele>77.900001525879</ele>
        <time>2019-07-21T04:45:23Z</time>
      </trkpt>
      <trkpt lat="46.97283" lon="0.61531">
        <ele>77.900001525879</ele>
        <time>2019-07-21T04:45:25Z</time>
      </trkpt>
      <trkpt lat="46.97281" lon="0.61528">
        <ele>77.900001525879</ele>
        <time>2019-07-21T04:45:27Z</time>
      </trkpt>
      <trkpt lat="46.97281" lon="0.61526">
        <ele>77.900001525879</ele>
        <time>2019-07-21T04:45:28Z</time>
      </trkpt>
      <trkpt lat="46.9728" lon="0.61523">
        <ele>77.900001525879</ele>
        <time>2019-07-21T04:45:29Z</time>
      </trkpt>
      <trkpt lat="46.97281" lon="0.61452">
        <ele>72.900001525879</ele>
        <time>2019-07-21T04:45:58Z</time>
      </trkpt>
      <trkpt lat="46.97277" lon="0.61381">
        <ele>70.900001525879</ele>
        <time>2019-07-21T04:46:28Z</time>
      </trkpt>
      <trkpt lat="46.97276" lon="0.61311">
        <ele>72.900001525879</ele>
        <time>2019-07-21T04:46:58Z</time>
      </trkpt>
      <trkpt lat="46.97276" lon="0.61269">
        <ele>73.900001525879</ele>
        <time>2019-07-21T04:47:16Z</time>
      </trkpt>
      <trkpt lat="46.97277" lon="0.6126">
        <ele>72.900001525879</ele>
        <time>2019-07-21T04:47:20Z</time>
      </trkpt>
      <trkpt lat="46.97279" lon="0.61211">
        <ele>72.900001525879</ele>
        <time>2019-07-21T04:47:41Z</time>
      </trkpt>
      <trkpt lat="46.97278" lon="0.61201">
        <ele>72.900001525879</ele>
        <time>2019-07-21T04:47:46Z</time>
      </trkpt>
      <trkpt lat="46.9728" lon="0.61186">
        <ele>73.900001525879</ele>
        <time>2019-07-21T04:47:53Z</time>
      </trkpt>
      <trkpt lat="46.9728" lon="0.61158">
        <ele>70.900001525879</ele>
        <time>2019-07-21T04:48:05Z</time>
      </trkpt>
      <trkpt lat="46.97282" lon="0.61132">
        <ele>68.900001525879</ele>
        <time>2019-07-21T04:48:16Z</time>
      </trkpt>
      <trkpt lat="46.97287" lon="0.61069">
        <ele>66.900001525879</ele>
        <time>2019-07-21T04:48:43Z</time>
      </trkpt>
      <trkpt lat="46.97284" lon="0.61007">
        <ele>62.900001525879</ele>
        <time>2019-07-21T04:49:09Z</time>
      </trkpt>
      <trkpt lat="46.97283" lon="0.61005">
        <ele>61.900001525879</ele>
        <time>2019-07-21T04:49:10Z</time>
      </trkpt>
      <trkpt lat="46.97281" lon="0.60999">
        <ele>59.900001525879</ele>
        <time>2019-07-21T04:49:12Z</time>
      </trkpt>
      <trkpt lat="46.97278" lon="0.60976">
        <ele>57.900001525879</ele>
        <time>2019-07-21T04:49:22Z</time>
      </trkpt>
      <trkpt lat="46.97273" lon="0.60925">
        <ele>53.900001525879</ele>
        <time>2019-07-21T04:49:42Z</time>
      </trkpt>
      <trkpt lat="46.9727" lon="0.60913">
        <ele>52.900001525879</ele>
        <time>2019-07-21T04:49:47Z</time>
      </trkpt>
      <trkpt lat="46.97265" lon="0.60899">
        <ele>52.900001525879</ele>
        <time>2019-07-21T04:49:54Z</time>
      </trkpt>
      <trkpt lat="46.97262" lon="0.60875">
        <ele>51.900001525879</ele>
        <time>2019-07-21T04:50:04Z</time>
      </trkpt>
      <trkpt lat="46.97259" lon="0.60866">
        <ele>50.900001525879</ele>
        <time>2019-07-21T04:50:08Z</time>
      </trkpt>
      <trkpt lat="46.97253" lon="0.60829">
        <ele>50.900001525879</ele>
        <time>2019-07-21T04:50:24Z</time>
      </trkpt>
      <trkpt lat="46.97251" lon="0.60825">
        <ele>50.900001525879</ele>
        <time>2019-07-21T04:50:26Z</time>
      </trkpt>
      <trkpt lat="46.97249" lon="0.60821">
        <ele>49.900001525879</ele>
        <time>2019-07-21T04:50:28Z</time>
      </trkpt>
      <trkpt lat="46.97246" lon="0.60818">
        <ele>49.900001525879</ele>
        <time>2019-07-21T04:50:30Z</time>
      </trkpt>
      <trkpt lat="46.97239" lon="0.60814">
        <ele>49.900001525879</ele>
        <time>2019-07-21T04:50:35Z</time>
      </trkpt>
      <trkpt lat="46.97206" lon="0.60819">
        <ele>50.900001525879</ele>
        <time>2019-07-21T04:50:55Z</time>
      </trkpt>
      <trkpt lat="46.97187" lon="0.60825">
        <ele>49.900001525879</ele>
        <time>2019-07-21T04:51:07Z</time>
      </trkpt>
      <trkpt lat="46.97168" lon="0.60831">
        <ele>50.900001525879</ele>
        <time>2019-07-21T04:51:19Z</time>
      </trkpt>
      <trkpt lat="46.97148" lon="0.60837">
        <ele>50.900001525879</ele>
        <time>2019-07-21T04:51:31Z</time>
      </trkpt>
      <trkpt lat="46.97129" lon="0.60845">
        <ele>50.900001525879</ele>
        <time>2019-07-21T04:51:43Z</time>
      </trkpt>
      <trkpt lat="46.9711" lon="0.6085">
        <ele>49.900001525879</ele>
        <time>2019-07-21T04:51:55Z</time>
      </trkpt>
      <trkpt lat="46.97091" lon="0.60854">
        <ele>49.900001525879</ele>
        <time>2019-07-21T04:52:06Z</time>
      </trkpt>
      <trkpt lat="46.97072" lon="0.60858">
        <ele>49.900001525879</ele>
        <time>2019-07-21T04:52:17Z</time>
      </trkpt>
      <trkpt lat="46.97054" lon="0.60863">
        <ele>48.900001525879</ele>
        <time>2019-07-21T04:52:28Z</time>
      </trkpt>
      <trkpt lat="46.97035" lon="0.60869">
        <ele>48.900001525879</ele>
        <time>2019-07-21T04:52:39Z</time>
      </trkpt>
      <trkpt lat="46.97016" lon="0.60874">
        <ele>49.900001525879</ele>
        <time>2019-07-21T04:52:50Z</time>
      </trkpt>
      <trkpt lat="46.96997" lon="0.60878">
        <ele>49.900001525879</ele>
        <time>2019-07-21T04:53:01Z</time>
      </trkpt>
      <trkpt lat="46.96977" lon="0.60882">
        <ele>48.900001525879</ele>
        <time>2019-07-21T04:53:13Z</time>
      </trkpt>
      <trkpt lat="46.96958" lon="0.60884">
        <ele>48.900001525879</ele>
        <time>2019-07-21T04:53:25Z</time>
      </trkpt>
      <trkpt lat="46.96938" lon="0.60885">
        <ele>49.900001525879</ele>
        <time>2019-07-21T04:53:37Z</time>
      </trkpt>
      <trkpt lat="46.9692" lon="0.60887">
        <ele>49.900001525879</ele>
        <time>2019-07-21T04:53:48Z</time>
      </trkpt>
      <trkpt lat="46.96887" lon="0.60886">
        <ele>49.900001525879</ele>
        <time>2019-07-21T04:54:08Z</time>
      </trkpt>
      <trkpt lat="46.96868" lon="0.60885">
        <ele>49.900001525879</ele>
        <time>2019-07-21T04:54:19Z</time>
      </trkpt>
      <trkpt lat="46.9685" lon="0.6089">
        <ele>50.900001525879</ele>
        <time>2019-07-21T04:54:30Z</time>
      </trkpt>
      <trkpt lat="46.96839" lon="0.60892">
        <ele>52.900001525879</ele>
        <time>2019-07-21T04:54:37Z</time>
      </trkpt>
      <trkpt lat="46.96834" lon="0.60893">
        <ele>52.900001525879</ele>
        <time>2019-07-21T04:54:40Z</time>
      </trkpt>
      <trkpt lat="46.96784" lon="0.60901">
        <ele>54.900001525879</ele>
        <time>2019-07-21T04:55:10Z</time>
      </trkpt>
      <trkpt lat="46.96737" lon="0.60905">
        <ele>53.900001525879</ele>
        <time>2019-07-21T04:55:38Z</time>
      </trkpt>
      <trkpt lat="46.96696" lon="0.60911">
        <ele>53.900001525879</ele>
        <time>2019-07-21T04:56:02Z</time>
      </trkpt>
      <trkpt lat="46.96693" lon="0.60913">
        <ele>52.900001525879</ele>
        <time>2019-07-21T04:56:04Z</time>
      </trkpt>
      <trkpt lat="46.9669" lon="0.60917">
        <ele>52.900001525879</ele>
        <time>2019-07-21T04:56:07Z</time>
      </trkpt>
      <trkpt lat="46.96688" lon="0.60914">
        <ele>53.900001525879</ele>
        <time>2019-07-21T04:57:02Z</time>
      </trkpt>
      <trkpt lat="46.96685" lon="0.60912">
        <ele>54.900001525879</ele>
        <time>2019-07-21T04:57:04Z</time>
      </trkpt>
      <trkpt lat="46.96661" lon="0.60916">
        <ele>54.900001525879</ele>
        <time>2019-07-21T04:57:18Z</time>
      </trkpt>
      <trkpt lat="46.96643" lon="0.60918">
        <ele>54.900001525879</ele>
        <time>2019-07-21T04:57:28Z</time>
      </trkpt>
      <trkpt lat="46.96624" lon="0.60921">
        <ele>51.900001525879</ele>
        <time>2019-07-21T04:57:38Z</time>
      </trkpt>
      <trkpt lat="46.96604" lon="0.60922">
        <ele>49.900001525879</ele>
        <time>2019-07-21T04:57:50Z</time>
      </trkpt>
      <trkpt lat="46.96586" lon="0.60922">
        <ele>48.900001525879</ele>
        <time>2019-07-21T04:58:01Z</time>
      </trkpt>
      <trkpt lat="46.96567" lon="0.60923">
        <ele>47.900001525879</ele>
        <time>2019-07-21T04:58:12Z</time>
      </trkpt>
      <trkpt lat="46.96548" lon="0.60924">
        <ele>47.900001525879</ele>
        <time>2019-07-21T04:58:24Z</time>
      </trkpt>
      <trkpt lat="46.96529" lon="0.60924">
        <ele>47.900001525879</ele>
        <time>2019-07-21T04:58:35Z</time>
      </trkpt>
      <trkpt lat="46.96517" lon="0.60925">
        <ele>47.900001525879</ele>
        <time>2019-07-21T04:58:42Z</time>
      </trkpt>
      <trkpt lat="46.96467" lon="0.60924">
        <ele>47.900001525879</ele>
        <time>2019-07-21T04:59:13Z</time>
      </trkpt>
      <trkpt lat="46.9642" lon="0.60926">
        <ele>48.900001525879</ele>
        <time>2019-07-21T04:59:42Z</time>
      </trkpt>
      <trkpt lat="46.96373" lon="0.60926">
        <ele>48.900001525879</ele>
        <time>2019-07-21T05:00:11Z</time>
      </trkpt>
      <trkpt lat="46.96324" lon="0.60926">
        <ele>48.900001525879</ele>
        <time>2019-07-21T05:00:41Z</time>
      </trkpt>
      <trkpt lat="46.96276" lon="0.60927">
        <ele>47.900001525879</ele>
        <time>2019-07-21T05:01:11Z</time>
      </trkpt>
      <trkpt lat="46.96227" lon="0.60926">
        <ele>47.900001525879</ele>
        <time>2019-07-21T05:01:41Z</time>
      </trkpt>
      <trkpt lat="46.96179" lon="0.60926">
        <ele>47.900001525879</ele>
        <time>2019-07-21T05:02:11Z</time>
      </trkpt>
      <trkpt lat="46.96131" lon="0.60926">
        <ele>47.900001525879</ele>
        <time>2019-07-21T05:02:40Z</time>
      </trkpt>
      <trkpt lat="46.96066" lon="0.60927">
        <ele>48.900001525879</ele>
        <time>2019-07-21T05:03:20Z</time>
      </trkpt>
      <trkpt lat="46.96015" lon="0.60927">
        <ele>47.900001525879</ele>
        <time>2019-07-21T05:03:51Z</time>
      </trkpt>
      <trkpt lat="46.95967" lon="0.60926">
        <ele>47.900001525879</ele>
        <time>2019-07-21T05:04:20Z</time>
      </trkpt>
      <trkpt lat="46.95919" lon="0.60927">
        <ele>49.900001525879</ele>
        <time>2019-07-21T05:04:50Z</time>
      </trkpt>
      <trkpt lat="46.95899" lon="0.60929">
        <ele>49.900001525879</ele>
        <time>2019-07-21T05:05:02Z</time>
      </trkpt>
      <trkpt lat="46.9588" lon="0.60932">
        <ele>49.900001525879</ele>
        <time>2019-07-21T05:05:14Z</time>
      </trkpt>
      <trkpt lat="46.95861" lon="0.60935">
        <ele>49.900001525879</ele>
        <time>2019-07-21T05:05:26Z</time>
      </trkpt>
      <trkpt lat="46.95842" lon="0.60937">
        <ele>49.900001525879</ele>
        <time>2019-07-21T05:05:38Z</time>
      </trkpt>
      <trkpt lat="46.95823" lon="0.60938">
        <ele>51.900001525879</ele>
        <time>2019-07-21T05:05:49Z</time>
      </trkpt>
      <trkpt lat="46.95804" lon="0.6094">
        <ele>52.900001525879</ele>
        <time>2019-07-21T05:06:01Z</time>
      </trkpt>
      <trkpt lat="46.95784" lon="0.6094">
        <ele>54.900001525879</ele>
        <time>2019-07-21T05:06:13Z</time>
      </trkpt>
      <trkpt lat="46.95764" lon="0.60941">
        <ele>53.900001525879</ele>
        <time>2019-07-21T05:06:26Z</time>
      </trkpt>
      <trkpt lat="46.95745" lon="0.60939">
        <ele>51.900001525879</ele>
        <time>2019-07-21T05:06:37Z</time>
      </trkpt>
      <trkpt lat="46.95727" lon="0.60936">
        <ele>53.900001525879</ele>
        <time>2019-07-21T05:06:47Z</time>
      </trkpt>
      <trkpt lat="46.95708" lon="0.60936">
        <ele>53.900001525879</ele>
        <time>2019-07-21T05:06:58Z</time>
      </trkpt>
      <trkpt lat="46.95698" lon="0.60935">
        <ele>55.900001525879</ele>
        <time>2019-07-21T05:07:04Z</time>
      </trkpt>
      <trkpt lat="46.95694" lon="0.60935">
        <ele>54.900001525879</ele>
        <time>2019-07-21T05:07:06Z</time>
      </trkpt>
      <trkpt lat="46.95688" lon="0.60939">
        <ele>53.900001525879</ele>
        <time>2019-07-21T05:07:10Z</time>
      </trkpt>
      <trkpt lat="46.95679" lon="0.6095">
        <ele>54.900001525879</ele>
        <time>2019-07-21T05:07:17Z</time>
      </trkpt>
      <trkpt lat="46.95676" lon="0.60953">
        <ele>55.900001525879</ele>
        <time>2019-07-21T05:07:20Z</time>
      </trkpt>
      <trkpt lat="46.95669" lon="0.60966">
        <ele>56.900001525879</ele>
        <time>2019-07-21T05:07:28Z</time>
      </trkpt>
      <trkpt lat="46.95666" lon="0.60969">
        <ele>55.900001525879</ele>
        <time>2019-07-21T05:07:30Z</time>
      </trkpt>
      <trkpt lat="46.95665" lon="0.60971">
        <ele>54.900001525879</ele>
        <time>2019-07-21T05:07:31Z</time>
      </trkpt>
      <trkpt lat="46.95662" lon="0.60972">
        <ele>53.900001525879</ele>
        <time>2019-07-21T05:07:33Z</time>
      </trkpt>
      <trkpt lat="46.95626" lon="0.60989">
        <ele>49.900001525879</ele>
        <time>2019-07-21T05:07:54Z</time>
      </trkpt>
      <trkpt lat="46.95608" lon="0.60997">
        <ele>49.900001525879</ele>
        <time>2019-07-21T05:08:05Z</time>
      </trkpt>
      <trkpt lat="46.95589" lon="0.61003">
        <ele>48.900001525879</ele>
        <time>2019-07-21T05:08:17Z</time>
      </trkpt>
      <trkpt lat="46.95571" lon="0.61008">
        <ele>48.900001525879</ele>
        <time>2019-07-21T05:08:28Z</time>
      </trkpt>
      <trkpt lat="46.95551" lon="0.61014">
        <ele>48.900001525879</ele>
        <time>2019-07-21T05:08:40Z</time>
      </trkpt>
      <trkpt lat="46.95532" lon="0.61016">
        <ele>48.900001525879</ele>
        <time>2019-07-21T05:08:51Z</time>
      </trkpt>
      <trkpt lat="46.95513" lon="0.61017">
        <ele>47.900001525879</ele>
        <time>2019-07-21T05:09:03Z</time>
      </trkpt>
      <trkpt lat="46.95493" lon="0.61018">
        <ele>48.900001525879</ele>
        <time>2019-07-21T05:09:15Z</time>
      </trkpt>
      <trkpt lat="46.95474" lon="0.61019">
        <ele>48.900001525879</ele>
        <time>2019-07-21T05:09:27Z</time>
      </trkpt>
      <trkpt lat="46.95454" lon="0.61021">
        <ele>48.900001525879</ele>
        <time>2019-07-21T05:09:39Z</time>
      </trkpt>
      <trkpt lat="46.95436" lon="0.61022">
        <ele>48.900001525879</ele>
        <time>2019-07-21T05:09:51Z</time>
      </trkpt>
      <trkpt lat="46.95416" lon="0.61023">
        <ele>48.900001525879</ele>
        <time>2019-07-21T05:10:03Z</time>
      </trkpt>
      <trkpt lat="46.95396" lon="0.61024">
        <ele>48.900001525879</ele>
        <time>2019-07-21T05:10:15Z</time>
      </trkpt>
      <trkpt lat="46.95377" lon="0.61026">
        <ele>48.900001525879</ele>
        <time>2019-07-21T05:10:27Z</time>
      </trkpt>
      <trkpt lat="46.95357" lon="0.61027">
        <ele>49.900001525879</ele>
        <time>2019-07-21T05:10:39Z</time>
      </trkpt>
      <trkpt lat="46.95338" lon="0.61029">
        <ele>48.900001525879</ele>
        <time>2019-07-21T05:10:51Z</time>
      </trkpt>
      <trkpt lat="46.95319" lon="0.61031">
        <ele>49.900001525879</ele>
        <time>2019-07-21T05:11:03Z</time>
      </trkpt>
      <trkpt lat="46.95299" lon="0.61034">
        <ele>48.900001525879</ele>
        <time>2019-07-21T05:11:15Z</time>
      </trkpt>
      <trkpt lat="46.95281" lon="0.61038">
        <ele>47.900001525879</ele>
        <time>2019-07-21T05:11:27Z</time>
      </trkpt>
      <trkpt lat="46.95266" lon="0.61045">
        <ele>48.900001525879</ele>
        <time>2019-07-21T05:11:37Z</time>
      </trkpt>
      <trkpt lat="46.95223" lon="0.61072">
        <ele>48.900001525879</ele>
        <time>2019-07-21T05:12:07Z</time>
      </trkpt>
      <trkpt lat="46.95186" lon="0.61114">
        <ele>48.900001525879</ele>
        <time>2019-07-21T05:12:37Z</time>
      </trkpt>
      <trkpt lat="46.95147" lon="0.61162">
        <ele>49.900001525879</ele>
        <time>2019-07-21T05:13:09Z</time>
      </trkpt>
      <trkpt lat="46.95112" lon="0.61211">
        <ele>49.900001525879</ele>
        <time>2019-07-21T05:13:39Z</time>
      </trkpt>
      <trkpt lat="46.95077" lon="0.61261">
        <ele>51.900001525879</ele>
        <time>2019-07-21T05:14:09Z</time>
      </trkpt>
      <trkpt lat="46.95046" lon="0.61313">
        <ele>51.900001525879</ele>
        <time>2019-07-21T05:14:38Z</time>
      </trkpt>
      <trkpt lat="46.95028" lon="0.61356">
        <ele>51.900001525879</ele>
        <time>2019-07-21T05:14:59Z</time>
      </trkpt>
      <trkpt lat="46.95015" lon="0.61374">
        <ele>51.900001525879</ele>
        <time>2019-07-21T05:15:10Z</time>
      </trkpt>
      <trkpt lat="46.95002" lon="0.61382">
        <ele>50.900001525879</ele>
        <time>2019-07-21T05:15:19Z</time>
      </trkpt>
      <trkpt lat="46.94954" lon="0.61391">
        <ele>50.900001525879</ele>
        <time>2019-07-21T05:15:49Z</time>
      </trkpt>
      <trkpt lat="46.94937" lon="0.614">
        <ele>52.900001525879</ele>
        <time>2019-07-21T05:16:00Z</time>
      </trkpt>
      <trkpt lat="46.9491" lon="0.61441">
        <ele>54.900001525879</ele>
        <time>2019-07-21T05:16:25Z</time>
      </trkpt>
      <trkpt lat="46.94886" lon="0.61501">
        <ele>53.900001525879</ele>
        <time>2019-07-21T05:16:55Z</time>
      </trkpt>
      <trkpt lat="46.94859" lon="0.61558">
        <ele>54.900001525879</ele>
        <time>2019-07-21T05:17:25Z</time>
      </trkpt>
      <trkpt lat="46.94841" lon="0.61578">
        <ele>55.900001525879</ele>
        <time>2019-07-21T05:17:40Z</time>
      </trkpt>
      <trkpt lat="46.94805" lon="0.61623">
        <ele>58.900001525879</ele>
        <time>2019-07-21T05:18:10Z</time>
      </trkpt>
      <trkpt lat="46.948" lon="0.61629">
        <ele>57.900001525879</ele>
        <time>2019-07-21T05:18:14Z</time>
      </trkpt>
      <trkpt lat="46.94797" lon="0.61631">
        <ele>58.900001525879</ele>
        <time>2019-07-21T05:18:16Z</time>
      </trkpt>
      <trkpt lat="46.94794" lon="0.61632">
        <ele>58.900001525879</ele>
        <time>2019-07-21T05:18:18Z</time>
      </trkpt>
      <trkpt lat="46.94791" lon="0.61632">
        <ele>59.900001525879</ele>
        <time>2019-07-21T05:18:20Z</time>
      </trkpt>
      <trkpt lat="46.94789" lon="0.61632">
        <ele>60.900001525879</ele>
        <time>2019-07-21T05:18:22Z</time>
      </trkpt>
      <trkpt lat="46.94779" lon="0.61625">
        <ele>63.900001525879</ele>
        <time>2019-07-21T05:18:30Z</time>
      </trkpt>
      <trkpt lat="46.94735" lon="0.61611">
        <ele>68.900001525879</ele>
        <time>2019-07-21T05:19:00Z</time>
      </trkpt>
      <trkpt lat="46.9473" lon="0.6161">
        <ele>68.900001525879</ele>
        <time>2019-07-21T05:19:03Z</time>
      </trkpt>
      <trkpt lat="46.94708" lon="0.61602">
        <ele>70.900001525879</ele>
        <time>2019-07-21T05:19:18Z</time>
      </trkpt>
      <trkpt lat="46.94706" lon="0.616">
        <ele>72.900001525879</ele>
        <time>2019-07-21T05:19:20Z</time>
      </trkpt>
      <trkpt lat="46.94703" lon="0.61596">
        <ele>74.900001525879</ele>
        <time>2019-07-21T05:19:23Z</time>
      </trkpt>
      <trkpt lat="46.947" lon="0.61594">
        <ele>74.900001525879</ele>
        <time>2019-07-21T05:19:25Z</time>
      </trkpt>
      <trkpt lat="46.94696" lon="0.61592">
        <ele>75.900001525879</ele>
        <time>2019-07-21T05:19:28Z</time>
      </trkpt>
      <trkpt lat="46.9465" lon="0.61581">
        <ele>74.900001525879</ele>
        <time>2019-07-21T05:19:54Z</time>
      </trkpt>
      <trkpt lat="46.94614" lon="0.61566">
        <ele>74.900001525879</ele>
        <time>2019-07-21T05:20:16Z</time>
      </trkpt>
      <trkpt lat="46.94597" lon="0.6156">
        <ele>75.900001525879</ele>
        <time>2019-07-21T05:20:28Z</time>
      </trkpt>
      <trkpt lat="46.94578" lon="0.61553">
        <ele>76.900001525879</ele>
        <time>2019-07-21T05:20:39Z</time>
      </trkpt>
      <trkpt lat="46.94559" lon="0.61546">
        <ele>76.900001525879</ele>
        <time>2019-07-21T05:20:49Z</time>
      </trkpt>
      <trkpt lat="46.94527" lon="0.61533">
        <ele>76.900001525879</ele>
        <time>2019-07-21T05:21:07Z</time>
      </trkpt>
      <trkpt lat="46.94507" lon="0.61527">
        <ele>76.900001525879</ele>
        <time>2019-07-21T05:21:17Z</time>
      </trkpt>
      <trkpt lat="46.94493" lon="0.61521">
        <ele>76.900001525879</ele>
        <time>2019-07-21T05:21:26Z</time>
      </trkpt>
      <trkpt lat="46.94457" lon="0.61507">
        <ele>76.900001525879</ele>
        <time>2019-07-21T05:21:49Z</time>
      </trkpt>
      <trkpt lat="46.94423" lon="0.61495">
        <ele>75.900001525879</ele>
        <time>2019-07-21T05:22:10Z</time>
      </trkpt>
      <trkpt lat="46.94411" lon="0.61491">
        <ele>73.900001525879</ele>
        <time>2019-07-21T05:22:17Z</time>
      </trkpt>
      <trkpt lat="46.94408" lon="0.61491">
        <ele>72.900001525879</ele>
        <time>2019-07-21T05:22:19Z</time>
      </trkpt>
      <trkpt lat="46.94401" lon="0.61489">
        <ele>71.900001525879</ele>
        <time>2019-07-21T05:22:25Z</time>
      </trkpt>
      <trkpt lat="46.944" lon="0.61488">
        <ele>71.900001525879</ele>
        <time>2019-07-21T05:23:09Z</time>
      </trkpt>
      <trkpt lat="46.944" lon="0.61489">
        <ele>69.900001525879</ele>
        <time>2019-07-21T05:23:10Z</time>
      </trkpt>
      <trkpt lat="46.944" lon="0.61489">
        <ele>69.900001525879</ele>
        <time>2019-07-21T05:23:12Z</time>
      </trkpt>
      <trkpt lat="46.944" lon="0.61489">
        <ele>69.900001525879</ele>
        <time>2019-07-21T05:23:14Z</time>
      </trkpt>
      <trkpt lat="46.944" lon="0.61489">
        <ele>68.900001525879</ele>
        <time>2019-07-21T05:23:15Z</time>
      </trkpt>
      <trkpt lat="46.94385" lon="0.61483">
        <ele>71.900001525879</ele>
        <time>2019-07-21T05:23:27Z</time>
      </trkpt>
      <trkpt lat="46.94379" lon="0.6148">
        <ele>71.900001525879</ele>
        <time>2019-07-21T05:23:31Z</time>
      </trkpt>
      <trkpt lat="46.94378" lon="0.61478">
        <ele>70.900001525879</ele>
        <time>2019-07-21T05:23:32Z</time>
      </trkpt>
      <trkpt lat="46.94338" lon="0.61435">
        <ele>63.900001525879</ele>
        <time>2019-07-21T05:24:00Z</time>
      </trkpt>
      <trkpt lat="46.94297" lon="0.61396">
        <ele>61.900001525879</ele>
        <time>2019-07-21T05:24:27Z</time>
      </trkpt>
      <trkpt lat="46.94256" lon="0.61359">
        <ele>60.900001525879</ele>
        <time>2019-07-21T05:24:56Z</time>
      </trkpt>
      <trkpt lat="46.94201" lon="0.61308">
        <ele>57.900001525879</ele>
        <time>2019-07-21T05:25:35Z</time>
      </trkpt>
      <trkpt lat="46.94186" lon="0.61295">
        <ele>56.900001525879</ele>
        <time>2019-07-21T05:25:45Z</time>
      </trkpt>
      <trkpt lat="46.94166" lon="0.61275">
        <ele>57.900001525879</ele>
        <time>2019-07-21T05:25:59Z</time>
      </trkpt>
      <trkpt lat="46.94146" lon="0.61264">
        <ele>58.900001525879</ele>
        <time>2019-07-21T05:26:12Z</time>
      </trkpt>
      <trkpt lat="46.94122" lon="0.61262">
        <ele>59.900001525879</ele>
        <time>2019-07-21T05:26:26Z</time>
      </trkpt>
      <trkpt lat="46.94075" lon="0.61276">
        <ele>55.900001525879</ele>
        <time>2019-07-21T05:26:55Z</time>
      </trkpt>
      <trkpt lat="46.9403" lon="0.61298">
        <ele>54.900001525879</ele>
        <time>2019-07-21T05:27:24Z</time>
      </trkpt>
      <trkpt lat="46.93984" lon="0.61319">
        <ele>54.900001525879</ele>
        <time>2019-07-21T05:27:53Z</time>
      </trkpt>
      <trkpt lat="46.93898" lon="0.6136">
        <ele>57.900001525879</ele>
        <time>2019-07-21T05:28:48Z</time>
      </trkpt>
      <trkpt lat="46.93852" lon="0.61383">
        <ele>58.900001525879</ele>
        <time>2019-07-21T05:29:18Z</time>
      </trkpt>
      <trkpt lat="46.93806" lon="0.61403">
        <ele>58.900001525879</ele>
        <time>2019-07-21T05:29:48Z</time>
      </trkpt>
      <trkpt lat="46.93783" lon="0.6141">
        <ele>57.900001525879</ele>
        <time>2019-07-21T05:30:01Z</time>
      </trkpt>
      <trkpt lat="46.93781" lon="0.6141">
        <ele>58.900001525879</ele>
        <time>2019-07-21T05:30:02Z</time>
      </trkpt>
      <trkpt lat="46.93778" lon="0.6141">
        <ele>57.900001525879</ele>
        <time>2019-07-21T05:30:04Z</time>
      </trkpt>
      <trkpt lat="46.93776" lon="0.61407">
        <ele>57.900001525879</ele>
        <time>2019-07-21T05:30:06Z</time>
      </trkpt>
      <trkpt lat="46.93775" lon="0.61403">
        <ele>57.900001525879</ele>
        <time>2019-07-21T05:30:08Z</time>
      </trkpt>
      <trkpt lat="46.93775" lon="0.614">
        <ele>57.900001525879</ele>
        <time>2019-07-21T05:30:09Z</time>
      </trkpt>
      <trkpt lat="46.93777" lon="0.61366">
        <ele>57.900001525879</ele>
        <time>2019-07-21T05:30:23Z</time>
      </trkpt>
      <trkpt lat="46.93776" lon="0.61357">
        <ele>57.900001525879</ele>
        <time>2019-07-21T05:30:27Z</time>
      </trkpt>
      <trkpt lat="46.93779" lon="0.61318">
        <ele>55.900001525879</ele>
        <time>2019-07-21T05:30:44Z</time>
      </trkpt>
      <trkpt lat="46.93773" lon="0.61251">
        <ele>53.900001525879</ele>
        <time>2019-07-21T05:31:12Z</time>
      </trkpt>
      <trkpt lat="46.93763" lon="0.61184">
        <ele>55.900001525879</ele>
        <time>2019-07-21T05:31:42Z</time>
      </trkpt>
      <trkpt lat="46.93759" lon="0.61114">
        <ele>54.900001525879</ele>
        <time>2019-07-21T05:32:11Z</time>
      </trkpt>
      <trkpt lat="46.9376" lon="0.61087">
        <ele>51.900001525879</ele>
        <time>2019-07-21T05:32:22Z</time>
      </trkpt>
      <trkpt lat="46.9376" lon="0.61084">
        <ele>51.900001525879</ele>
        <time>2019-07-21T05:32:23Z</time>
      </trkpt>
      <trkpt lat="46.93759" lon="0.61081">
        <ele>51.900001525879</ele>
        <time>2019-07-21T05:32:24Z</time>
      </trkpt>
      <trkpt lat="46.93755" lon="0.61067">
        <ele>50.900001525879</ele>
        <time>2019-07-21T05:32:30Z</time>
      </trkpt>
      <trkpt lat="46.93755" lon="0.61045">
        <ele>50.900001525879</ele>
        <time>2019-07-21T05:32:39Z</time>
      </trkpt>
      <trkpt lat="46.93753" lon="0.61042">
        <ele>50.900001525879</ele>
        <time>2019-07-21T05:32:41Z</time>
      </trkpt>
      <trkpt lat="46.9375" lon="0.61039">
        <ele>51.900001525879</ele>
        <time>2019-07-21T05:32:43Z</time>
      </trkpt>
      <trkpt lat="46.93707" lon="0.61031">
        <ele>52.900001525879</ele>
        <time>2019-07-21T05:33:10Z</time>
      </trkpt>
      <trkpt lat="46.9369" lon="0.61028">
        <ele>53.900001525879</ele>
        <time>2019-07-21T05:33:21Z</time>
      </trkpt>
      <trkpt lat="46.93654" lon="0.61024">
        <ele>53.900001525879</ele>
        <time>2019-07-21T05:33:43Z</time>
      </trkpt>
      <trkpt lat="46.93635" lon="0.61022">
        <ele>52.900001525879</ele>
        <time>2019-07-21T05:33:55Z</time>
      </trkpt>
      <trkpt lat="46.93617" lon="0.6102">
        <ele>53.900001525879</ele>
        <time>2019-07-21T05:34:06Z</time>
      </trkpt>
      <trkpt lat="46.93599" lon="0.61014">
        <ele>52.900001525879</ele>
        <time>2019-07-21T05:34:17Z</time>
      </trkpt>
      <trkpt lat="46.93579" lon="0.6101">
        <ele>52.900001525879</ele>
        <time>2019-07-21T05:34:29Z</time>
      </trkpt>
      <trkpt lat="46.93576" lon="0.6101">
        <ele>52.900001525879</ele>
        <time>2019-07-21T05:34:31Z</time>
      </trkpt>
      <trkpt lat="46.93572" lon="0.61007">
        <ele>51.900001525879</ele>
        <time>2019-07-21T05:34:34Z</time>
      </trkpt>
      <trkpt lat="46.93555" lon="0.61004">
        <ele>51.900001525879</ele>
        <time>2019-07-21T05:34:45Z</time>
      </trkpt>
      <trkpt lat="46.93546" lon="0.61004">
        <ele>51.900001525879</ele>
        <time>2019-07-21T05:34:50Z</time>
      </trkpt>
      <trkpt lat="46.93513" lon="0.60995">
        <ele>53.900001525879</ele>
        <time>2019-07-21T05:35:11Z</time>
      </trkpt>
      <trkpt lat="46.93492" lon="0.6099">
        <ele>53.900001525879</ele>
        <time>2019-07-21T05:35:25Z</time>
      </trkpt>
      <trkpt lat="46.93483" lon="0.60983">
        <ele>53.900001525879</ele>
        <time>2019-07-21T05:35:32Z</time>
      </trkpt>
      <trkpt lat="46.93481" lon="0.6098">
        <ele>53.900001525879</ele>
        <time>2019-07-21T05:35:34Z</time>
      </trkpt>
      <trkpt lat="46.93466" lon="0.60953">
        <ele>50.900001525879</ele>
        <time>2019-07-21T05:35:49Z</time>
      </trkpt>
      <trkpt lat="46.93451" lon="0.60908">
        <ele>49.900001525879</ele>
        <time>2019-07-21T05:36:10Z</time>
      </trkpt>
      <trkpt lat="46.93448" lon="0.60904">
        <ele>49.900001525879</ele>
        <time>2019-07-21T05:36:12Z</time>
      </trkpt>
      <trkpt lat="46.93434" lon="0.60891">
        <ele>50.900001525879</ele>
        <time>2019-07-21T05:36:23Z</time>
      </trkpt>
      <trkpt lat="46.93427" lon="0.60888">
        <ele>51.900001525879</ele>
        <time>2019-07-21T05:36:28Z</time>
      </trkpt>
      <trkpt lat="46.93421" lon="0.60888">
        <ele>52.900001525879</ele>
        <time>2019-07-21T05:36:32Z</time>
      </trkpt>
      <trkpt lat="46.93414" lon="0.60892">
        <ele>52.900001525879</ele>
        <time>2019-07-21T05:36:38Z</time>
      </trkpt>
      <trkpt lat="46.93391" lon="0.60926">
        <ele>53.900001525879</ele>
        <time>2019-07-21T05:36:58Z</time>
      </trkpt>
      <trkpt lat="46.93378" lon="0.60947">
        <ele>53.900001525879</ele>
        <time>2019-07-21T05:37:10Z</time>
      </trkpt>
      <trkpt lat="46.93365" lon="0.60967">
        <ele>53.900001525879</ele>
        <time>2019-07-21T05:37:22Z</time>
      </trkpt>
      <trkpt lat="46.93352" lon="0.60988">
        <ele>54.900001525879</ele>
        <time>2019-07-21T05:37:34Z</time>
      </trkpt>
      <trkpt lat="46.93334" lon="0.61019">
        <ele>54.900001525879</ele>
        <time>2019-07-21T05:37:52Z</time>
      </trkpt>
      <trkpt lat="46.93333" lon="0.61023">
        <ele>54.900001525879</ele>
        <time>2019-07-21T05:37:54Z</time>
      </trkpt>
      <trkpt lat="46.93302" lon="0.61076">
        <ele>56.900001525879</ele>
        <time>2019-07-21T05:38:25Z</time>
      </trkpt>
      <trkpt lat="46.933" lon="0.61082">
        <ele>56.900001525879</ele>
        <time>2019-07-21T05:38:28Z</time>
      </trkpt>
      <trkpt lat="46.93295" lon="0.61092">
        <ele>56.900001525879</ele>
        <time>2019-07-21T05:38:33Z</time>
      </trkpt>
      <trkpt lat="46.93284" lon="0.61114">
        <ele>58.900001525879</ele>
        <time>2019-07-21T05:38:45Z</time>
      </trkpt>
      <trkpt lat="46.9328" lon="0.61124">
        <ele>57.900001525879</ele>
        <time>2019-07-21T05:38:50Z</time>
      </trkpt>
      <trkpt lat="46.93275" lon="0.61133">
        <ele>56.900001525879</ele>
        <time>2019-07-21T05:38:56Z</time>
      </trkpt>
      <trkpt lat="46.93273" lon="0.61136">
        <ele>56.900001525879</ele>
        <time>2019-07-21T05:38:58Z</time>
      </trkpt>
      <trkpt lat="46.9327" lon="0.61138">
        <ele>56.900001525879</ele>
        <time>2019-07-21T05:39:00Z</time>
      </trkpt>
      <trkpt lat="46.93261" lon="0.61155">
        <ele>57.900001525879</ele>
        <time>2019-07-21T05:39:09Z</time>
      </trkpt>
      <trkpt lat="46.93257" lon="0.61168">
        <ele>58.900001525879</ele>
        <time>2019-07-21T05:39:16Z</time>
      </trkpt>
      <trkpt lat="46.93254" lon="0.6117">
        <ele>56.900001525879</ele>
        <time>2019-07-21T05:39:18Z</time>
      </trkpt>
      <trkpt lat="46.93252" lon="0.6117">
        <ele>57.900001525879</ele>
        <time>2019-07-21T05:39:19Z</time>
      </trkpt>
      <trkpt lat="46.93249" lon="0.61169">
        <ele>57.900001525879</ele>
        <time>2019-07-21T05:39:21Z</time>
      </trkpt>
      <trkpt lat="46.93248" lon="0.61167">
        <ele>57.900001525879</ele>
        <time>2019-07-21T05:39:22Z</time>
      </trkpt>
      <trkpt lat="46.93246" lon="0.61166">
        <ele>57.900001525879</ele>
        <time>2019-07-21T05:39:23Z</time>
      </trkpt>
      <trkpt lat="46.93245" lon="0.61164">
        <ele>57.900001525879</ele>
        <time>2019-07-21T05:39:24Z</time>
      </trkpt>
      <trkpt lat="46.93244" lon="0.61162">
        <ele>57.900001525879</ele>
        <time>2019-07-21T05:39:25Z</time>
      </trkpt>
      <trkpt lat="46.93209" lon="0.6108">
        <ele>56.900001525879</ele>
        <time>2019-07-21T05:40:05Z</time>
      </trkpt>
      <trkpt lat="46.93184" lon="0.6102">
        <ele>55.900001525879</ele>
        <time>2019-07-21T05:40:36Z</time>
      </trkpt>
      <trkpt lat="46.93161" lon="0.6097">
        <ele>55.900001525879</ele>
        <time>2019-07-21T05:41:04Z</time>
      </trkpt>
      <trkpt lat="46.93158" lon="0.60962">
        <ele>55.900001525879</ele>
        <time>2019-07-21T05:41:08Z</time>
      </trkpt>
      <trkpt lat="46.93156" lon="0.60959">
        <ele>55.900001525879</ele>
        <time>2019-07-21T05:41:10Z</time>
      </trkpt>
      <trkpt lat="46.93134" lon="0.60938">
        <ele>53.900001525879</ele>
        <time>2019-07-21T05:41:28Z</time>
      </trkpt>
      <trkpt lat="46.93133" lon="0.60936">
        <ele>52.900001525879</ele>
        <time>2019-07-21T05:42:10Z</time>
      </trkpt>
      <trkpt lat="46.93125" lon="0.60919">
        <ele>52.900001525879</ele>
        <time>2019-07-21T05:42:20Z</time>
      </trkpt>
      <trkpt lat="46.93123" lon="0.60916">
        <ele>52.900001525879</ele>
        <time>2019-07-21T05:42:22Z</time>
      </trkpt>
      <trkpt lat="46.93121" lon="0.60914">
        <ele>52.900001525879</ele>
        <time>2019-07-21T05:42:24Z</time>
      </trkpt>
      <trkpt lat="46.93096" lon="0.60904">
        <ele>52.900001525879</ele>
        <time>2019-07-21T05:42:40Z</time>
      </trkpt>
      <trkpt lat="46.93089" lon="0.609">
        <ele>53.900001525879</ele>
        <time>2019-07-21T05:42:45Z</time>
      </trkpt>
      <trkpt lat="46.93083" lon="0.60893">
        <ele>54.900001525879</ele>
        <time>2019-07-21T05:42:50Z</time>
      </trkpt>
      <trkpt lat="46.9304" lon="0.60865">
        <ele>53.900001525879</ele>
        <time>2019-07-21T05:43:21Z</time>
      </trkpt>
      <trkpt lat="46.92998" lon="0.60831">
        <ele>51.900001525879</ele>
        <time>2019-07-21T05:43:51Z</time>
      </trkpt>
      <trkpt lat="46.92988" lon="0.6082">
        <ele>51.900001525879</ele>
        <time>2019-07-21T05:43:59Z</time>
      </trkpt>
      <trkpt lat="46.92984" lon="0.60812">
        <ele>52.900001525879</ele>
        <time>2019-07-21T05:44:03Z</time>
      </trkpt>
      <trkpt lat="46.92957" lon="0.60778">
        <ele>53.900001525879</ele>
        <time>2019-07-21T05:44:25Z</time>
      </trkpt>
      <trkpt lat="46.92926" lon="0.60725">
        <ele>53.900001525879</ele>
        <time>2019-07-21T05:44:56Z</time>
      </trkpt>
      <trkpt lat="46.92904" lon="0.60669">
        <ele>55.900001525879</ele>
        <time>2019-07-21T05:45:24Z</time>
      </trkpt>
      <trkpt lat="46.92886" lon="0.60612">
        <ele>55.900001525879</ele>
        <time>2019-07-21T05:45:52Z</time>
      </trkpt>
      <trkpt lat="46.92883" lon="0.60606">
        <ele>54.900001525879</ele>
        <time>2019-07-21T05:45:55Z</time>
      </trkpt>
      <trkpt lat="46.92862" lon="0.6054">
        <ele>55.900001525879</ele>
        <time>2019-07-21T05:46:27Z</time>
      </trkpt>
      <trkpt lat="46.9286" lon="0.60532">
        <ele>55.900001525879</ele>
        <time>2019-07-21T05:46:31Z</time>
      </trkpt>
      <trkpt lat="46.92854" lon="0.60517">
        <ele>55.900001525879</ele>
        <time>2019-07-21T05:46:39Z</time>
      </trkpt>
      <trkpt lat="46.92853" lon="0.60513">
        <ele>55.900001525879</ele>
        <time>2019-07-21T05:46:42Z</time>
      </trkpt>
      <trkpt lat="46.92851" lon="0.60512">
        <ele>56.900001525879</ele>
        <time>2019-07-21T05:46:45Z</time>
      </trkpt>
      <trkpt lat="46.92849" lon="0.6051">
        <ele>56.900001525879</ele>
        <time>2019-07-21T05:46:47Z</time>
      </trkpt>
      <trkpt lat="46.92847" lon="0.60508">
        <ele>56.900001525879</ele>
        <time>2019-07-21T05:46:49Z</time>
      </trkpt>
      <trkpt lat="46.92823" lon="0.60444">
        <ele>51.900001525879</ele>
        <time>2019-07-21T05:47:17Z</time>
      </trkpt>
      <trkpt lat="46.92811" lon="0.60382">
        <ele>49.900001525879</ele>
        <time>2019-07-21T05:47:42Z</time>
      </trkpt>
      <trkpt lat="46.92809" lon="0.6037">
        <ele>49.900001525879</ele>
        <time>2019-07-21T05:47:47Z</time>
      </trkpt>
      <trkpt lat="46.92807" lon="0.60366">
        <ele>49.900001525879</ele>
        <time>2019-07-21T05:47:49Z</time>
      </trkpt>
      <trkpt lat="46.92793" lon="0.60339">
        <ele>49.900001525879</ele>
        <time>2019-07-21T05:48:03Z</time>
      </trkpt>
      <trkpt lat="46.92775" lon="0.60289">
        <ele>47.900001525879</ele>
        <time>2019-07-21T05:48:26Z</time>
      </trkpt>
      <trkpt lat="46.92746" lon="0.60254">
        <ele>47.900001525879</ele>
        <time>2019-07-21T05:48:49Z</time>
      </trkpt>
      <trkpt lat="46.92705" lon="0.60215">
        <ele>47.900001525879</ele>
        <time>2019-07-21T05:49:19Z</time>
      </trkpt>
      <trkpt lat="46.92664" lon="0.60174">
        <ele>50.900001525879</ele>
        <time>2019-07-21T05:49:50Z</time>
      </trkpt>
      <trkpt lat="46.92624" lon="0.60136">
        <ele>47.900001525879</ele>
        <time>2019-07-21T05:50:18Z</time>
      </trkpt>
      <trkpt lat="46.92582" lon="0.60099">
        <ele>47.900001525879</ele>
        <time>2019-07-21T05:50:48Z</time>
      </trkpt>
      <trkpt lat="46.92572" lon="0.60091">
        <ele>47.900001525879</ele>
        <time>2019-07-21T05:50:55Z</time>
      </trkpt>
      <trkpt lat="46.9257" lon="0.6009">
        <ele>48.900001525879</ele>
        <time>2019-07-21T05:50:57Z</time>
      </trkpt>
      <trkpt lat="46.92551" lon="0.60095">
        <ele>50.900001525879</ele>
        <time>2019-07-21T05:51:09Z</time>
      </trkpt>
      <trkpt lat="46.92547" lon="0.60094">
        <ele>50.900001525879</ele>
        <time>2019-07-21T05:51:11Z</time>
      </trkpt>
      <trkpt lat="46.92546" lon="0.60093">
        <ele>50.900001525879</ele>
        <time>2019-07-21T05:51:12Z</time>
      </trkpt>
      <trkpt lat="46.92542" lon="0.6009">
        <ele>49.900001525879</ele>
        <time>2019-07-21T05:51:14Z</time>
      </trkpt>
      <trkpt lat="46.9254" lon="0.60087">
        <ele>49.900001525879</ele>
        <time>2019-07-21T05:51:16Z</time>
      </trkpt>
      <trkpt lat="46.92529" lon="0.60055">
        <ele>46.900001525879</ele>
        <time>2019-07-21T05:51:31Z</time>
      </trkpt>
      <trkpt lat="46.92493" lon="0.60015">
        <ele>48.900001525879</ele>
        <time>2019-07-21T05:51:59Z</time>
      </trkpt>
      <trkpt lat="46.92478" lon="0.59999">
        <ele>47.900001525879</ele>
        <time>2019-07-21T05:52:10Z</time>
      </trkpt>
      <trkpt lat="46.92461" lon="0.59983">
        <ele>47.900001525879</ele>
        <time>2019-07-21T05:52:22Z</time>
      </trkpt>
      <trkpt lat="46.92447" lon="0.59968">
        <ele>48.900001525879</ele>
        <time>2019-07-21T05:52:33Z</time>
      </trkpt>
      <trkpt lat="46.92432" lon="0.59952">
        <ele>48.900001525879</ele>
        <time>2019-07-21T05:52:44Z</time>
      </trkpt>
      <trkpt lat="46.92417" lon="0.59934">
        <ele>47.900001525879</ele>
        <time>2019-07-21T05:52:56Z</time>
      </trkpt>
      <trkpt lat="46.92401" lon="0.59917">
        <ele>48.900001525879</ele>
        <time>2019-07-21T05:53:08Z</time>
      </trkpt>
      <trkpt lat="46.92386" lon="0.599">
        <ele>47.900001525879</ele>
        <time>2019-07-21T05:53:20Z</time>
      </trkpt>
      <trkpt lat="46.9237" lon="0.59884">
        <ele>48.900001525879</ele>
        <time>2019-07-21T05:53:32Z</time>
      </trkpt>
      <trkpt lat="46.92354" lon="0.59869">
        <ele>47.900001525879</ele>
        <time>2019-07-21T05:53:44Z</time>
      </trkpt>
      <trkpt lat="46.92338" lon="0.59854">
        <ele>47.900001525879</ele>
        <time>2019-07-21T05:53:56Z</time>
      </trkpt>
      <trkpt lat="46.92323" lon="0.5984">
        <ele>48.900001525879</ele>
        <time>2019-07-21T05:54:08Z</time>
      </trkpt>
      <trkpt lat="46.92307" lon="0.59825">
        <ele>47.900001525879</ele>
        <time>2019-07-21T05:54:20Z</time>
      </trkpt>
      <trkpt lat="46.92291" lon="0.59808">
        <ele>48.900001525879</ele>
        <time>2019-07-21T05:54:32Z</time>
      </trkpt>
      <trkpt lat="46.92274" lon="0.59792">
        <ele>47.900001525879</ele>
        <time>2019-07-21T05:54:44Z</time>
      </trkpt>
      <trkpt lat="46.92258" lon="0.59777">
        <ele>48.900001525879</ele>
        <time>2019-07-21T05:54:56Z</time>
      </trkpt>
      <trkpt lat="46.92242" lon="0.5976">
        <ele>47.900001525879</ele>
        <time>2019-07-21T05:55:08Z</time>
      </trkpt>
      <trkpt lat="46.92226" lon="0.59744">
        <ele>48.900001525879</ele>
        <time>2019-07-21T05:55:20Z</time>
      </trkpt>
      <trkpt lat="46.92211" lon="0.59728">
        <ele>47.900001525879</ele>
        <time>2019-07-21T05:55:32Z</time>
      </trkpt>
      <trkpt lat="46.92194" lon="0.59712">
        <ele>45.900001525879</ele>
        <time>2019-07-21T05:55:44Z</time>
      </trkpt>
      <trkpt lat="46.92179" lon="0.59697">
        <ele>47.900001525879</ele>
        <time>2019-07-21T05:55:56Z</time>
      </trkpt>
      <trkpt lat="46.92162" lon="0.59681">
        <ele>47.900001525879</ele>
        <time>2019-07-21T05:56:08Z</time>
      </trkpt>
      <trkpt lat="46.92146" lon="0.59665">
        <ele>47.900001525879</ele>
        <time>2019-07-21T05:56:20Z</time>
      </trkpt>
      <trkpt lat="46.9213" lon="0.59649">
        <ele>46.900001525879</ele>
        <time>2019-07-21T05:56:32Z</time>
      </trkpt>
      <trkpt lat="46.92114" lon="0.59634">
        <ele>49.900001525879</ele>
        <time>2019-07-21T05:56:44Z</time>
      </trkpt>
      <trkpt lat="46.92098" lon="0.59618">
        <ele>48.900001525879</ele>
        <time>2019-07-21T05:56:57Z</time>
      </trkpt>
      <trkpt lat="46.92082" lon="0.59602">
        <ele>48.900001525879</ele>
        <time>2019-07-21T05:57:09Z</time>
      </trkpt>
      <trkpt lat="46.92066" lon="0.59588">
        <ele>47.900001525879</ele>
        <time>2019-07-21T05:57:21Z</time>
      </trkpt>
      <trkpt lat="46.9205" lon="0.59571">
        <ele>47.900001525879</ele>
        <time>2019-07-21T05:57:33Z</time>
      </trkpt>
      <trkpt lat="46.92025" lon="0.59547">
        <ele>48.900001525879</ele>
        <time>2019-07-21T05:57:52Z</time>
      </trkpt>
      <trkpt lat="46.9201" lon="0.59531">
        <ele>50.900001525879</ele>
        <time>2019-07-21T05:58:04Z</time>
      </trkpt>
      <trkpt lat="46.91994" lon="0.59515">
        <ele>52.900001525879</ele>
        <time>2019-07-21T05:58:16Z</time>
      </trkpt>
      <trkpt lat="46.91979" lon="0.59498">
        <ele>52.900001525879</ele>
        <time>2019-07-21T05:58:28Z</time>
      </trkpt>
      <trkpt lat="46.91965" lon="0.59481">
        <ele>52.900001525879</ele>
        <time>2019-07-21T05:58:40Z</time>
      </trkpt>
      <trkpt lat="46.9195" lon="0.59463">
        <ele>53.900001525879</ele>
        <time>2019-07-21T05:58:52Z</time>
      </trkpt>
      <trkpt lat="46.91936" lon="0.59445">
        <ele>53.900001525879</ele>
        <time>2019-07-21T05:59:04Z</time>
      </trkpt>
      <trkpt lat="46.91921" lon="0.59428">
        <ele>52.900001525879</ele>
        <time>2019-07-21T05:59:16Z</time>
      </trkpt>
      <trkpt lat="46.91906" lon="0.5941">
        <ele>53.900001525879</ele>
        <time>2019-07-21T05:59:28Z</time>
      </trkpt>
      <trkpt lat="46.91891" lon="0.59392">
        <ele>52.900001525879</ele>
        <time>2019-07-21T05:59:40Z</time>
      </trkpt>
      <trkpt lat="46.91877" lon="0.59375">
        <ele>53.900001525879</ele>
        <time>2019-07-21T05:59:53Z</time>
      </trkpt>
      <trkpt lat="46.91862" lon="0.59358">
        <ele>52.900001525879</ele>
        <time>2019-07-21T06:00:05Z</time>
      </trkpt>
      <trkpt lat="46.91847" lon="0.5934">
        <ele>52.900001525879</ele>
        <time>2019-07-21T06:00:18Z</time>
      </trkpt>
      <trkpt lat="46.91833" lon="0.59322">
        <ele>52.900001525879</ele>
        <time>2019-07-21T06:00:30Z</time>
      </trkpt>
      <trkpt lat="46.91817" lon="0.59304">
        <ele>51.900001525879</ele>
        <time>2019-07-21T06:00:43Z</time>
      </trkpt>
      <trkpt lat="46.91802" lon="0.59286">
        <ele>49.900001525879</ele>
        <time>2019-07-21T06:00:56Z</time>
      </trkpt>
      <trkpt lat="46.91785" lon="0.59271">
        <ele>49.900001525879</ele>
        <time>2019-07-21T06:01:09Z</time>
      </trkpt>
      <trkpt lat="46.91777" lon="0.59264">
        <ele>49.900001525879</ele>
        <time>2019-07-21T06:01:15Z</time>
      </trkpt>
      <trkpt lat="46.9176" lon="0.59244">
        <ele>48.900001525879</ele>
        <time>2019-07-21T06:01:29Z</time>
      </trkpt>
      <trkpt lat="46.91726" lon="0.59206">
        <ele>49.900001525879</ele>
        <time>2019-07-21T06:01:55Z</time>
      </trkpt>
      <trkpt lat="46.91723" lon="0.592">
        <ele>51.900001525879</ele>
        <time>2019-07-21T06:01:59Z</time>
      </trkpt>
      <trkpt lat="46.91705" lon="0.59178">
        <ele>51.900001525879</ele>
        <time>2019-07-21T06:02:13Z</time>
      </trkpt>
      <trkpt lat="46.9169" lon="0.59161">
        <ele>50.900001525879</ele>
        <time>2019-07-21T06:02:25Z</time>
      </trkpt>
      <trkpt lat="46.91679" lon="0.59148">
        <ele>51.900001525879</ele>
        <time>2019-07-21T06:02:34Z</time>
      </trkpt>
      <trkpt lat="46.91677" lon="0.59146">
        <ele>50.900001525879</ele>
        <time>2019-07-21T06:02:36Z</time>
      </trkpt>
      <trkpt lat="46.91642" lon="0.59097">
        <ele>51.900001525879</ele>
        <time>2019-07-21T06:03:06Z</time>
      </trkpt>
      <trkpt lat="46.91604" lon="0.59053">
        <ele>50.900001525879</ele>
        <time>2019-07-21T06:03:37Z</time>
      </trkpt>
      <trkpt lat="46.91568" lon="0.59006">
        <ele>51.900001525879</ele>
        <time>2019-07-21T06:04:07Z</time>
      </trkpt>
      <trkpt lat="46.91532" lon="0.58961">
        <ele>49.900001525879</ele>
        <time>2019-07-21T06:04:36Z</time>
      </trkpt>
      <trkpt lat="46.91496" lon="0.58915">
        <ele>51.900001525879</ele>
        <time>2019-07-21T06:05:07Z</time>
      </trkpt>
      <trkpt lat="46.9146" lon="0.58871">
        <ele>51.900001525879</ele>
        <time>2019-07-21T06:05:37Z</time>
      </trkpt>
      <trkpt lat="46.91431" lon="0.58836">
        <ele>51.900001525879</ele>
        <time>2019-07-21T06:06:01Z</time>
      </trkpt>
      <trkpt lat="46.91394" lon="0.5879">
        <ele>51.900001525879</ele>
        <time>2019-07-21T06:06:31Z</time>
      </trkpt>
      <trkpt lat="46.91357" lon="0.58746">
        <ele>51.900001525879</ele>
        <time>2019-07-21T06:07:00Z</time>
      </trkpt>
      <trkpt lat="46.9132" lon="0.58701">
        <ele>51.900001525879</ele>
        <time>2019-07-21T06:07:30Z</time>
      </trkpt>
      <trkpt lat="46.91283" lon="0.58656">
        <ele>52.900001525879</ele>
        <time>2019-07-21T06:08:00Z</time>
      </trkpt>
      <trkpt lat="46.91243" lon="0.58615">
        <ele>52.900001525879</ele>
        <time>2019-07-21T06:08:30Z</time>
      </trkpt>
      <trkpt lat="46.91208" lon="0.5858">
        <ele>52.900001525879</ele>
        <time>2019-07-21T06:08:58Z</time>
      </trkpt>
      <trkpt lat="46.91205" lon="0.58579">
        <ele>53.900001525879</ele>
        <time>2019-07-21T06:09:05Z</time>
      </trkpt>
      <trkpt lat="46.91205" lon="0.58579">
        <ele>53.900001525879</ele>
        <time>2019-07-21T06:09:07Z</time>
      </trkpt>
      <trkpt lat="46.91205" lon="0.58579">
        <ele>53.900001525879</ele>
        <time>2019-07-21T06:09:08Z</time>
      </trkpt>
      <trkpt lat="46.91204" lon="0.58575">
        <ele>54.900001525879</ele>
        <time>2019-07-21T06:09:13Z</time>
      </trkpt>
      <trkpt lat="46.91203" lon="0.58572">
        <ele>54.900001525879</ele>
        <time>2019-07-21T06:09:15Z</time>
      </trkpt>
      <trkpt lat="46.91202" lon="0.5857">
        <ele>54.900001525879</ele>
        <time>2019-07-21T06:09:16Z</time>
      </trkpt>
      <trkpt lat="46.91201" lon="0.58568">
        <ele>53.900001525879</ele>
        <time>2019-07-21T06:09:17Z</time>
      </trkpt>
      <trkpt lat="46.91184" lon="0.58547">
        <ele>54.900001525879</ele>
        <time>2019-07-21T06:09:31Z</time>
      </trkpt>
      <trkpt lat="46.91149" lon="0.58497">
        <ele>52.900001525879</ele>
        <time>2019-07-21T06:10:01Z</time>
      </trkpt>
      <trkpt lat="46.91113" lon="0.58453">
        <ele>52.900001525879</ele>
        <time>2019-07-21T06:10:30Z</time>
      </trkpt>
      <trkpt lat="46.91075" lon="0.58407">
        <ele>51.900001525879</ele>
        <time>2019-07-21T06:10:59Z</time>
      </trkpt>
      <trkpt lat="46.91072" lon="0.58404">
        <ele>51.900001525879</ele>
        <time>2019-07-21T06:11:01Z</time>
      </trkpt>
      <trkpt lat="46.9107" lon="0.58402">
        <ele>51.900001525879</ele>
        <time>2019-07-21T06:11:03Z</time>
      </trkpt>
      <trkpt lat="46.91067" lon="0.58401">
        <ele>51.900001525879</ele>
        <time>2019-07-21T06:11:05Z</time>
      </trkpt>
      <trkpt lat="46.91064" lon="0.58401">
        <ele>52.900001525879</ele>
        <time>2019-07-21T06:11:08Z</time>
      </trkpt>
      <trkpt lat="46.91063" lon="0.584">
        <ele>52.900001525879</ele>
        <time>2019-07-21T06:11:52Z</time>
      </trkpt>
      <trkpt lat="46.91063" lon="0.584">
        <ele>52.900001525879</ele>
        <time>2019-07-21T06:11:53Z</time>
      </trkpt>
      <trkpt lat="46.91061" lon="0.58399">
        <ele>53.900001525879</ele>
        <time>2019-07-21T06:11:57Z</time>
      </trkpt>
      <trkpt lat="46.9106" lon="0.58396">
        <ele>54.900001525879</ele>
        <time>2019-07-21T06:12:00Z</time>
      </trkpt>
      <trkpt lat="46.9106" lon="0.58393">
        <ele>53.900001525879</ele>
        <time>2019-07-21T06:12:02Z</time>
      </trkpt>
      <trkpt lat="46.91056" lon="0.58386">
        <ele>52.900001525879</ele>
        <time>2019-07-21T06:12:07Z</time>
      </trkpt>
      <trkpt lat="46.91018" lon="0.58338">
        <ele>51.900001525879</ele>
        <time>2019-07-21T06:12:37Z</time>
      </trkpt>
      <trkpt lat="46.9098" lon="0.58295">
        <ele>51.900001525879</ele>
        <time>2019-07-21T06:13:06Z</time>
      </trkpt>
      <trkpt lat="46.90942" lon="0.5825">
        <ele>51.900001525879</ele>
        <time>2019-07-21T06:13:35Z</time>
      </trkpt>
      <trkpt lat="46.90904" lon="0.58206">
        <ele>53.900001525879</ele>
        <time>2019-07-21T06:14:04Z</time>
      </trkpt>
      <trkpt lat="46.90867" lon="0.58164">
        <ele>53.900001525879</ele>
        <time>2019-07-21T06:14:33Z</time>
      </trkpt>
      <trkpt lat="46.90824" lon="0.5813">
        <ele>52.900001525879</ele>
        <time>2019-07-21T06:15:02Z</time>
      </trkpt>
      <trkpt lat="46.90781" lon="0.58093">
        <ele>52.900001525879</ele>
        <time>2019-07-21T06:15:33Z</time>
      </trkpt>
      <trkpt lat="46.90739" lon="0.58058">
        <ele>52.900001525879</ele>
        <time>2019-07-21T06:16:03Z</time>
      </trkpt>
      <trkpt lat="46.90699" lon="0.58027">
        <ele>51.900001525879</ele>
        <time>2019-07-21T06:16:30Z</time>
      </trkpt>
      <trkpt lat="46.90685" lon="0.58024">
        <ele>52.900001525879</ele>
        <time>2019-07-21T06:16:39Z</time>
      </trkpt>
      <trkpt lat="46.90675" lon="0.58017">
        <ele>52.900001525879</ele>
        <time>2019-07-21T06:16:46Z</time>
      </trkpt>
      <trkpt lat="46.90656" lon="0.57991">
        <ele>52.900001525879</ele>
        <time>2019-07-21T06:17:03Z</time>
      </trkpt>
      <trkpt lat="46.90643" lon="0.57962">
        <ele>52.900001525879</ele>
        <time>2019-07-21T06:17:18Z</time>
      </trkpt>
      <trkpt lat="46.906" lon="0.57926">
        <ele>51.900001525879</ele>
        <time>2019-07-21T06:17:49Z</time>
      </trkpt>
      <trkpt lat="46.90558" lon="0.57892">
        <ele>51.900001525879</ele>
        <time>2019-07-21T06:18:19Z</time>
      </trkpt>
      <trkpt lat="46.90517" lon="0.57856">
        <ele>52.900001525879</ele>
        <time>2019-07-21T06:18:49Z</time>
      </trkpt>
      <trkpt lat="46.90497" lon="0.57839">
        <ele>51.900001525879</ele>
        <time>2019-07-21T06:19:03Z</time>
      </trkpt>
      <trkpt lat="46.90455" lon="0.57804">
        <ele>51.900001525879</ele>
        <time>2019-07-21T06:19:33Z</time>
      </trkpt>
      <trkpt lat="46.90414" lon="0.57769">
        <ele>50.900001525879</ele>
        <time>2019-07-21T06:20:03Z</time>
      </trkpt>
      <trkpt lat="46.90373" lon="0.57734">
        <ele>50.900001525879</ele>
        <time>2019-07-21T06:20:34Z</time>
      </trkpt>
      <trkpt lat="46.90331" lon="0.577">
        <ele>50.900001525879</ele>
        <time>2019-07-21T06:21:05Z</time>
      </trkpt>
      <trkpt lat="46.9029" lon="0.57666">
        <ele>50.900001525879</ele>
        <time>2019-07-21T06:21:36Z</time>
      </trkpt>
      <trkpt lat="46.90248" lon="0.57633">
        <ele>50.900001525879</ele>
        <time>2019-07-21T06:22:07Z</time>
      </trkpt>
      <trkpt lat="46.90207" lon="0.57599">
        <ele>50.900001525879</ele>
        <time>2019-07-21T06:22:38Z</time>
      </trkpt>
      <trkpt lat="46.90189" lon="0.57585">
        <ele>51.900001525879</ele>
        <time>2019-07-21T06:22:51Z</time>
      </trkpt>
      <trkpt lat="46.90172" lon="0.57572">
        <ele>50.900001525879</ele>
        <time>2019-07-21T06:23:04Z</time>
      </trkpt>
      <trkpt lat="46.90155" lon="0.57558">
        <ele>52.900001525879</ele>
        <time>2019-07-21T06:23:17Z</time>
      </trkpt>
      <trkpt lat="46.90138" lon="0.57545">
        <ele>51.900001525879</ele>
        <time>2019-07-21T06:23:29Z</time>
      </trkpt>
      <trkpt lat="46.90121" lon="0.57533">
        <ele>52.900001525879</ele>
        <time>2019-07-21T06:23:42Z</time>
      </trkpt>
      <trkpt lat="46.90103" lon="0.57522">
        <ele>54.900001525879</ele>
        <time>2019-07-21T06:23:55Z</time>
      </trkpt>
      <trkpt lat="46.90094" lon="0.57516">
        <ele>54.900001525879</ele>
        <time>2019-07-21T06:24:01Z</time>
      </trkpt>
      <trkpt lat="46.90087" lon="0.57512">
        <ele>55.900001525879</ele>
        <time>2019-07-21T06:24:06Z</time>
      </trkpt>
      <trkpt lat="46.90047" lon="0.57475">
        <ele>51.900001525879</ele>
        <time>2019-07-21T06:24:36Z</time>
      </trkpt>
      <trkpt lat="46.90025" lon="0.57459">
        <ele>50.900001525879</ele>
        <time>2019-07-21T06:24:51Z</time>
      </trkpt>
      <trkpt lat="46.90023" lon="0.57457">
        <ele>50.900001525879</ele>
        <time>2019-07-21T06:24:53Z</time>
      </trkpt>
      <trkpt lat="46.9002" lon="0.57457">
        <ele>50.900001525879</ele>
        <time>2019-07-21T06:24:55Z</time>
      </trkpt>
      <trkpt lat="46.90018" lon="0.57459">
        <ele>50.900001525879</ele>
        <time>2019-07-21T06:24:57Z</time>
      </trkpt>
      <trkpt lat="46.9001" lon="0.57467">
        <ele>51.900001525879</ele>
        <time>2019-07-21T06:25:04Z</time>
      </trkpt>
      <trkpt lat="46.90007" lon="0.57469">
        <ele>52.900001525879</ele>
        <time>2019-07-21T06:25:06Z</time>
      </trkpt>
      <trkpt lat="46.90004" lon="0.57469">
        <ele>52.900001525879</ele>
        <time>2019-07-21T06:25:08Z</time>
      </trkpt>
      <trkpt lat="46.89983" lon="0.57459">
        <ele>51.900001525879</ele>
        <time>2019-07-21T06:25:23Z</time>
      </trkpt>
      <trkpt lat="46.89975" lon="0.57453">
        <ele>50.900001525879</ele>
        <time>2019-07-21T06:25:29Z</time>
      </trkpt>
      <trkpt lat="46.89965" lon="0.57444">
        <ele>49.900001525879</ele>
        <time>2019-07-21T06:25:37Z</time>
      </trkpt>
      <trkpt lat="46.89961" lon="0.57442">
        <ele>49.900001525879</ele>
        <time>2019-07-21T06:25:40Z</time>
      </trkpt>
      <trkpt lat="46.89958" lon="0.57442">
        <ele>49.900001525879</ele>
        <time>2019-07-21T06:25:42Z</time>
      </trkpt>
      <trkpt lat="46.89955" lon="0.57442">
        <ele>49.900001525879</ele>
        <time>2019-07-21T06:25:44Z</time>
      </trkpt>
      <trkpt lat="46.89952" lon="0.57443">
        <ele>50.900001525879</ele>
        <time>2019-07-21T06:25:46Z</time>
      </trkpt>
      <trkpt lat="46.89949" lon="0.57445">
        <ele>50.900001525879</ele>
        <time>2019-07-21T06:25:48Z</time>
      </trkpt>
      <trkpt lat="46.89942" lon="0.57452">
        <ele>50.900001525879</ele>
        <time>2019-07-21T06:25:54Z</time>
      </trkpt>
      <trkpt lat="46.89939" lon="0.57452">
        <ele>50.900001525879</ele>
        <time>2019-07-21T06:25:56Z</time>
      </trkpt>
      <trkpt lat="46.89936" lon="0.57452">
        <ele>50.900001525879</ele>
        <time>2019-07-21T06:25:58Z</time>
      </trkpt>
      <trkpt lat="46.89899" lon="0.57427">
        <ele>50.900001525879</ele>
        <time>2019-07-21T06:26:27Z</time>
      </trkpt>
      <trkpt lat="46.89856" lon="0.57416">
        <ele>51.900001525879</ele>
        <time>2019-07-21T06:26:57Z</time>
      </trkpt>
      <trkpt lat="46.89845" lon="0.5741">
        <ele>51.900001525879</ele>
        <time>2019-07-21T06:27:05Z</time>
      </trkpt>
      <trkpt lat="46.89843" lon="0.57408">
        <ele>51.900001525879</ele>
        <time>2019-07-21T06:27:07Z</time>
      </trkpt>
      <trkpt lat="46.8984" lon="0.57406">
        <ele>50.900001525879</ele>
        <time>2019-07-21T06:27:09Z</time>
      </trkpt>
      <trkpt lat="46.89813" lon="0.57401">
        <ele>50.900001525879</ele>
        <time>2019-07-21T06:27:28Z</time>
      </trkpt>
      <trkpt lat="46.8981" lon="0.574">
        <ele>50.900001525879</ele>
        <time>2019-07-21T06:27:30Z</time>
      </trkpt>
      <trkpt lat="46.89792" lon="0.57386">
        <ele>51.900001525879</ele>
        <time>2019-07-21T06:27:44Z</time>
      </trkpt>
      <trkpt lat="46.89789" lon="0.57385">
        <ele>51.900001525879</ele>
        <time>2019-07-21T06:27:46Z</time>
      </trkpt>
      <trkpt lat="46.89786" lon="0.57385">
        <ele>51.900001525879</ele>
        <time>2019-07-21T06:27:48Z</time>
      </trkpt>
      <trkpt lat="46.89782" lon="0.57386">
        <ele>51.900001525879</ele>
        <time>2019-07-21T06:27:51Z</time>
      </trkpt>
      <trkpt lat="46.89779" lon="0.57388">
        <ele>51.900001525879</ele>
        <time>2019-07-21T06:27:53Z</time>
      </trkpt>
      <trkpt lat="46.89777" lon="0.57391">
        <ele>50.900001525879</ele>
        <time>2019-07-21T06:27:55Z</time>
      </trkpt>
      <trkpt lat="46.89769" lon="0.57409">
        <ele>50.900001525879</ele>
        <time>2019-07-21T06:28:05Z</time>
      </trkpt>
      <trkpt lat="46.89767" lon="0.57412">
        <ele>49.900001525879</ele>
        <time>2019-07-21T06:28:07Z</time>
      </trkpt>
      <trkpt lat="46.89765" lon="0.57414">
        <ele>50.900001525879</ele>
        <time>2019-07-21T06:28:09Z</time>
      </trkpt>
      <trkpt lat="46.89762" lon="0.57415">
        <ele>50.900001525879</ele>
        <time>2019-07-21T06:28:11Z</time>
      </trkpt>
      <trkpt lat="46.89742" lon="0.57402">
        <ele>51.900001525879</ele>
        <time>2019-07-21T06:28:26Z</time>
      </trkpt>
      <trkpt lat="46.89735" lon="0.57401">
        <ele>51.900001525879</ele>
        <time>2019-07-21T06:28:32Z</time>
      </trkpt>
      <trkpt lat="46.89732" lon="0.57401">
        <ele>51.900001525879</ele>
        <time>2019-07-21T06:28:34Z</time>
      </trkpt>
      <trkpt lat="46.89729" lon="0.57402">
        <ele>51.900001525879</ele>
        <time>2019-07-21T06:28:36Z</time>
      </trkpt>
      <trkpt lat="46.89724" lon="0.57406">
        <ele>50.900001525879</ele>
        <time>2019-07-21T06:28:40Z</time>
      </trkpt>
      <trkpt lat="46.89722" lon="0.57409">
        <ele>50.900001525879</ele>
        <time>2019-07-21T06:28:42Z</time>
      </trkpt>
      <trkpt lat="46.8972" lon="0.57412">
        <ele>50.900001525879</ele>
        <time>2019-07-21T06:28:44Z</time>
      </trkpt>
      <trkpt lat="46.89703" lon="0.57475">
        <ele>49.900001525879</ele>
        <time>2019-07-21T06:29:17Z</time>
      </trkpt>
      <trkpt lat="46.89691" lon="0.5751">
        <ele>50.900001525879</ele>
        <time>2019-07-21T06:29:36Z</time>
      </trkpt>
      <trkpt lat="46.89677" lon="0.57565">
        <ele>51.900001525879</ele>
        <time>2019-07-21T06:30:05Z</time>
      </trkpt>
      <trkpt lat="46.89659" lon="0.57623">
        <ele>51.900001525879</ele>
        <time>2019-07-21T06:30:35Z</time>
      </trkpt>
      <trkpt lat="46.89644" lon="0.57687">
        <ele>51.900001525879</ele>
        <time>2019-07-21T06:31:09Z</time>
      </trkpt>
      <trkpt lat="46.89631" lon="0.57754">
        <ele>49.900001525879</ele>
        <time>2019-07-21T06:31:42Z</time>
      </trkpt>
      <trkpt lat="46.89614" lon="0.57816">
        <ele>49.900001525879</ele>
        <time>2019-07-21T06:32:13Z</time>
      </trkpt>
      <trkpt lat="46.89608" lon="0.5785">
        <ele>51.900001525879</ele>
        <time>2019-07-21T06:32:30Z</time>
      </trkpt>
      <trkpt lat="46.89606" lon="0.57857">
        <ele>51.900001525879</ele>
        <time>2019-07-21T06:32:34Z</time>
      </trkpt>
      <trkpt lat="46.89604" lon="0.5786">
        <ele>51.900001525879</ele>
        <time>2019-07-21T06:32:36Z</time>
      </trkpt>
      <trkpt lat="46.89579" lon="0.57855">
        <ele>51.900001525879</ele>
        <time>2019-07-21T06:32:54Z</time>
      </trkpt>
      <trkpt lat="46.89549" lon="0.57832">
        <ele>52.900001525879</ele>
        <time>2019-07-21T06:33:19Z</time>
      </trkpt>
      <trkpt lat="46.89515" lon="0.5782">
        <ele>51.900001525879</ele>
        <time>2019-07-21T06:33:42Z</time>
      </trkpt>
      <trkpt lat="46.89486" lon="0.57797">
        <ele>51.900001525879</ele>
        <time>2019-07-21T06:34:05Z</time>
      </trkpt>
      <trkpt lat="46.89448" lon="0.57788">
        <ele>51.900001525879</ele>
        <time>2019-07-21T06:34:31Z</time>
      </trkpt>
      <trkpt lat="46.89428" lon="0.57784">
        <ele>51.900001525879</ele>
        <time>2019-07-21T06:34:44Z</time>
      </trkpt>
      <trkpt lat="46.89414" lon="0.57776">
        <ele>51.900001525879</ele>
        <time>2019-07-21T06:34:54Z</time>
      </trkpt>
      <trkpt lat="46.89394" lon="0.57769">
        <ele>51.900001525879</ele>
        <time>2019-07-21T06:35:08Z</time>
      </trkpt>
      <trkpt lat="46.89362" lon="0.5777">
        <ele>51.900001525879</ele>
        <time>2019-07-21T06:35:30Z</time>
      </trkpt>
      <trkpt lat="46.89349" lon="0.57768">
        <ele>51.900001525879</ele>
        <time>2019-07-21T06:35:39Z</time>
      </trkpt>
      <trkpt lat="46.89345" lon="0.57767">
        <ele>51.900001525879</ele>
        <time>2019-07-21T06:35:42Z</time>
      </trkpt>
      <trkpt lat="46.89301" lon="0.57747">
        <ele>54.900001525879</ele>
        <time>2019-07-21T06:36:16Z</time>
      </trkpt>
      <trkpt lat="46.89255" lon="0.5773">
        <ele>54.900001525879</ele>
        <time>2019-07-21T06:36:48Z</time>
      </trkpt>
      <trkpt lat="46.89212" lon="0.57706">
        <ele>52.900001525879</ele>
        <time>2019-07-21T06:37:19Z</time>
      </trkpt>
      <trkpt lat="46.89185" lon="0.5769">
        <ele>52.900001525879</ele>
        <time>2019-07-21T06:37:38Z</time>
      </trkpt>
      <trkpt lat="46.89155" lon="0.57682">
        <ele>53.900001525879</ele>
        <time>2019-07-21T06:37:59Z</time>
      </trkpt>
      <trkpt lat="46.8915" lon="0.57679">
        <ele>54.900001525879</ele>
        <time>2019-07-21T06:38:02Z</time>
      </trkpt>
      <trkpt lat="46.89148" lon="0.57677">
        <ele>53.900001525879</ele>
        <time>2019-07-21T06:38:04Z</time>
      </trkpt>
      <trkpt lat="46.89143" lon="0.57669">
        <ele>52.900001525879</ele>
        <time>2019-07-21T06:38:09Z</time>
      </trkpt>
      <trkpt lat="46.89142" lon="0.57665">
        <ele>52.900001525879</ele>
        <time>2019-07-21T06:38:11Z</time>
      </trkpt>
      <trkpt lat="46.89141" lon="0.57661">
        <ele>52.900001525879</ele>
        <time>2019-07-21T06:38:13Z</time>
      </trkpt>
      <trkpt lat="46.89141" lon="0.57655">
        <ele>52.900001525879</ele>
        <time>2019-07-21T06:38:16Z</time>
      </trkpt>
      <trkpt lat="46.89154" lon="0.57587">
        <ele>52.900001525879</ele>
        <time>2019-07-21T06:38:48Z</time>
      </trkpt>
      <trkpt lat="46.89158" lon="0.57552">
        <ele>51.900001525879</ele>
        <time>2019-07-21T06:39:04Z</time>
      </trkpt>
      <trkpt lat="46.89158" lon="0.57548">
        <ele>50.900001525879</ele>
        <time>2019-07-21T06:39:06Z</time>
      </trkpt>
      <trkpt lat="46.89158" lon="0.57543">
        <ele>51.900001525879</ele>
        <time>2019-07-21T06:39:08Z</time>
      </trkpt>
      <trkpt lat="46.89157" lon="0.57539">
        <ele>51.900001525879</ele>
        <time>2019-07-21T06:39:10Z</time>
      </trkpt>
      <trkpt lat="46.89155" lon="0.57535">
        <ele>51.900001525879</ele>
        <time>2019-07-21T06:39:12Z</time>
      </trkpt>
      <trkpt lat="46.89153" lon="0.57532">
        <ele>51.900001525879</ele>
        <time>2019-07-21T06:39:14Z</time>
      </trkpt>
      <trkpt lat="46.89145" lon="0.57525">
        <ele>50.900001525879</ele>
        <time>2019-07-21T06:39:20Z</time>
      </trkpt>
      <trkpt lat="46.89099" lon="0.57512">
        <ele>50.900001525879</ele>
        <time>2019-07-21T06:39:50Z</time>
      </trkpt>
      <trkpt lat="46.89054" lon="0.5749">
        <ele>51.900001525879</ele>
        <time>2019-07-21T06:40:21Z</time>
      </trkpt>
      <trkpt lat="46.89015" lon="0.5748">
        <ele>50.900001525879</ele>
        <time>2019-07-21T06:40:47Z</time>
      </trkpt>
      <trkpt lat="46.89009" lon="0.57479">
        <ele>51.900001525879</ele>
        <time>2019-07-21T06:40:51Z</time>
      </trkpt>
      <trkpt lat="46.88972" lon="0.57459">
        <ele>51.900001525879</ele>
        <time>2019-07-21T06:41:17Z</time>
      </trkpt>
      <trkpt lat="46.88923" lon="0.57444">
        <ele>52.900001525879</ele>
        <time>2019-07-21T06:41:50Z</time>
      </trkpt>
      <trkpt lat="46.88878" lon="0.57422">
        <ele>51.900001525879</ele>
        <time>2019-07-21T06:42:21Z</time>
      </trkpt>
      <trkpt lat="46.88831" lon="0.57408">
        <ele>51.900001525879</ele>
        <time>2019-07-21T06:42:53Z</time>
      </trkpt>
      <trkpt lat="46.88811" lon="0.574">
        <ele>51.900001525879</ele>
        <time>2019-07-21T06:43:07Z</time>
      </trkpt>
      <trkpt lat="46.88788" lon="0.574">
        <ele>50.900001525879</ele>
        <time>2019-07-21T06:43:21Z</time>
      </trkpt>
      <trkpt lat="46.88759" lon="0.57414">
        <ele>49.900001525879</ele>
        <time>2019-07-21T06:43:41Z</time>
      </trkpt>
      <trkpt lat="46.88722" lon="0.57414">
        <ele>51.900001525879</ele>
        <time>2019-07-21T06:44:06Z</time>
      </trkpt>
      <trkpt lat="46.88694" lon="0.57425">
        <ele>49.900001525879</ele>
        <time>2019-07-21T06:44:25Z</time>
      </trkpt>
      <trkpt lat="46.88675" lon="0.57428">
        <ele>50.900001525879</ele>
        <time>2019-07-21T06:44:38Z</time>
      </trkpt>
      <trkpt lat="46.88668" lon="0.57428">
        <ele>50.900001525879</ele>
        <time>2019-07-21T06:44:43Z</time>
      </trkpt>
      <trkpt lat="46.88636" lon="0.57408">
        <ele>50.900001525879</ele>
        <time>2019-07-21T06:45:07Z</time>
      </trkpt>
      <trkpt lat="46.88622" lon="0.57403">
        <ele>51.900001525879</ele>
        <time>2019-07-21T06:45:17Z</time>
      </trkpt>
      <trkpt lat="46.88593" lon="0.57408">
        <ele>50.900001525879</ele>
        <time>2019-07-21T06:45:35Z</time>
      </trkpt>
      <trkpt lat="46.88559" lon="0.57399">
        <ele>50.900001525879</ele>
        <time>2019-07-21T06:45:59Z</time>
      </trkpt>
      <trkpt lat="46.88557" lon="0.57397">
        <ele>50.900001525879</ele>
        <time>2019-07-21T06:46:01Z</time>
      </trkpt>
      <trkpt lat="46.88524" lon="0.57347">
        <ele>52.900001525879</ele>
        <time>2019-07-21T06:46:33Z</time>
      </trkpt>
      <trkpt lat="46.88491" lon="0.57298">
        <ele>51.900001525879</ele>
        <time>2019-07-21T06:47:05Z</time>
      </trkpt>
      <trkpt lat="46.88458" lon="0.57247">
        <ele>52.900001525879</ele>
        <time>2019-07-21T06:47:37Z</time>
      </trkpt>
      <trkpt lat="46.88424" lon="0.57198">
        <ele>53.900001525879</ele>
        <time>2019-07-21T06:48:10Z</time>
      </trkpt>
      <trkpt lat="46.88407" lon="0.5718">
        <ele>52.900001525879</ele>
        <time>2019-07-21T06:48:24Z</time>
      </trkpt>
      <trkpt lat="46.88388" lon="0.57171">
        <ele>51.900001525879</ele>
        <time>2019-07-21T06:48:37Z</time>
      </trkpt>
      <trkpt lat="46.88373" lon="0.5717">
        <ele>50.900001525879</ele>
        <time>2019-07-21T06:48:47Z</time>
      </trkpt>
      <trkpt lat="46.88327" lon="0.57172">
        <ele>51.900001525879</ele>
        <time>2019-07-21T06:49:19Z</time>
      </trkpt>
      <trkpt lat="46.88287" lon="0.57173">
        <ele>49.900001525879</ele>
        <time>2019-07-21T06:49:46Z</time>
      </trkpt>
      <trkpt lat="46.88268" lon="0.57174">
        <ele>50.900001525879</ele>
        <time>2019-07-21T06:50:00Z</time>
      </trkpt>
      <trkpt lat="46.88256" lon="0.57172">
        <ele>50.900001525879</ele>
        <time>2019-07-21T06:50:08Z</time>
      </trkpt>
      <trkpt lat="46.88237" lon="0.5717">
        <ele>49.900001525879</ele>
        <time>2019-07-21T06:50:22Z</time>
      </trkpt>
      <trkpt lat="46.88191" lon="0.57171">
        <ele>53.900001525879</ele>
        <time>2019-07-21T06:50:57Z</time>
      </trkpt>
      <trkpt lat="46.88173" lon="0.57173">
        <ele>52.900001525879</ele>
        <time>2019-07-21T06:51:10Z</time>
      </trkpt>
      <trkpt lat="46.88157" lon="0.5717">
        <ele>51.900001525879</ele>
        <time>2019-07-21T06:51:21Z</time>
      </trkpt>
      <trkpt lat="46.88132" lon="0.57172">
        <ele>50.900001525879</ele>
        <time>2019-07-21T06:51:39Z</time>
      </trkpt>
      <trkpt lat="46.88106" lon="0.57172">
        <ele>49.900001525879</ele>
        <time>2019-07-21T06:51:57Z</time>
      </trkpt>
      <trkpt lat="46.88087" lon="0.57173">
        <ele>50.900001525879</ele>
        <time>2019-07-21T06:52:11Z</time>
      </trkpt>
      <trkpt lat="46.88074" lon="0.5717">
        <ele>50.900001525879</ele>
        <time>2019-07-21T06:52:20Z</time>
      </trkpt>
      <trkpt lat="46.88071" lon="0.57169">
        <ele>50.900001525879</ele>
        <time>2019-07-21T06:52:22Z</time>
      </trkpt>
      <trkpt lat="46.88063" lon="0.57158">
        <ele>52.900001525879</ele>
        <time>2019-07-21T06:52:30Z</time>
      </trkpt>
      <trkpt lat="46.8806" lon="0.57153">
        <ele>52.900001525879</ele>
        <time>2019-07-21T06:52:33Z</time>
      </trkpt>
      <trkpt lat="46.88045" lon="0.57137">
        <ele>55.900001525879</ele>
        <time>2019-07-21T06:52:47Z</time>
      </trkpt>
      <trkpt lat="46.88044" lon="0.57134">
        <ele>55.900001525879</ele>
        <time>2019-07-21T06:52:49Z</time>
      </trkpt>
      <trkpt lat="46.88042" lon="0.57131">
        <ele>56.900001525879</ele>
        <time>2019-07-21T06:52:51Z</time>
      </trkpt>
      <trkpt lat="46.88041" lon="0.57126">
        <ele>55.900001525879</ele>
        <time>2019-07-21T06:52:54Z</time>
      </trkpt>
      <trkpt lat="46.88039" lon="0.57121">
        <ele>55.900001525879</ele>
        <time>2019-07-21T06:52:57Z</time>
      </trkpt>
      <trkpt lat="46.88035" lon="0.57109">
        <ele>58.900001525879</ele>
        <time>2019-07-21T06:53:04Z</time>
      </trkpt>
      <trkpt lat="46.88033" lon="0.57107">
        <ele>58.900001525879</ele>
        <time>2019-07-21T06:53:05Z</time>
      </trkpt>
      <trkpt lat="46.87996" lon="0.57059">
        <ele>54.900001525879</ele>
        <time>2019-07-21T06:53:38Z</time>
      </trkpt>
      <trkpt lat="46.87989" lon="0.57047">
        <ele>53.900001525879</ele>
        <time>2019-07-21T06:53:46Z</time>
      </trkpt>
      <trkpt lat="46.87986" lon="0.57041">
        <ele>55.900001525879</ele>
        <time>2019-07-21T06:53:50Z</time>
      </trkpt>
      <trkpt lat="46.87961" lon="0.57005">
        <ele>56.900001525879</ele>
        <time>2019-07-21T06:54:15Z</time>
      </trkpt>
      <trkpt lat="46.87951" lon="0.56988">
        <ele>57.900001525879</ele>
        <time>2019-07-21T06:54:26Z</time>
      </trkpt>
      <trkpt lat="46.87947" lon="0.56983">
        <ele>56.900001525879</ele>
        <time>2019-07-21T06:54:29Z</time>
      </trkpt>
      <trkpt lat="46.87945" lon="0.56979">
        <ele>55.900001525879</ele>
        <time>2019-07-21T06:54:31Z</time>
      </trkpt>
      <trkpt lat="46.8794" lon="0.56949">
        <ele>54.900001525879</ele>
        <time>2019-07-21T06:54:49Z</time>
      </trkpt>
      <trkpt lat="46.87935" lon="0.56939">
        <ele>55.900001525879</ele>
        <time>2019-07-21T06:54:56Z</time>
      </trkpt>
      <trkpt lat="46.87933" lon="0.56937">
        <ele>54.900001525879</ele>
        <time>2019-07-21T06:54:58Z</time>
      </trkpt>
      <trkpt lat="46.87932" lon="0.56935">
        <ele>54.900001525879</ele>
        <time>2019-07-21T06:55:00Z</time>
      </trkpt>
      <trkpt lat="46.87929" lon="0.5693">
        <ele>54.900001525879</ele>
        <time>2019-07-21T06:55:04Z</time>
      </trkpt>
      <trkpt lat="46.87925" lon="0.56923">
        <ele>55.900001525879</ele>
        <time>2019-07-21T06:55:09Z</time>
      </trkpt>
      <trkpt lat="46.87923" lon="0.56921">
        <ele>54.900001525879</ele>
        <time>2019-07-21T06:55:11Z</time>
      </trkpt>
      <trkpt lat="46.87898" lon="0.56924">
        <ele>49.900001525879</ele>
        <time>2019-07-21T06:55:30Z</time>
      </trkpt>
      <trkpt lat="46.87877" lon="0.56928">
        <ele>50.900001525879</ele>
        <time>2019-07-21T06:55:45Z</time>
      </trkpt>
      <trkpt lat="46.87866" lon="0.56929">
        <ele>50.900001525879</ele>
        <time>2019-07-21T06:55:54Z</time>
      </trkpt>
      <trkpt lat="46.87864" lon="0.5693">
        <ele>50.900001525879</ele>
        <time>2019-07-21T06:55:56Z</time>
      </trkpt>
      <trkpt lat="46.87857" lon="0.5693">
        <ele>50.900001525879</ele>
        <time>2019-07-21T06:56:01Z</time>
      </trkpt>
      <trkpt lat="46.87854" lon="0.56929">
        <ele>50.900001525879</ele>
        <time>2019-07-21T06:56:03Z</time>
      </trkpt>
      <trkpt lat="46.87844" lon="0.56923">
        <ele>51.900001525879</ele>
        <time>2019-07-21T06:56:11Z</time>
      </trkpt>
      <trkpt lat="46.87835" lon="0.56922">
        <ele>51.900001525879</ele>
        <time>2019-07-21T06:56:17Z</time>
      </trkpt>
      <trkpt lat="46.87828" lon="0.56917">
        <ele>50.900001525879</ele>
        <time>2019-07-21T06:56:23Z</time>
      </trkpt>
      <trkpt lat="46.87793" lon="0.56871">
        <ele>54.900001525879</ele>
        <time>2019-07-21T06:56:57Z</time>
      </trkpt>
      <trkpt lat="46.87758" lon="0.56825">
        <ele>54.900001525879</ele>
        <time>2019-07-21T06:57:30Z</time>
      </trkpt>
      <trkpt lat="46.8775" lon="0.56814">
        <ele>53.900001525879</ele>
        <time>2019-07-21T06:57:38Z</time>
      </trkpt>
      <trkpt lat="46.87742" lon="0.56786">
        <ele>54.900001525879</ele>
        <time>2019-07-21T06:57:54Z</time>
      </trkpt>
      <trkpt lat="46.87741" lon="0.56781">
        <ele>55.900001525879</ele>
        <time>2019-07-21T06:57:57Z</time>
      </trkpt>
      <trkpt lat="46.87738" lon="0.56772">
        <ele>56.900001525879</ele>
        <time>2019-07-21T06:58:02Z</time>
      </trkpt>
      <trkpt lat="46.87736" lon="0.56767">
        <ele>56.900001525879</ele>
        <time>2019-07-21T06:58:05Z</time>
      </trkpt>
      <trkpt lat="46.87734" lon="0.56762">
        <ele>57.900001525879</ele>
        <time>2019-07-21T06:58:08Z</time>
      </trkpt>
      <trkpt lat="46.87732" lon="0.56759">
        <ele>57.900001525879</ele>
        <time>2019-07-21T06:58:10Z</time>
      </trkpt>
      <trkpt lat="46.87729" lon="0.56757">
        <ele>57.900001525879</ele>
        <time>2019-07-21T06:58:12Z</time>
      </trkpt>
      <trkpt lat="46.87721" lon="0.56753">
        <ele>56.900001525879</ele>
        <time>2019-07-21T06:58:17Z</time>
      </trkpt>
      <trkpt lat="46.877" lon="0.56736">
        <ele>57.900001525879</ele>
        <time>2019-07-21T06:58:33Z</time>
      </trkpt>
      <trkpt lat="46.87679" lon="0.56721">
        <ele>57.900001525879</ele>
        <time>2019-07-21T06:58:49Z</time>
      </trkpt>
      <trkpt lat="46.87658" lon="0.56707">
        <ele>54.900001525879</ele>
        <time>2019-07-21T06:59:04Z</time>
      </trkpt>
      <trkpt lat="46.87638" lon="0.56704">
        <ele>52.900001525879</ele>
        <time>2019-07-21T06:59:17Z</time>
      </trkpt>
      <trkpt lat="46.87595" lon="0.56714">
        <ele>50.900001525879</ele>
        <time>2019-07-21T06:59:47Z</time>
      </trkpt>
      <trkpt lat="46.87592" lon="0.56715">
        <ele>50.900001525879</ele>
        <time>2019-07-21T06:59:49Z</time>
      </trkpt>
      <trkpt lat="46.87581" lon="0.56712">
        <ele>52.900001525879</ele>
        <time>2019-07-21T06:59:57Z</time>
      </trkpt>
      <trkpt lat="46.87578" lon="0.56711">
        <ele>52.900001525879</ele>
        <time>2019-07-21T06:59:59Z</time>
      </trkpt>
      <trkpt lat="46.87562" lon="0.56698">
        <ele>53.900001525879</ele>
        <time>2019-07-21T07:00:12Z</time>
      </trkpt>
      <trkpt lat="46.87551" lon="0.56695">
        <ele>51.900001525879</ele>
        <time>2019-07-21T07:00:20Z</time>
      </trkpt>
      <trkpt lat="46.87518" lon="0.56703">
        <ele>50.900001525879</ele>
        <time>2019-07-21T07:00:42Z</time>
      </trkpt>
      <trkpt lat="46.87499" lon="0.56708">
        <ele>50.900001525879</ele>
        <time>2019-07-21T07:00:55Z</time>
      </trkpt>
      <trkpt lat="46.87492" lon="0.56711">
        <ele>52.900001525879</ele>
        <time>2019-07-21T07:01:01Z</time>
      </trkpt>
      <trkpt lat="46.87489" lon="0.56712">
        <ele>52.900001525879</ele>
        <time>2019-07-21T07:01:03Z</time>
      </trkpt>
      <trkpt lat="46.87477" lon="0.56712">
        <ele>52.900001525879</ele>
        <time>2019-07-21T07:01:11Z</time>
      </trkpt>
      <trkpt lat="46.87432" lon="0.56691">
        <ele>53.900001525879</ele>
        <time>2019-07-21T07:01:43Z</time>
      </trkpt>
      <trkpt lat="46.87389" lon="0.56662">
        <ele>53.900001525879</ele>
        <time>2019-07-21T07:02:15Z</time>
      </trkpt>
      <trkpt lat="46.87376" lon="0.56656">
        <ele>52.900001525879</ele>
        <time>2019-07-21T07:02:24Z</time>
      </trkpt>
      <trkpt lat="46.87373" lon="0.56656">
        <ele>51.900001525879</ele>
        <time>2019-07-21T07:02:26Z</time>
      </trkpt>
      <trkpt lat="46.87349" lon="0.56657">
        <ele>48.900001525879</ele>
        <time>2019-07-21T07:02:41Z</time>
      </trkpt>
      <trkpt lat="46.87327" lon="0.56666">
        <ele>48.900001525879</ele>
        <time>2019-07-21T07:02:56Z</time>
      </trkpt>
      <trkpt lat="46.87312" lon="0.56666">
        <ele>48.799999237061</ele>
        <time>2019-07-21T07:03:06Z</time>
      </trkpt>
      <trkpt lat="46.873" lon="0.56672">
        <ele>49.799999237061</ele>
        <time>2019-07-21T07:03:14Z</time>
      </trkpt>
      <trkpt lat="46.87298" lon="0.56672">
        <ele>50.799999237061</ele>
        <time>2019-07-21T07:03:16Z</time>
      </trkpt>
      <trkpt lat="46.87294" lon="0.56669">
        <ele>51.799999237061</ele>
        <time>2019-07-21T07:03:19Z</time>
      </trkpt>
      <trkpt lat="46.87291" lon="0.56669">
        <ele>51.799999237061</ele>
        <time>2019-07-21T07:03:21Z</time>
      </trkpt>
      <trkpt lat="46.8729" lon="0.56671">
        <ele>52.799999237061</ele>
        <time>2019-07-21T07:03:24Z</time>
      </trkpt>
      <trkpt lat="46.87291" lon="0.56669">
        <ele>56.799999237061</ele>
        <time>2019-07-21T07:05:26Z</time>
      </trkpt>
      <trkpt lat="46.8729" lon="0.56669">
        <ele>55.799999237061</ele>
        <time>2019-07-21T07:06:18Z</time>
      </trkpt>
      <trkpt lat="46.8729" lon="0.56669">
        <ele>54.799999237061</ele>
        <time>2019-07-21T07:06:19Z</time>
      </trkpt>
      <trkpt lat="46.87288" lon="0.56669">
        <ele>56.799999237061</ele>
        <time>2019-07-21T07:06:24Z</time>
      </trkpt>
      <trkpt lat="46.87248" lon="0.56644">
        <ele>55.799999237061</ele>
        <time>2019-07-21T07:06:59Z</time>
      </trkpt>
      <trkpt lat="46.8724" lon="0.56637">
        <ele>55.799999237061</ele>
        <time>2019-07-21T07:07:06Z</time>
      </trkpt>
      <trkpt lat="46.87231" lon="0.56626">
        <ele>55.799999237061</ele>
        <time>2019-07-21T07:07:15Z</time>
      </trkpt>
      <trkpt lat="46.87208" lon="0.56612">
        <ele>55.799999237061</ele>
        <time>2019-07-21T07:07:33Z</time>
      </trkpt>
      <trkpt lat="46.87204" lon="0.56609">
        <ele>56.799999237061</ele>
        <time>2019-07-21T07:07:36Z</time>
      </trkpt>
      <trkpt lat="46.87196" lon="0.56599">
        <ele>60.799999237061</ele>
        <time>2019-07-21T07:07:46Z</time>
      </trkpt>
      <trkpt lat="46.87193" lon="0.56597">
        <ele>60.799999237061</ele>
        <time>2019-07-21T07:07:49Z</time>
      </trkpt>
      <trkpt lat="46.8719" lon="0.56595">
        <ele>60.799999237061</ele>
        <time>2019-07-21T07:07:51Z</time>
      </trkpt>
      <trkpt lat="46.87186" lon="0.56591">
        <ele>62.799999237061</ele>
        <time>2019-07-21T07:07:55Z</time>
      </trkpt>
      <trkpt lat="46.87177" lon="0.56586">
        <ele>61.799999237061</ele>
        <time>2019-07-21T07:08:03Z</time>
      </trkpt>
      <trkpt lat="46.87146" lon="0.56552">
        <ele>54.799999237061</ele>
        <time>2019-07-21T07:08:28Z</time>
      </trkpt>
      <trkpt lat="46.87137" lon="0.56534">
        <ele>55.799999237061</ele>
        <time>2019-07-21T07:08:40Z</time>
      </trkpt>
      <trkpt lat="46.87115" lon="0.56506">
        <ele>54.799999237061</ele>
        <time>2019-07-21T07:09:00Z</time>
      </trkpt>
      <trkpt lat="46.87111" lon="0.56499">
        <ele>53.799999237061</ele>
        <time>2019-07-21T07:09:04Z</time>
      </trkpt>
      <trkpt lat="46.87092" lon="0.56469">
        <ele>52.799999237061</ele>
        <time>2019-07-21T07:09:24Z</time>
      </trkpt>
      <trkpt lat="46.8707" lon="0.56449">
        <ele>53.799999237061</ele>
        <time>2019-07-21T07:09:42Z</time>
      </trkpt>
      <trkpt lat="46.87068" lon="0.56446">
        <ele>52.799999237061</ele>
        <time>2019-07-21T07:09:44Z</time>
      </trkpt>
      <trkpt lat="46.8703" lon="0.56405">
        <ele>51.799999237061</ele>
        <time>2019-07-21T07:10:16Z</time>
      </trkpt>
      <trkpt lat="46.87005" lon="0.5638">
        <ele>51.799999237061</ele>
        <time>2019-07-21T07:10:38Z</time>
      </trkpt>
      <trkpt lat="46.8699" lon="0.56365">
        <ele>49.799999237061</ele>
        <time>2019-07-21T07:10:51Z</time>
      </trkpt>
      <trkpt lat="46.8698" lon="0.56356">
        <ele>48.799999237061</ele>
        <time>2019-07-21T07:10:59Z</time>
      </trkpt>
      <trkpt lat="46.8698" lon="0.56353">
        <ele>49.799999237061</ele>
        <time>2019-07-21T07:11:01Z</time>
      </trkpt>
      <trkpt lat="46.86979" lon="0.56348">
        <ele>49.900001525879</ele>
        <time>2019-07-21T07:11:04Z</time>
      </trkpt>
      <trkpt lat="46.86977" lon="0.56341">
        <ele>49.799999237061</ele>
        <time>2019-07-21T07:11:08Z</time>
      </trkpt>
      <trkpt lat="46.86975" lon="0.56338">
        <ele>50.799999237061</ele>
        <time>2019-07-21T07:11:10Z</time>
      </trkpt>
      <trkpt lat="46.86957" lon="0.56322">
        <ele>49.799999237061</ele>
        <time>2019-07-21T07:11:25Z</time>
      </trkpt>
      <trkpt lat="46.86944" lon="0.56317">
        <ele>50.799999237061</ele>
        <time>2019-07-21T07:11:34Z</time>
      </trkpt>
      <trkpt lat="46.8693" lon="0.56315">
        <ele>50.799999237061</ele>
        <time>2019-07-21T07:11:44Z</time>
      </trkpt>
      <trkpt lat="46.86923" lon="0.56311">
        <ele>49.799999237061</ele>
        <time>2019-07-21T07:11:49Z</time>
      </trkpt>
      <trkpt lat="46.86919" lon="0.56307">
        <ele>50.799999237061</ele>
        <time>2019-07-21T07:11:53Z</time>
      </trkpt>
      <trkpt lat="46.86917" lon="0.56304">
        <ele>51.799999237061</ele>
        <time>2019-07-21T07:11:55Z</time>
      </trkpt>
      <trkpt lat="46.86915" lon="0.563">
        <ele>50.799999237061</ele>
        <time>2019-07-21T07:11:58Z</time>
      </trkpt>
      <trkpt lat="46.86913" lon="0.56299">
        <ele>50.799999237061</ele>
        <time>2019-07-21T07:12:00Z</time>
      </trkpt>
      <trkpt lat="46.86903" lon="0.56298">
        <ele>50.799999237061</ele>
        <time>2019-07-21T07:12:08Z</time>
      </trkpt>
      <trkpt lat="46.86887" lon="0.56289">
        <ele>50.799999237061</ele>
        <time>2019-07-21T07:12:20Z</time>
      </trkpt>
      <trkpt lat="46.86884" lon="0.56289">
        <ele>50.799999237061</ele>
        <time>2019-07-21T07:12:22Z</time>
      </trkpt>
      <trkpt lat="46.86877" lon="0.5629">
        <ele>49.799999237061</ele>
        <time>2019-07-21T07:12:27Z</time>
      </trkpt>
      <trkpt lat="46.86874" lon="0.56289">
        <ele>50.799999237061</ele>
        <time>2019-07-21T07:12:29Z</time>
      </trkpt>
      <trkpt lat="46.86832" lon="0.56259">
        <ele>52.900001525879</ele>
        <time>2019-07-21T07:13:02Z</time>
      </trkpt>
      <trkpt lat="46.86789" lon="0.5623">
        <ele>52.799999237061</ele>
        <time>2019-07-21T07:13:34Z</time>
      </trkpt>
      <trkpt lat="46.86747" lon="0.56199">
        <ele>53.900001525879</ele>
        <time>2019-07-21T07:14:07Z</time>
      </trkpt>
      <trkpt lat="46.86704" lon="0.56169">
        <ele>52.799999237061</ele>
        <time>2019-07-21T07:14:41Z</time>
      </trkpt>
      <trkpt lat="46.86701" lon="0.56168">
        <ele>52.799999237061</ele>
        <time>2019-07-21T07:14:43Z</time>
      </trkpt>
      <trkpt lat="46.86699" lon="0.56169">
        <ele>51.799999237061</ele>
        <time>2019-07-21T07:14:45Z</time>
      </trkpt>
      <trkpt lat="46.86692" lon="0.56171">
        <ele>51.799999237061</ele>
        <time>2019-07-21T07:14:50Z</time>
      </trkpt>
      <trkpt lat="46.86647" lon="0.56154">
        <ele>52.799999237061</ele>
        <time>2019-07-21T07:15:23Z</time>
      </trkpt>
      <trkpt lat="46.86632" lon="0.56147">
        <ele>52.799999237061</ele>
        <time>2019-07-21T07:15:34Z</time>
      </trkpt>
      <trkpt lat="46.8663" lon="0.56145">
        <ele>52.799999237061</ele>
        <time>2019-07-21T07:15:36Z</time>
      </trkpt>
      <trkpt lat="46.86624" lon="0.56139">
        <ele>53.799999237061</ele>
        <time>2019-07-21T07:15:42Z</time>
      </trkpt>
      <trkpt lat="46.86616" lon="0.56128">
        <ele>54.799999237061</ele>
        <time>2019-07-21T07:15:53Z</time>
      </trkpt>
      <trkpt lat="46.86615" lon="0.56122">
        <ele>54.799999237061</ele>
        <time>2019-07-21T07:15:58Z</time>
      </trkpt>
      <trkpt lat="46.86613" lon="0.5612">
        <ele>54.799999237061</ele>
        <time>2019-07-21T07:16:00Z</time>
      </trkpt>
      <trkpt lat="46.8661" lon="0.56117">
        <ele>54.799999237061</ele>
        <time>2019-07-21T07:16:04Z</time>
      </trkpt>
      <trkpt lat="46.86604" lon="0.56098">
        <ele>53.799999237061</ele>
        <time>2019-07-21T07:16:15Z</time>
      </trkpt>
      <trkpt lat="46.86601" lon="0.56077">
        <ele>52.799999237061</ele>
        <time>2019-07-21T07:16:26Z</time>
      </trkpt>
      <trkpt lat="46.86601" lon="0.56072">
        <ele>53.799999237061</ele>
        <time>2019-07-21T07:16:28Z</time>
      </trkpt>
      <trkpt lat="46.86613" lon="0.56032">
        <ele>50.799999237061</ele>
        <time>2019-07-21T07:16:51Z</time>
      </trkpt>
      <trkpt lat="46.86619" lon="0.56011">
        <ele>51.799999237061</ele>
        <time>2019-07-21T07:17:02Z</time>
      </trkpt>
      <trkpt lat="46.8662" lon="0.56006">
        <ele>51.799999237061</ele>
        <time>2019-07-21T07:17:05Z</time>
      </trkpt>
      <trkpt lat="46.86631" lon="0.55979">
        <ele>50.799999237061</ele>
        <time>2019-07-21T07:17:21Z</time>
      </trkpt>
      <trkpt lat="46.86633" lon="0.55977">
        <ele>51.799999237061</ele>
        <time>2019-07-21T07:17:46Z</time>
      </trkpt>
      <trkpt lat="46.86634" lon="0.55975">
        <ele>51.799999237061</ele>
        <time>2019-07-21T07:18:10Z</time>
      </trkpt>
      <trkpt lat="46.86634" lon="0.55976">
        <ele>49.799999237061</ele>
        <time>2019-07-21T07:21:02Z</time>
      </trkpt>
      <trkpt lat="46.86634" lon="0.55976">
        <ele>50.799999237061</ele>
        <time>2019-07-21T07:21:03Z</time>
      </trkpt>
      <trkpt lat="46.86634" lon="0.55976">
        <ele>50.799999237061</ele>
        <time>2019-07-21T07:21:06Z</time>
      </trkpt>
      <trkpt lat="46.86633" lon="0.55978">
        <ele>49.799999237061</ele>
        <time>2019-07-21T07:22:41Z</time>
      </trkpt>
      <trkpt lat="46.86633" lon="0.55978">
        <ele>49.799999237061</ele>
        <time>2019-07-21T07:22:42Z</time>
      </trkpt>
      <trkpt lat="46.86631" lon="0.5598">
        <ele>49.799999237061</ele>
        <time>2019-07-21T07:22:49Z</time>
      </trkpt>
      <trkpt lat="46.86631" lon="0.5598">
        <ele>49.799999237061</ele>
        <time>2019-07-21T07:22:50Z</time>
      </trkpt>
      <trkpt lat="46.8663" lon="0.55981">
        <ele>50.799999237061</ele>
        <time>2019-07-21T07:22:52Z</time>
      </trkpt>
      <trkpt lat="46.86623" lon="0.56002">
        <ele>50.799999237061</ele>
        <time>2019-07-21T07:23:06Z</time>
      </trkpt>
      <trkpt lat="46.86619" lon="0.56011">
        <ele>51.799999237061</ele>
        <time>2019-07-21T07:23:11Z</time>
      </trkpt>
      <trkpt lat="46.86602" lon="0.56069">
        <ele>52.799999237061</ele>
        <time>2019-07-21T07:23:39Z</time>
      </trkpt>
      <trkpt lat="46.86602" lon="0.56079">
        <ele>52.799999237061</ele>
        <time>2019-07-21T07:23:44Z</time>
      </trkpt>
      <trkpt lat="46.86608" lon="0.56109">
        <ele>54.799999237061</ele>
        <time>2019-07-21T07:23:59Z</time>
      </trkpt>
      <trkpt lat="46.86609" lon="0.56113">
        <ele>54.799999237061</ele>
        <time>2019-07-21T07:24:01Z</time>
      </trkpt>
      <trkpt lat="46.8662" lon="0.56133">
        <ele>54.799999237061</ele>
        <time>2019-07-21T07:24:12Z</time>
      </trkpt>
      <trkpt lat="46.86622" lon="0.56137">
        <ele>53.799999237061</ele>
        <time>2019-07-21T07:24:14Z</time>
      </trkpt>
      <trkpt lat="46.86625" lon="0.56139">
        <ele>53.799999237061</ele>
        <time>2019-07-21T07:24:16Z</time>
      </trkpt>
      <trkpt lat="46.86671" lon="0.5616">
        <ele>50.799999237061</ele>
        <time>2019-07-21T07:24:45Z</time>
      </trkpt>
      <trkpt lat="46.86703" lon="0.56174">
        <ele>49.799999237061</ele>
        <time>2019-07-21T07:25:07Z</time>
      </trkpt>
      <trkpt lat="46.86706" lon="0.56175">
        <ele>49.799999237061</ele>
        <time>2019-07-21T07:25:09Z</time>
      </trkpt>
      <trkpt lat="46.86717" lon="0.56171">
        <ele>50.799999237061</ele>
        <time>2019-07-21T07:25:17Z</time>
      </trkpt>
      <trkpt lat="46.8672" lon="0.56171">
        <ele>50.799999237061</ele>
        <time>2019-07-21T07:25:19Z</time>
      </trkpt>
      <trkpt lat="46.86735" lon="0.56179">
        <ele>50.799999237061</ele>
        <time>2019-07-21T07:25:29Z</time>
      </trkpt>
      <trkpt lat="46.86743" lon="0.56188">
        <ele>50.799999237061</ele>
        <time>2019-07-21T07:25:36Z</time>
      </trkpt>
      <trkpt lat="46.86787" lon="0.56218">
        <ele>49.799999237061</ele>
        <time>2019-07-21T07:26:08Z</time>
      </trkpt>
      <trkpt lat="46.86799" lon="0.56227">
        <ele>49.799999237061</ele>
        <time>2019-07-21T07:26:17Z</time>
      </trkpt>
      <trkpt lat="46.86875" lon="0.5628">
        <ele>49.799999237061</ele>
        <time>2019-07-21T07:27:14Z</time>
      </trkpt>
      <trkpt lat="46.869" lon="0.56298">
        <ele>49.799999237061</ele>
        <time>2019-07-21T07:27:33Z</time>
      </trkpt>
      <trkpt lat="46.86903" lon="0.56299">
        <ele>49.799999237061</ele>
        <time>2019-07-21T07:27:35Z</time>
      </trkpt>
      <trkpt lat="46.86909" lon="0.56298">
        <ele>49.799999237061</ele>
        <time>2019-07-21T07:27:40Z</time>
      </trkpt>
      <trkpt lat="46.86913" lon="0.56298">
        <ele>49.799999237061</ele>
        <time>2019-07-21T07:27:43Z</time>
      </trkpt>
      <trkpt lat="46.86916" lon="0.56299">
        <ele>49.799999237061</ele>
        <time>2019-07-21T07:27:45Z</time>
      </trkpt>
      <trkpt lat="46.86918" lon="0.56301">
        <ele>49.799999237061</ele>
        <time>2019-07-21T07:27:47Z</time>
      </trkpt>
      <trkpt lat="46.86923" lon="0.56309">
        <ele>49.799999237061</ele>
        <time>2019-07-21T07:27:52Z</time>
      </trkpt>
      <trkpt lat="46.86925" lon="0.56311">
        <ele>49.799999237061</ele>
        <time>2019-07-21T07:27:54Z</time>
      </trkpt>
      <trkpt lat="46.86928" lon="0.56312">
        <ele>49.799999237061</ele>
        <time>2019-07-21T07:27:56Z</time>
      </trkpt>
      <trkpt lat="46.86952" lon="0.56318">
        <ele>48.799999237061</ele>
        <time>2019-07-21T07:28:12Z</time>
      </trkpt>
      <trkpt lat="46.86993" lon="0.56356">
        <ele>48.799999237061</ele>
        <time>2019-07-21T07:28:43Z</time>
      </trkpt>
      <trkpt lat="46.87033" lon="0.56395">
        <ele>47.799999237061</ele>
        <time>2019-07-21T07:29:14Z</time>
      </trkpt>
      <trkpt lat="46.87073" lon="0.56433">
        <ele>48.799999237061</ele>
        <time>2019-07-21T07:29:45Z</time>
      </trkpt>
      <trkpt lat="46.87094" lon="0.56457">
        <ele>49.799999237061</ele>
        <time>2019-07-21T07:30:04Z</time>
      </trkpt>
      <trkpt lat="46.87097" lon="0.56461">
        <ele>48.799999237061</ele>
        <time>2019-07-21T07:30:07Z</time>
      </trkpt>
      <trkpt lat="46.87099" lon="0.56475">
        <ele>48.799999237061</ele>
        <time>2019-07-21T07:30:14Z</time>
      </trkpt>
      <trkpt lat="46.871" lon="0.56479">
        <ele>49.799999237061</ele>
        <time>2019-07-21T07:30:16Z</time>
      </trkpt>
      <trkpt lat="46.87133" lon="0.56529">
        <ele>49.799999237061</ele>
        <time>2019-07-21T07:30:48Z</time>
      </trkpt>
      <trkpt lat="46.87146" lon="0.56549">
        <ele>51.799999237061</ele>
        <time>2019-07-21T07:31:01Z</time>
      </trkpt>
      <trkpt lat="46.87152" lon="0.56559">
        <ele>51.799999237061</ele>
        <time>2019-07-21T07:31:07Z</time>
      </trkpt>
      <trkpt lat="46.87156" lon="0.56562">
        <ele>51.799999237061</ele>
        <time>2019-07-21T07:31:10Z</time>
      </trkpt>
      <trkpt lat="46.87165" lon="0.56577">
        <ele>50.799999237061</ele>
        <time>2019-07-21T07:31:19Z</time>
      </trkpt>
      <trkpt lat="46.87211" lon="0.56611">
        <ele>56.799999237061</ele>
        <time>2019-07-21T07:31:53Z</time>
      </trkpt>
      <trkpt lat="46.87233" lon="0.56628">
        <ele>57.799999237061</ele>
        <time>2019-07-21T07:32:11Z</time>
      </trkpt>
      <trkpt lat="46.87256" lon="0.56647">
        <ele>54.799999237061</ele>
        <time>2019-07-21T07:32:28Z</time>
      </trkpt>
      <trkpt lat="46.87273" lon="0.56659">
        <ele>52.799999237061</ele>
        <time>2019-07-21T07:32:40Z</time>
      </trkpt>
      <trkpt lat="46.8729" lon="0.5667">
        <ele>54.799999237061</ele>
        <time>2019-07-21T07:32:53Z</time>
      </trkpt>
      <trkpt lat="46.87292" lon="0.56668">
        <ele>55.799999237061</ele>
        <time>2019-07-21T07:33:51Z</time>
      </trkpt>
      <trkpt lat="46.87295" lon="0.56669">
        <ele>55.799999237061</ele>
        <time>2019-07-21T07:33:53Z</time>
      </trkpt>
      <trkpt lat="46.87315" lon="0.56675">
        <ele>51.799999237061</ele>
        <time>2019-07-21T07:34:07Z</time>
      </trkpt>
      <trkpt lat="46.87334" lon="0.56673">
        <ele>50.799999237061</ele>
        <time>2019-07-21T07:34:20Z</time>
      </trkpt>
      <trkpt lat="46.87358" lon="0.56664">
        <ele>50.799999237061</ele>
        <time>2019-07-21T07:34:37Z</time>
      </trkpt>
      <trkpt lat="46.87373" lon="0.56664">
        <ele>50.799999237061</ele>
        <time>2019-07-21T07:34:47Z</time>
      </trkpt>
      <trkpt lat="46.87376" lon="0.56664">
        <ele>50.799999237061</ele>
        <time>2019-07-21T07:34:49Z</time>
      </trkpt>
      <trkpt lat="46.87395" lon="0.56674">
        <ele>50.799999237061</ele>
        <time>2019-07-21T07:35:03Z</time>
      </trkpt>
      <trkpt lat="46.87403" lon="0.56681">
        <ele>50.799999237061</ele>
        <time>2019-07-21T07:35:10Z</time>
      </trkpt>
      <trkpt lat="46.87406" lon="0.56685">
        <ele>51.799999237061</ele>
        <time>2019-07-21T07:35:13Z</time>
      </trkpt>
      <trkpt lat="46.8741" lon="0.56688">
        <ele>51.799999237061</ele>
        <time>2019-07-21T07:35:16Z</time>
      </trkpt>
      <trkpt lat="46.87448" lon="0.56715">
        <ele>50.799999237061</ele>
        <time>2019-07-21T07:35:45Z</time>
      </trkpt>
      <trkpt lat="46.87457" lon="0.56718">
        <ele>50.799999237061</ele>
        <time>2019-07-21T07:35:51Z</time>
      </trkpt>
      <trkpt lat="46.87466" lon="0.56717">
        <ele>49.799999237061</ele>
        <time>2019-07-21T07:35:57Z</time>
      </trkpt>
      <trkpt lat="46.87475" lon="0.56721">
        <ele>49.799999237061</ele>
        <time>2019-07-21T07:36:04Z</time>
      </trkpt>
      <trkpt lat="46.87499" lon="0.56718">
        <ele>50.799999237061</ele>
        <time>2019-07-21T07:36:21Z</time>
      </trkpt>
      <trkpt lat="46.87502" lon="0.56717">
        <ele>50.799999237061</ele>
        <time>2019-07-21T07:36:23Z</time>
      </trkpt>
      <trkpt lat="46.87532" lon="0.5671">
        <ele>50.799999237061</ele>
        <time>2019-07-21T07:36:44Z</time>
      </trkpt>
      <trkpt lat="46.87551" lon="0.56705">
        <ele>50.799999237061</ele>
        <time>2019-07-21T07:36:57Z</time>
      </trkpt>
      <trkpt lat="46.87555" lon="0.56704">
        <ele>50.799999237061</ele>
        <time>2019-07-21T07:37:00Z</time>
      </trkpt>
      <trkpt lat="46.87558" lon="0.56704">
        <ele>50.799999237061</ele>
        <time>2019-07-21T07:37:02Z</time>
      </trkpt>
      <trkpt lat="46.87574" lon="0.56708">
        <ele>50.799999237061</ele>
        <time>2019-07-21T07:37:13Z</time>
      </trkpt>
      <trkpt lat="46.87582" lon="0.56712">
        <ele>53.799999237061</ele>
        <time>2019-07-21T07:37:20Z</time>
      </trkpt>
      <trkpt lat="46.87584" lon="0.56712">
        <ele>54.799999237061</ele>
        <time>2019-07-21T07:37:22Z</time>
      </trkpt>
      <trkpt lat="46.876" lon="0.56709">
        <ele>52.799999237061</ele>
        <time>2019-07-21T07:37:32Z</time>
      </trkpt>
      <trkpt lat="46.87606" lon="0.56707">
        <ele>52.799999237061</ele>
        <time>2019-07-21T07:37:37Z</time>
      </trkpt>
      <trkpt lat="46.87623" lon="0.56704">
        <ele>51.799999237061</ele>
        <time>2019-07-21T07:37:49Z</time>
      </trkpt>
      <trkpt lat="46.87632" lon="0.56705">
        <ele>51.799999237061</ele>
        <time>2019-07-21T07:37:55Z</time>
      </trkpt>
      <trkpt lat="46.87635" lon="0.56706">
        <ele>51.799999237061</ele>
        <time>2019-07-21T07:37:57Z</time>
      </trkpt>
      <trkpt lat="46.87647" lon="0.56711">
        <ele>51.799999237061</ele>
        <time>2019-07-21T07:38:06Z</time>
      </trkpt>
      <trkpt lat="46.87658" lon="0.5672">
        <ele>50.799999237061</ele>
        <time>2019-07-21T07:38:15Z</time>
      </trkpt>
      <trkpt lat="46.87661" lon="0.56722">
        <ele>51.799999237061</ele>
        <time>2019-07-21T07:38:17Z</time>
      </trkpt>
      <trkpt lat="46.8769" lon="0.5674">
        <ele>52.799999237061</ele>
        <time>2019-07-21T07:38:39Z</time>
      </trkpt>
      <trkpt lat="46.87691" lon="0.56743">
        <ele>52.799999237061</ele>
        <time>2019-07-21T07:38:41Z</time>
      </trkpt>
      <trkpt lat="46.87692" lon="0.56746">
        <ele>52.799999237061</ele>
        <time>2019-07-21T07:38:43Z</time>
      </trkpt>
      <trkpt lat="46.87694" lon="0.56749">
        <ele>52.799999237061</ele>
        <time>2019-07-21T07:38:45Z</time>
      </trkpt>
      <trkpt lat="46.87701" lon="0.56757">
        <ele>51.799999237061</ele>
        <time>2019-07-21T07:38:51Z</time>
      </trkpt>
      <trkpt lat="46.87718" lon="0.56771">
        <ele>51.799999237061</ele>
        <time>2019-07-21T07:39:05Z</time>
      </trkpt>
      <trkpt lat="46.87736" lon="0.56794">
        <ele>52.799999237061</ele>
        <time>2019-07-21T07:39:22Z</time>
      </trkpt>
      <trkpt lat="46.8774" lon="0.56805">
        <ele>51.799999237061</ele>
        <time>2019-07-21T07:39:28Z</time>
      </trkpt>
      <trkpt lat="46.87769" lon="0.5685">
        <ele>50.799999237061</ele>
        <time>2019-07-21T07:39:58Z</time>
      </trkpt>
      <trkpt lat="46.87783" lon="0.5687">
        <ele>51.799999237061</ele>
        <time>2019-07-21T07:40:12Z</time>
      </trkpt>
      <trkpt lat="46.87797" lon="0.56892">
        <ele>50.799999237061</ele>
        <time>2019-07-21T07:40:26Z</time>
      </trkpt>
      <trkpt lat="46.87822" lon="0.56923">
        <ele>52.799999237061</ele>
        <time>2019-07-21T07:40:50Z</time>
      </trkpt>
      <trkpt lat="46.87825" lon="0.56926">
        <ele>52.799999237061</ele>
        <time>2019-07-21T07:40:52Z</time>
      </trkpt>
      <trkpt lat="46.87827" lon="0.56927">
        <ele>51.799999237061</ele>
        <time>2019-07-21T07:40:54Z</time>
      </trkpt>
      <trkpt lat="46.87834" lon="0.56929">
        <ele>49.799999237061</ele>
        <time>2019-07-21T07:40:59Z</time>
      </trkpt>
      <trkpt lat="46.8785" lon="0.56928">
        <ele>49.799999237061</ele>
        <time>2019-07-21T07:41:10Z</time>
      </trkpt>
      <trkpt lat="46.87857" lon="0.5693">
        <ele>49.799999237061</ele>
        <time>2019-07-21T07:41:15Z</time>
      </trkpt>
      <trkpt lat="46.87903" lon="0.56922">
        <ele>49.799999237061</ele>
        <time>2019-07-21T07:41:48Z</time>
      </trkpt>
      <trkpt lat="46.87913" lon="0.56922">
        <ele>49.799999237061</ele>
        <time>2019-07-21T07:41:55Z</time>
      </trkpt>
      <trkpt lat="46.87917" lon="0.56921">
        <ele>49.799999237061</ele>
        <time>2019-07-21T07:41:58Z</time>
      </trkpt>
      <trkpt lat="46.87919" lon="0.56921">
        <ele>49.799999237061</ele>
        <time>2019-07-21T07:42:00Z</time>
      </trkpt>
      <trkpt lat="46.87922" lon="0.56922">
        <ele>50.799999237061</ele>
        <time>2019-07-21T07:42:02Z</time>
      </trkpt>
      <trkpt lat="46.87931" lon="0.56932">
        <ele>50.799999237061</ele>
        <time>2019-07-21T07:42:11Z</time>
      </trkpt>
      <trkpt lat="46.87934" lon="0.56939">
        <ele>49.799999237061</ele>
        <time>2019-07-21T07:42:15Z</time>
      </trkpt>
      <trkpt lat="46.87943" lon="0.56976">
        <ele>49.799999237061</ele>
        <time>2019-07-21T07:42:34Z</time>
      </trkpt>
      <trkpt lat="46.87944" lon="0.56979">
        <ele>49.799999237061</ele>
        <time>2019-07-21T07:42:36Z</time>
      </trkpt>
      <trkpt lat="46.87975" lon="0.57028">
        <ele>49.799999237061</ele>
        <time>2019-07-21T07:43:08Z</time>
      </trkpt>
      <trkpt lat="46.87986" lon="0.57042">
        <ele>49.799999237061</ele>
        <time>2019-07-21T07:43:18Z</time>
      </trkpt>
      <trkpt lat="46.88018" lon="0.57092">
        <ele>48.799999237061</ele>
        <time>2019-07-21T07:43:50Z</time>
      </trkpt>
      <trkpt lat="46.88026" lon="0.57105">
        <ele>49.799999237061</ele>
        <time>2019-07-21T07:43:59Z</time>
      </trkpt>
      <trkpt lat="46.88035" lon="0.57114">
        <ele>50.799999237061</ele>
        <time>2019-07-21T07:44:07Z</time>
      </trkpt>
      <trkpt lat="46.88037" lon="0.57116">
        <ele>51.799999237061</ele>
        <time>2019-07-21T07:44:09Z</time>
      </trkpt>
      <trkpt lat="46.88045" lon="0.57129">
        <ele>51.799999237061</ele>
        <time>2019-07-21T07:44:17Z</time>
      </trkpt>
      <trkpt lat="46.8805" lon="0.57141">
        <ele>52.799999237061</ele>
        <time>2019-07-21T07:44:24Z</time>
      </trkpt>
      <trkpt lat="46.88051" lon="0.57143">
        <ele>52.799999237061</ele>
        <time>2019-07-21T07:44:25Z</time>
      </trkpt>
      <trkpt lat="46.88063" lon="0.57158">
        <ele>50.799999237061</ele>
        <time>2019-07-21T07:44:35Z</time>
      </trkpt>
      <trkpt lat="46.88072" lon="0.57167">
        <ele>48.799999237061</ele>
        <time>2019-07-21T07:44:42Z</time>
      </trkpt>
      <trkpt lat="46.88075" lon="0.57172">
        <ele>47.799999237061</ele>
        <time>2019-07-21T07:44:45Z</time>
      </trkpt>
      <trkpt lat="46.88077" lon="0.57173">
        <ele>48.799999237061</ele>
        <time>2019-07-21T07:44:47Z</time>
      </trkpt>
      <trkpt lat="46.88098" lon="0.57172">
        <ele>48.799999237061</ele>
        <time>2019-07-21T07:45:01Z</time>
      </trkpt>
      <trkpt lat="46.88104" lon="0.5717">
        <ele>49.799999237061</ele>
        <time>2019-07-21T07:45:05Z</time>
      </trkpt>
      <trkpt lat="46.88143" lon="0.5717">
        <ele>49.799999237061</ele>
        <time>2019-07-21T07:45:32Z</time>
      </trkpt>
      <trkpt lat="46.88163" lon="0.57168">
        <ele>48.799999237061</ele>
        <time>2019-07-21T07:45:46Z</time>
      </trkpt>
      <trkpt lat="46.88182" lon="0.5717">
        <ele>48.799999237061</ele>
        <time>2019-07-21T07:46:00Z</time>
      </trkpt>
      <trkpt lat="46.88185" lon="0.57171">
        <ele>48.799999237061</ele>
        <time>2019-07-21T07:46:02Z</time>
      </trkpt>
      <trkpt lat="46.88233" lon="0.57168">
        <ele>49.799999237061</ele>
        <time>2019-07-21T07:46:35Z</time>
      </trkpt>
      <trkpt lat="46.88271" lon="0.57171">
        <ele>49.799999237061</ele>
        <time>2019-07-21T07:47:01Z</time>
      </trkpt>
      <trkpt lat="46.88317" lon="0.57169">
        <ele>49.799999237061</ele>
        <time>2019-07-21T07:47:33Z</time>
      </trkpt>
      <trkpt lat="46.88364" lon="0.5717">
        <ele>49.799999237061</ele>
        <time>2019-07-21T07:48:06Z</time>
      </trkpt>
      <trkpt lat="46.88376" lon="0.57169">
        <ele>49.799999237061</ele>
        <time>2019-07-21T07:48:14Z</time>
      </trkpt>
      <trkpt lat="46.88378" lon="0.57169">
        <ele>48.799999237061</ele>
        <time>2019-07-21T07:48:15Z</time>
      </trkpt>
      <trkpt lat="46.88395" lon="0.57174">
        <ele>48.799999237061</ele>
        <time>2019-07-21T07:48:28Z</time>
      </trkpt>
      <trkpt lat="46.88416" lon="0.57189">
        <ele>50.799999237061</ele>
        <time>2019-07-21T07:48:43Z</time>
      </trkpt>
      <trkpt lat="46.88449" lon="0.57238">
        <ele>50.799999237061</ele>
        <time>2019-07-21T07:49:14Z</time>
      </trkpt>
      <trkpt lat="46.88483" lon="0.57285">
        <ele>51.799999237061</ele>
        <time>2019-07-21T07:49:46Z</time>
      </trkpt>
      <trkpt lat="46.88515" lon="0.57337">
        <ele>50.799999237061</ele>
        <time>2019-07-21T07:50:17Z</time>
      </trkpt>
      <trkpt lat="46.88549" lon="0.57386">
        <ele>50.799999237061</ele>
        <time>2019-07-21T07:50:47Z</time>
      </trkpt>
      <trkpt lat="46.88556" lon="0.57396">
        <ele>50.799999237061</ele>
        <time>2019-07-21T07:50:54Z</time>
      </trkpt>
      <trkpt lat="46.88558" lon="0.57398">
        <ele>50.799999237061</ele>
        <time>2019-07-21T07:50:56Z</time>
      </trkpt>
      <trkpt lat="46.88593" lon="0.57409">
        <ele>50.799999237061</ele>
        <time>2019-07-21T07:51:18Z</time>
      </trkpt>
      <trkpt lat="46.88617" lon="0.57406">
        <ele>48.799999237061</ele>
        <time>2019-07-21T07:51:34Z</time>
      </trkpt>
      <trkpt lat="46.8862" lon="0.57407">
        <ele>48.799999237061</ele>
        <time>2019-07-21T07:51:36Z</time>
      </trkpt>
      <trkpt lat="46.88622" lon="0.57408">
        <ele>49.799999237061</ele>
        <time>2019-07-21T07:51:39Z</time>
      </trkpt>
      <trkpt lat="46.88623" lon="0.57408">
        <ele>49.799999237061</ele>
        <time>2019-07-21T07:52:40Z</time>
      </trkpt>
      <trkpt lat="46.88623" lon="0.57408">
        <ele>49.799999237061</ele>
        <time>2019-07-21T07:52:42Z</time>
      </trkpt>
      <trkpt lat="46.88624" lon="0.57409">
        <ele>49.799999237061</ele>
        <time>2019-07-21T07:52:45Z</time>
      </trkpt>
      <trkpt lat="46.88624" lon="0.57408">
        <ele>48.799999237061</ele>
        <time>2019-07-21T07:53:11Z</time>
      </trkpt>
      <trkpt lat="46.88624" lon="0.57408">
        <ele>48.799999237061</ele>
        <time>2019-07-21T07:53:12Z</time>
      </trkpt>
      <trkpt lat="46.88626" lon="0.57408">
        <ele>48.799999237061</ele>
        <time>2019-07-21T07:53:15Z</time>
      </trkpt>
      <trkpt lat="46.88634" lon="0.57409">
        <ele>49.799999237061</ele>
        <time>2019-07-21T07:53:22Z</time>
      </trkpt>
      <trkpt lat="46.88657" lon="0.57425">
        <ele>48.799999237061</ele>
        <time>2019-07-21T07:53:40Z</time>
      </trkpt>
      <trkpt lat="46.88671" lon="0.5743">
        <ele>49.799999237061</ele>
        <time>2019-07-21T07:53:49Z</time>
      </trkpt>
      <trkpt lat="46.88691" lon="0.57428">
        <ele>48.799999237061</ele>
        <time>2019-07-21T07:54:03Z</time>
      </trkpt>
      <trkpt lat="46.88721" lon="0.57416">
        <ele>49.799999237061</ele>
        <time>2019-07-21T07:54:25Z</time>
      </trkpt>
      <trkpt lat="46.88724" lon="0.57416">
        <ele>49.799999237061</ele>
        <time>2019-07-21T07:54:27Z</time>
      </trkpt>
      <trkpt lat="46.88727" lon="0.57416">
        <ele>49.799999237061</ele>
        <time>2019-07-21T07:54:30Z</time>
      </trkpt>
      <trkpt lat="46.88728" lon="0.57417">
        <ele>49.799999237061</ele>
        <time>2019-07-21T07:54:32Z</time>
      </trkpt>
      <trkpt lat="46.88728" lon="0.57417">
        <ele>48.799999237061</ele>
        <time>2019-07-21T07:54:33Z</time>
      </trkpt>
      <trkpt lat="46.88729" lon="0.57416">
        <ele>48.799999237061</ele>
        <time>2019-07-21T07:54:36Z</time>
      </trkpt>
      <trkpt lat="46.88729" lon="0.57416">
        <ele>48.799999237061</ele>
        <time>2019-07-21T07:55:34Z</time>
      </trkpt>
      <trkpt lat="46.88729" lon="0.57416">
        <ele>49.799999237061</ele>
        <time>2019-07-21T07:55:35Z</time>
      </trkpt>
      <trkpt lat="46.88737" lon="0.57415">
        <ele>49.799999237061</ele>
        <time>2019-07-21T07:55:42Z</time>
      </trkpt>
      <trkpt lat="46.88751" lon="0.57417">
        <ele>48.799999237061</ele>
        <time>2019-07-21T07:55:52Z</time>
      </trkpt>
      <trkpt lat="46.88792" lon="0.57401">
        <ele>48.799999237061</ele>
        <time>2019-07-21T07:56:20Z</time>
      </trkpt>
      <trkpt lat="46.88808" lon="0.57401">
        <ele>47.799999237061</ele>
        <time>2019-07-21T07:56:31Z</time>
      </trkpt>
      <trkpt lat="46.88854" lon="0.57418">
        <ele>47.799999237061</ele>
        <time>2019-07-21T07:57:02Z</time>
      </trkpt>
      <trkpt lat="46.88897" lon="0.57434">
        <ele>47.799999237061</ele>
        <time>2019-07-21T07:57:31Z</time>
      </trkpt>
      <trkpt lat="46.88943" lon="0.57456">
        <ele>48.799999237061</ele>
        <time>2019-07-21T07:58:03Z</time>
      </trkpt>
      <trkpt lat="46.88986" lon="0.57469">
        <ele>48.799999237061</ele>
        <time>2019-07-21T07:58:32Z</time>
      </trkpt>
      <trkpt lat="46.89007" lon="0.57482">
        <ele>49.799999237061</ele>
        <time>2019-07-21T07:58:46Z</time>
      </trkpt>
      <trkpt lat="46.89048" lon="0.57491">
        <ele>48.799999237061</ele>
        <time>2019-07-21T07:59:13Z</time>
      </trkpt>
      <trkpt lat="46.89093" lon="0.57513">
        <ele>48.799999237061</ele>
        <time>2019-07-21T07:59:44Z</time>
      </trkpt>
      <trkpt lat="46.8914" lon="0.57526">
        <ele>48.799999237061</ele>
        <time>2019-07-21T08:00:15Z</time>
      </trkpt>
      <trkpt lat="46.8915" lon="0.57532">
        <ele>48.799999237061</ele>
        <time>2019-07-21T08:00:22Z</time>
      </trkpt>
      <trkpt lat="46.89152" lon="0.57534">
        <ele>48.799999237061</ele>
        <time>2019-07-21T08:00:24Z</time>
      </trkpt>
      <trkpt lat="46.89154" lon="0.57537">
        <ele>48.799999237061</ele>
        <time>2019-07-21T08:00:26Z</time>
      </trkpt>
      <trkpt lat="46.89155" lon="0.57541">
        <ele>48.799999237061</ele>
        <time>2019-07-21T08:00:28Z</time>
      </trkpt>
      <trkpt lat="46.89156" lon="0.57558">
        <ele>48.799999237061</ele>
        <time>2019-07-21T08:00:36Z</time>
      </trkpt>
      <trkpt lat="46.89145" lon="0.57625">
        <ele>51.799999237061</ele>
        <time>2019-07-21T08:01:08Z</time>
      </trkpt>
      <trkpt lat="46.8914" lon="0.57652">
        <ele>52.799999237061</ele>
        <time>2019-07-21T08:01:21Z</time>
      </trkpt>
      <trkpt lat="46.89139" lon="0.57658">
        <ele>52.799999237061</ele>
        <time>2019-07-21T08:01:24Z</time>
      </trkpt>
      <trkpt lat="46.8914" lon="0.57665">
        <ele>51.799999237061</ele>
        <time>2019-07-21T08:01:28Z</time>
      </trkpt>
      <trkpt lat="46.8914" lon="0.57668">
        <ele>51.799999237061</ele>
        <time>2019-07-21T08:01:35Z</time>
      </trkpt>
      <trkpt lat="46.89139" lon="0.57668">
        <ele>51.799999237061</ele>
        <time>2019-07-21T08:01:38Z</time>
      </trkpt>
      <trkpt lat="46.89139" lon="0.57667">
        <ele>51.799999237061</ele>
        <time>2019-07-21T08:01:41Z</time>
      </trkpt>
      <trkpt lat="46.89139" lon="0.57667">
        <ele>51.799999237061</ele>
        <time>2019-07-21T08:01:49Z</time>
      </trkpt>
      <trkpt lat="46.89139" lon="0.57668">
        <ele>51.799999237061</ele>
        <time>2019-07-21T08:01:50Z</time>
      </trkpt>
      <trkpt lat="46.89144" lon="0.57677">
        <ele>51.799999237061</ele>
        <time>2019-07-21T08:01:57Z</time>
      </trkpt>
      <trkpt lat="46.8915" lon="0.57683">
        <ele>51.799999237061</ele>
        <time>2019-07-21T08:02:02Z</time>
      </trkpt>
      <trkpt lat="46.89187" lon="0.57695">
        <ele>51.799999237061</ele>
        <time>2019-07-21T08:02:27Z</time>
      </trkpt>
      <trkpt lat="46.89204" lon="0.57705">
        <ele>51.799999237061</ele>
        <time>2019-07-21T08:02:40Z</time>
      </trkpt>
      <trkpt lat="46.89222" lon="0.57718">
        <ele>51.799999237061</ele>
        <time>2019-07-21T08:02:53Z</time>
      </trkpt>
      <trkpt lat="46.8924" lon="0.57728">
        <ele>51.799999237061</ele>
        <time>2019-07-21T08:03:06Z</time>
      </trkpt>
      <trkpt lat="46.8926" lon="0.57737">
        <ele>51.799999237061</ele>
        <time>2019-07-21T08:03:19Z</time>
      </trkpt>
      <trkpt lat="46.89279" lon="0.57742">
        <ele>51.799999237061</ele>
        <time>2019-07-21T08:03:32Z</time>
      </trkpt>
      <trkpt lat="46.89297" lon="0.57748">
        <ele>51.799999237061</ele>
        <time>2019-07-21T08:03:44Z</time>
      </trkpt>
      <trkpt lat="46.89315" lon="0.57757">
        <ele>50.799999237061</ele>
        <time>2019-07-21T08:03:57Z</time>
      </trkpt>
      <trkpt lat="46.89333" lon="0.57766">
        <ele>50.799999237061</ele>
        <time>2019-07-21T08:04:10Z</time>
      </trkpt>
      <trkpt lat="46.89353" lon="0.57772">
        <ele>50.799999237061</ele>
        <time>2019-07-21T08:04:23Z</time>
      </trkpt>
      <trkpt lat="46.89372" lon="0.57774">
        <ele>50.799999237061</ele>
        <time>2019-07-21T08:04:36Z</time>
      </trkpt>
      <trkpt lat="46.89391" lon="0.57772">
        <ele>49.799999237061</ele>
        <time>2019-07-21T08:04:48Z</time>
      </trkpt>
      <trkpt lat="46.89429" lon="0.57786">
        <ele>49.799999237061</ele>
        <time>2019-07-21T08:05:14Z</time>
      </trkpt>
      <trkpt lat="46.89448" lon="0.57791">
        <ele>49.799999237061</ele>
        <time>2019-07-21T08:05:27Z</time>
      </trkpt>
      <trkpt lat="46.89467" lon="0.57793">
        <ele>49.799999237061</ele>
        <time>2019-07-21T08:05:40Z</time>
      </trkpt>
      <trkpt lat="46.89486" lon="0.578">
        <ele>49.799999237061</ele>
        <time>2019-07-21T08:05:53Z</time>
      </trkpt>
      <trkpt lat="46.89503" lon="0.57813">
        <ele>49.799999237061</ele>
        <time>2019-07-21T08:06:06Z</time>
      </trkpt>
      <trkpt lat="46.89521" lon="0.57825">
        <ele>49.799999237061</ele>
        <time>2019-07-21T08:06:19Z</time>
      </trkpt>
      <trkpt lat="46.89539" lon="0.57832">
        <ele>49.799999237061</ele>
        <time>2019-07-21T08:06:32Z</time>
      </trkpt>
      <trkpt lat="46.89558" lon="0.57841">
        <ele>49.799999237061</ele>
        <time>2019-07-21T08:06:45Z</time>
      </trkpt>
      <trkpt lat="46.89576" lon="0.57854">
        <ele>49.799999237061</ele>
        <time>2019-07-21T08:06:58Z</time>
      </trkpt>
      <trkpt lat="46.89587" lon="0.57857">
        <ele>49.799999237061</ele>
        <time>2019-07-21T08:07:06Z</time>
      </trkpt>
      <trkpt lat="46.89591" lon="0.57857">
        <ele>49.799999237061</ele>
        <time>2019-07-21T08:07:09Z</time>
      </trkpt>
      <trkpt lat="46.89599" lon="0.57859">
        <ele>49.799999237061</ele>
        <time>2019-07-21T08:07:14Z</time>
      </trkpt>
      <trkpt lat="46.89602" lon="0.57859">
        <ele>49.799999237061</ele>
        <time>2019-07-21T08:07:16Z</time>
      </trkpt>
      <trkpt lat="46.89604" lon="0.57857">
        <ele>49.799999237061</ele>
        <time>2019-07-21T08:07:18Z</time>
      </trkpt>
      <trkpt lat="46.89606" lon="0.57854">
        <ele>49.799999237061</ele>
        <time>2019-07-21T08:07:20Z</time>
      </trkpt>
      <trkpt lat="46.89616" lon="0.57817">
        <ele>50.799999237061</ele>
        <time>2019-07-21T08:07:38Z</time>
      </trkpt>
      <trkpt lat="46.89622" lon="0.57789">
        <ele>49.799999237061</ele>
        <time>2019-07-21T08:07:51Z</time>
      </trkpt>
      <trkpt lat="46.8963" lon="0.57764">
        <ele>48.799999237061</ele>
        <time>2019-07-21T08:08:03Z</time>
      </trkpt>
      <trkpt lat="46.89636" lon="0.57738">
        <ele>49.799999237061</ele>
        <time>2019-07-21T08:08:16Z</time>
      </trkpt>
      <trkpt lat="46.8964" lon="0.5771">
        <ele>49.799999237061</ele>
        <time>2019-07-21T08:08:29Z</time>
      </trkpt>
      <trkpt lat="46.89645" lon="0.57684">
        <ele>49.799999237061</ele>
        <time>2019-07-21T08:08:41Z</time>
      </trkpt>
      <trkpt lat="46.89653" lon="0.5766">
        <ele>49.799999237061</ele>
        <time>2019-07-21T08:08:52Z</time>
      </trkpt>
      <trkpt lat="46.89658" lon="0.57632">
        <ele>48.799999237061</ele>
        <time>2019-07-21T08:09:05Z</time>
      </trkpt>
      <trkpt lat="46.89665" lon="0.57607">
        <ele>48.799999237061</ele>
        <time>2019-07-21T08:09:16Z</time>
      </trkpt>
      <trkpt lat="46.89672" lon="0.57581">
        <ele>47.799999237061</ele>
        <time>2019-07-21T08:09:28Z</time>
      </trkpt>
      <trkpt lat="46.8968" lon="0.57557">
        <ele>47.799999237061</ele>
        <time>2019-07-21T08:09:40Z</time>
      </trkpt>
      <trkpt lat="46.89687" lon="0.57531">
        <ele>47.799999237061</ele>
        <time>2019-07-21T08:09:52Z</time>
      </trkpt>
      <trkpt lat="46.89693" lon="0.57503">
        <ele>48.799999237061</ele>
        <time>2019-07-21T08:10:05Z</time>
      </trkpt>
      <trkpt lat="46.89702" lon="0.5748">
        <ele>48.799999237061</ele>
        <time>2019-07-21T08:10:17Z</time>
      </trkpt>
      <trkpt lat="46.89709" lon="0.57453">
        <ele>48.799999237061</ele>
        <time>2019-07-21T08:10:30Z</time>
      </trkpt>
      <trkpt lat="46.89717" lon="0.5742">
        <ele>47.799999237061</ele>
        <time>2019-07-21T08:10:46Z</time>
      </trkpt>
      <trkpt lat="46.89722" lon="0.5741">
        <ele>46.799999237061</ele>
        <time>2019-07-21T08:10:51Z</time>
      </trkpt>
      <trkpt lat="46.89724" lon="0.57407">
        <ele>46.799999237061</ele>
        <time>2019-07-21T08:10:53Z</time>
      </trkpt>
      <trkpt lat="46.89727" lon="0.57404">
        <ele>46.799999237061</ele>
        <time>2019-07-21T08:10:55Z</time>
      </trkpt>
      <trkpt lat="46.8973" lon="0.57403">
        <ele>46.799999237061</ele>
        <time>2019-07-21T08:10:57Z</time>
      </trkpt>
      <trkpt lat="46.89733" lon="0.57402">
        <ele>46.799999237061</ele>
        <time>2019-07-21T08:10:59Z</time>
      </trkpt>
      <trkpt lat="46.89736" lon="0.57402">
        <ele>46.799999237061</ele>
        <time>2019-07-21T08:11:01Z</time>
      </trkpt>
      <trkpt lat="46.89742" lon="0.57404">
        <ele>47.799999237061</ele>
        <time>2019-07-21T08:11:05Z</time>
      </trkpt>
      <trkpt lat="46.89759" lon="0.57413">
        <ele>48.799999237061</ele>
        <time>2019-07-21T08:11:16Z</time>
      </trkpt>
      <trkpt lat="46.89762" lon="0.57414">
        <ele>48.799999237061</ele>
        <time>2019-07-21T08:11:18Z</time>
      </trkpt>
      <trkpt lat="46.89764" lon="0.57413">
        <ele>47.799999237061</ele>
        <time>2019-07-21T08:11:20Z</time>
      </trkpt>
      <trkpt lat="46.89777" lon="0.5739">
        <ele>47.799999237061</ele>
        <time>2019-07-21T08:11:32Z</time>
      </trkpt>
      <trkpt lat="46.89779" lon="0.57387">
        <ele>47.799999237061</ele>
        <time>2019-07-21T08:11:34Z</time>
      </trkpt>
      <trkpt lat="46.89782" lon="0.57385">
        <ele>47.799999237061</ele>
        <time>2019-07-21T08:11:36Z</time>
      </trkpt>
      <trkpt lat="46.89796" lon="0.57389">
        <ele>48.799999237061</ele>
        <time>2019-07-21T08:11:45Z</time>
      </trkpt>
      <trkpt lat="46.89809" lon="0.57398">
        <ele>49.799999237061</ele>
        <time>2019-07-21T08:11:54Z</time>
      </trkpt>
      <trkpt lat="46.89842" lon="0.57408">
        <ele>47.799999237061</ele>
        <time>2019-07-21T08:12:15Z</time>
      </trkpt>
      <trkpt lat="46.89844" lon="0.57408">
        <ele>48.799999237061</ele>
        <time>2019-07-21T08:12:18Z</time>
      </trkpt>
      <trkpt lat="46.89845" lon="0.57407">
        <ele>48.799999237061</ele>
        <time>2019-07-21T08:13:18Z</time>
      </trkpt>
      <trkpt lat="46.89845" lon="0.57407">
        <ele>47.799999237061</ele>
        <time>2019-07-21T08:13:19Z</time>
      </trkpt>
      <trkpt lat="46.8985" lon="0.57412">
        <ele>48.799999237061</ele>
        <time>2019-07-21T08:13:25Z</time>
      </trkpt>
      <trkpt lat="46.89859" lon="0.57418">
        <ele>47.799999237061</ele>
        <time>2019-07-21T08:13:34Z</time>
      </trkpt>
      <trkpt lat="46.89905" lon="0.5743">
        <ele>46.799999237061</ele>
        <time>2019-07-21T08:14:04Z</time>
      </trkpt>
      <trkpt lat="46.89931" lon="0.57447">
        <ele>47.799999237061</ele>
        <time>2019-07-21T08:14:22Z</time>
      </trkpt>
      <trkpt lat="46.89933" lon="0.57448">
        <ele>46.799999237061</ele>
        <time>2019-07-21T08:14:24Z</time>
      </trkpt>
      <trkpt lat="46.89955" lon="0.57443">
        <ele>46.799999237061</ele>
        <time>2019-07-21T08:14:39Z</time>
      </trkpt>
      <trkpt lat="46.89958" lon="0.57443">
        <ele>46.799999237061</ele>
        <time>2019-07-21T08:14:41Z</time>
      </trkpt>
      <trkpt lat="46.89991" lon="0.57464">
        <ele>46.799999237061</ele>
        <time>2019-07-21T08:15:04Z</time>
      </trkpt>
      <trkpt lat="46.90001" lon="0.57468">
        <ele>46.799999237061</ele>
        <time>2019-07-21T08:15:11Z</time>
      </trkpt>
      <trkpt lat="46.90004" lon="0.57469">
        <ele>46.799999237061</ele>
        <time>2019-07-21T08:15:13Z</time>
      </trkpt>
      <trkpt lat="46.90006" lon="0.57467">
        <ele>46.799999237061</ele>
        <time>2019-07-21T08:15:15Z</time>
      </trkpt>
      <trkpt lat="46.90011" lon="0.57459">
        <ele>47.799999237061</ele>
        <time>2019-07-21T08:15:20Z</time>
      </trkpt>
      <trkpt lat="46.90013" lon="0.57456">
        <ele>46.799999237061</ele>
        <time>2019-07-21T08:15:22Z</time>
      </trkpt>
      <trkpt lat="46.90017" lon="0.57455">
        <ele>46.799999237061</ele>
        <time>2019-07-21T08:15:25Z</time>
      </trkpt>
      <trkpt lat="46.9002" lon="0.57456">
        <ele>46.799999237061</ele>
        <time>2019-07-21T08:15:27Z</time>
      </trkpt>
      <trkpt lat="46.90032" lon="0.57465">
        <ele>47.799999237061</ele>
        <time>2019-07-21T08:15:36Z</time>
      </trkpt>
      <trkpt lat="46.90035" lon="0.57469">
        <ele>48.799999237061</ele>
        <time>2019-07-21T08:15:39Z</time>
      </trkpt>
      <trkpt lat="46.90077" lon="0.57502">
        <ele>47.799999237061</ele>
        <time>2019-07-21T08:16:11Z</time>
      </trkpt>
      <trkpt lat="46.90119" lon="0.57534">
        <ele>48.799999237061</ele>
        <time>2019-07-21T08:16:44Z</time>
      </trkpt>
      <trkpt lat="46.90128" lon="0.57541">
        <ele>48.799999237061</ele>
        <time>2019-07-21T08:16:51Z</time>
      </trkpt>
      <trkpt lat="46.90153" lon="0.57558">
        <ele>46.799999237061</ele>
        <time>2019-07-21T08:17:09Z</time>
      </trkpt>
      <trkpt lat="46.9017" lon="0.57572">
        <ele>47.799999237061</ele>
        <time>2019-07-21T08:17:22Z</time>
      </trkpt>
      <trkpt lat="46.90187" lon="0.57586">
        <ele>47.799999237061</ele>
        <time>2019-07-21T08:17:35Z</time>
      </trkpt>
      <trkpt lat="46.90204" lon="0.57599">
        <ele>47.799999237061</ele>
        <time>2019-07-21T08:17:48Z</time>
      </trkpt>
      <trkpt lat="46.90221" lon="0.57613">
        <ele>47.799999237061</ele>
        <time>2019-07-21T08:18:01Z</time>
      </trkpt>
      <trkpt lat="46.90238" lon="0.57627">
        <ele>47.799999237061</ele>
        <time>2019-07-21T08:18:14Z</time>
      </trkpt>
      <trkpt lat="46.90255" lon="0.5764">
        <ele>47.799999237061</ele>
        <time>2019-07-21T08:18:26Z</time>
      </trkpt>
      <trkpt lat="46.90272" lon="0.57654">
        <ele>48.799999237061</ele>
        <time>2019-07-21T08:18:39Z</time>
      </trkpt>
      <trkpt lat="46.90288" lon="0.57668">
        <ele>48.799999237061</ele>
        <time>2019-07-21T08:18:51Z</time>
      </trkpt>
      <trkpt lat="46.90306" lon="0.57681">
        <ele>48.799999237061</ele>
        <time>2019-07-21T08:19:04Z</time>
      </trkpt>
      <trkpt lat="46.90322" lon="0.57695">
        <ele>49.799999237061</ele>
        <time>2019-07-21T08:19:17Z</time>
      </trkpt>
      <trkpt lat="46.90338" lon="0.57708">
        <ele>48.799999237061</ele>
        <time>2019-07-21T08:19:29Z</time>
      </trkpt>
      <trkpt lat="46.90355" lon="0.57722">
        <ele>47.799999237061</ele>
        <time>2019-07-21T08:19:41Z</time>
      </trkpt>
      <trkpt lat="46.90372" lon="0.57736">
        <ele>48.799999237061</ele>
        <time>2019-07-21T08:19:54Z</time>
      </trkpt>
      <trkpt lat="46.90388" lon="0.5775">
        <ele>48.799999237061</ele>
        <time>2019-07-21T08:20:07Z</time>
      </trkpt>
      <trkpt lat="46.90405" lon="0.57765">
        <ele>49.799999237061</ele>
        <time>2019-07-21T08:20:20Z</time>
      </trkpt>
      <trkpt lat="46.90423" lon="0.57779">
        <ele>48.799999237061</ele>
        <time>2019-07-21T08:20:34Z</time>
      </trkpt>
      <trkpt lat="46.90439" lon="0.57793">
        <ele>48.799999237061</ele>
        <time>2019-07-21T08:20:46Z</time>
      </trkpt>
      <trkpt lat="46.90455" lon="0.57807">
        <ele>48.799999237061</ele>
        <time>2019-07-21T08:20:59Z</time>
      </trkpt>
      <trkpt lat="46.90472" lon="0.57821">
        <ele>48.799999237061</ele>
        <time>2019-07-21T08:21:12Z</time>
      </trkpt>
      <trkpt lat="46.90489" lon="0.57834">
        <ele>47.799999237061</ele>
        <time>2019-07-21T08:21:26Z</time>
      </trkpt>
      <trkpt lat="46.90506" lon="0.57849">
        <ele>49.799999237061</ele>
        <time>2019-07-21T08:21:38Z</time>
      </trkpt>
      <trkpt lat="46.90522" lon="0.57863">
        <ele>49.799999237061</ele>
        <time>2019-07-21T08:21:51Z</time>
      </trkpt>
      <trkpt lat="46.90539" lon="0.57878">
        <ele>49.799999237061</ele>
        <time>2019-07-21T08:22:04Z</time>
      </trkpt>
      <trkpt lat="46.90555" lon="0.57891">
        <ele>49.799999237061</ele>
        <time>2019-07-21T08:22:17Z</time>
      </trkpt>
      <trkpt lat="46.90572" lon="0.57905">
        <ele>50.799999237061</ele>
        <time>2019-07-21T08:22:30Z</time>
      </trkpt>
      <trkpt lat="46.90588" lon="0.5792">
        <ele>49.799999237061</ele>
        <time>2019-07-21T08:22:43Z</time>
      </trkpt>
      <trkpt lat="46.90605" lon="0.57933">
        <ele>48.799999237061</ele>
        <time>2019-07-21T08:22:55Z</time>
      </trkpt>
      <trkpt lat="46.90621" lon="0.57946">
        <ele>48.799999237061</ele>
        <time>2019-07-21T08:23:08Z</time>
      </trkpt>
      <trkpt lat="46.90638" lon="0.57959">
        <ele>48.799999237061</ele>
        <time>2019-07-21T08:23:21Z</time>
      </trkpt>
      <trkpt lat="46.9064" lon="0.57961">
        <ele>48.799999237061</ele>
        <time>2019-07-21T08:23:23Z</time>
      </trkpt>
      <trkpt lat="46.90643" lon="0.57964">
        <ele>49.799999237061</ele>
        <time>2019-07-21T08:23:25Z</time>
      </trkpt>
      <trkpt lat="46.90661" lon="0.58001">
        <ele>50.799999237061</ele>
        <time>2019-07-21T08:23:47Z</time>
      </trkpt>
      <trkpt lat="46.90675" lon="0.58019">
        <ele>51.799999237061</ele>
        <time>2019-07-21T08:24:00Z</time>
      </trkpt>
      <trkpt lat="46.90684" lon="0.58025">
        <ele>49.799999237061</ele>
        <time>2019-07-21T08:24:07Z</time>
      </trkpt>
      <trkpt lat="46.90702" lon="0.58032">
        <ele>49.799999237061</ele>
        <time>2019-07-21T08:24:21Z</time>
      </trkpt>
      <trkpt lat="46.90744" lon="0.58066">
        <ele>49.799999237061</ele>
        <time>2019-07-21T08:24:54Z</time>
      </trkpt>
      <trkpt lat="46.90785" lon="0.58099">
        <ele>49.799999237061</ele>
        <time>2019-07-21T08:25:26Z</time>
      </trkpt>
      <trkpt lat="46.90826" lon="0.58134">
        <ele>50.799999237061</ele>
        <time>2019-07-21T08:25:59Z</time>
      </trkpt>
      <trkpt lat="46.90866" lon="0.58168">
        <ele>50.799999237061</ele>
        <time>2019-07-21T08:26:31Z</time>
      </trkpt>
      <trkpt lat="46.90903" lon="0.5821">
        <ele>50.799999237061</ele>
        <time>2019-07-21T08:27:04Z</time>
      </trkpt>
      <trkpt lat="46.90941" lon="0.58252">
        <ele>50.799999237061</ele>
        <time>2019-07-21T08:27:37Z</time>
      </trkpt>
      <trkpt lat="46.90977" lon="0.58294">
        <ele>50.799999237061</ele>
        <time>2019-07-21T08:28:09Z</time>
      </trkpt>
      <trkpt lat="46.91014" lon="0.58338">
        <ele>50.799999237061</ele>
        <time>2019-07-21T08:28:42Z</time>
      </trkpt>
      <trkpt lat="46.91049" lon="0.58379">
        <ele>50.799999237061</ele>
        <time>2019-07-21T08:29:15Z</time>
      </trkpt>
      <trkpt lat="46.91067" lon="0.58401">
        <ele>49.799999237061</ele>
        <time>2019-07-21T08:29:32Z</time>
      </trkpt>
      <trkpt lat="46.91104" lon="0.58445">
        <ele>49.799999237061</ele>
        <time>2019-07-21T08:30:04Z</time>
      </trkpt>
      <trkpt lat="46.9114" lon="0.58489">
        <ele>49.799999237061</ele>
        <time>2019-07-21T08:30:37Z</time>
      </trkpt>
      <trkpt lat="46.91174" lon="0.58537">
        <ele>49.799999237061</ele>
        <time>2019-07-21T08:31:11Z</time>
      </trkpt>
      <trkpt lat="46.9121" lon="0.58581">
        <ele>49.799999237061</ele>
        <time>2019-07-21T08:31:44Z</time>
      </trkpt>
      <trkpt lat="46.91219" lon="0.58592">
        <ele>50.799999237061</ele>
        <time>2019-07-21T08:31:53Z</time>
      </trkpt>
      <trkpt lat="46.91219" lon="0.58594">
        <ele>50.799999237061</ele>
        <time>2019-07-21T08:32:01Z</time>
      </trkpt>
      <trkpt lat="46.91219" lon="0.58593">
        <ele>50.799999237061</ele>
        <time>2019-07-21T08:33:07Z</time>
      </trkpt>
      <trkpt lat="46.91257" lon="0.58631">
        <ele>49.799999237061</ele>
        <time>2019-07-21T08:33:52Z</time>
      </trkpt>
      <trkpt lat="46.91309" lon="0.58689">
        <ele>49.799999237061</ele>
        <time>2019-07-21T08:34:36Z</time>
      </trkpt>
      <trkpt lat="46.91346" lon="0.58733">
        <ele>48.799999237061</ele>
        <time>2019-07-21T08:35:08Z</time>
      </trkpt>
      <trkpt lat="46.91382" lon="0.58778">
        <ele>48.799999237061</ele>
        <time>2019-07-21T08:35:41Z</time>
      </trkpt>
      <trkpt lat="46.9142" lon="0.58823">
        <ele>47.799999237061</ele>
        <time>2019-07-21T08:36:14Z</time>
      </trkpt>
      <trkpt lat="46.91455" lon="0.58867">
        <ele>48.799999237061</ele>
        <time>2019-07-21T08:36:46Z</time>
      </trkpt>
      <trkpt lat="46.91492" lon="0.5891">
        <ele>48.799999237061</ele>
        <time>2019-07-21T08:37:19Z</time>
      </trkpt>
      <trkpt lat="46.91544" lon="0.58977">
        <ele>49.799999237061</ele>
        <time>2019-07-21T08:38:07Z</time>
      </trkpt>
      <trkpt lat="46.91579" lon="0.59021">
        <ele>49.799999237061</ele>
        <time>2019-07-21T08:38:41Z</time>
      </trkpt>
      <trkpt lat="46.91615" lon="0.59066">
        <ele>49.799999237061</ele>
        <time>2019-07-21T08:39:14Z</time>
      </trkpt>
      <trkpt lat="46.91652" lon="0.59109">
        <ele>48.799999237061</ele>
        <time>2019-07-21T08:39:47Z</time>
      </trkpt>
      <trkpt lat="46.91677" lon="0.59146">
        <ele>48.799999237061</ele>
        <time>2019-07-21T08:40:13Z</time>
      </trkpt>
      <trkpt lat="46.9168" lon="0.59149">
        <ele>49.799999237061</ele>
        <time>2019-07-21T08:40:16Z</time>
      </trkpt>
      <trkpt lat="46.91693" lon="0.59166">
        <ele>49.799999237061</ele>
        <time>2019-07-21T08:40:29Z</time>
      </trkpt>
      <trkpt lat="46.91695" lon="0.5917">
        <ele>48.799999237061</ele>
        <time>2019-07-21T08:40:32Z</time>
      </trkpt>
      <trkpt lat="46.91699" lon="0.59173">
        <ele>49.799999237061</ele>
        <time>2019-07-21T08:40:36Z</time>
      </trkpt>
      <trkpt lat="46.91705" lon="0.59182">
        <ele>49.799999237061</ele>
        <time>2019-07-21T08:40:42Z</time>
      </trkpt>
      <trkpt lat="46.91709" lon="0.59186">
        <ele>49.799999237061</ele>
        <time>2019-07-21T08:40:46Z</time>
      </trkpt>
      <trkpt lat="46.91711" lon="0.59189">
        <ele>49.799999237061</ele>
        <time>2019-07-21T08:40:50Z</time>
      </trkpt>
      <trkpt lat="46.91712" lon="0.59189">
        <ele>49.799999237061</ele>
        <time>2019-07-21T08:41:11Z</time>
      </trkpt>
      <trkpt lat="46.91714" lon="0.59191">
        <ele>49.799999237061</ele>
        <time>2019-07-21T08:41:15Z</time>
      </trkpt>
      <trkpt lat="46.91716" lon="0.59192">
        <ele>49.799999237061</ele>
        <time>2019-07-21T08:41:17Z</time>
      </trkpt>
      <trkpt lat="46.91718" lon="0.59194">
        <ele>50.799999237061</ele>
        <time>2019-07-21T08:41:20Z</time>
      </trkpt>
      <trkpt lat="46.9175" lon="0.59235">
        <ele>48.799999237061</ele>
        <time>2019-07-21T08:41:49Z</time>
      </trkpt>
      <trkpt lat="46.91755" lon="0.59241">
        <ele>49.799999237061</ele>
        <time>2019-07-21T08:41:54Z</time>
      </trkpt>
      <trkpt lat="46.91756" lon="0.59242">
        <ele>49.799999237061</ele>
        <time>2019-07-21T08:41:56Z</time>
      </trkpt>
      <trkpt lat="46.91757" lon="0.59242">
        <ele>50.799999237061</ele>
        <time>2019-07-21T08:42:46Z</time>
      </trkpt>
      <trkpt lat="46.91759" lon="0.59243">
        <ele>51.799999237061</ele>
        <time>2019-07-21T08:42:50Z</time>
      </trkpt>
      <trkpt lat="46.9178" lon="0.59269">
        <ele>51.799999237061</ele>
        <time>2019-07-21T08:43:11Z</time>
      </trkpt>
      <trkpt lat="46.9182" lon="0.59311">
        <ele>52.799999237061</ele>
        <time>2019-07-21T08:43:45Z</time>
      </trkpt>
      <trkpt lat="46.91857" lon="0.59354">
        <ele>52.799999237061</ele>
        <time>2019-07-21T08:44:18Z</time>
      </trkpt>
      <trkpt lat="46.91893" lon="0.59398">
        <ele>52.799999237061</ele>
        <time>2019-07-21T08:44:51Z</time>
      </trkpt>
      <trkpt lat="46.9193" lon="0.59442">
        <ele>51.799999237061</ele>
        <time>2019-07-21T08:45:23Z</time>
      </trkpt>
      <trkpt lat="46.91932" lon="0.59444">
        <ele>51.799999237061</ele>
        <time>2019-07-21T08:45:25Z</time>
      </trkpt>
      <trkpt lat="46.91968" lon="0.59488">
        <ele>52.799999237061</ele>
        <time>2019-07-21T08:45:57Z</time>
      </trkpt>
      <trkpt lat="46.92006" lon="0.59529">
        <ele>51.799999237061</ele>
        <time>2019-07-21T08:46:27Z</time>
      </trkpt>
      <trkpt lat="46.92015" lon="0.59538">
        <ele>51.799999237061</ele>
        <time>2019-07-21T08:46:35Z</time>
      </trkpt>
      <trkpt lat="46.92018" lon="0.5954">
        <ele>51.799999237061</ele>
        <time>2019-07-21T08:46:38Z</time>
      </trkpt>
      <trkpt lat="46.9202" lon="0.59542">
        <ele>51.799999237061</ele>
        <time>2019-07-21T08:46:40Z</time>
      </trkpt>
      <trkpt lat="46.92023" lon="0.59546">
        <ele>51.799999237061</ele>
        <time>2019-07-21T08:46:43Z</time>
      </trkpt>
      <trkpt lat="46.92036" lon="0.5956">
        <ele>49.799999237061</ele>
        <time>2019-07-21T08:46:54Z</time>
      </trkpt>
      <trkpt lat="46.92045" lon="0.59567">
        <ele>47.799999237061</ele>
        <time>2019-07-21T08:47:01Z</time>
      </trkpt>
      <trkpt lat="46.92079" lon="0.59603">
        <ele>47.799999237061</ele>
        <time>2019-07-21T08:47:31Z</time>
      </trkpt>
      <trkpt lat="46.92088" lon="0.59611">
        <ele>46.799999237061</ele>
        <time>2019-07-21T08:47:39Z</time>
      </trkpt>
      <trkpt lat="46.92092" lon="0.59617">
        <ele>47.799999237061</ele>
        <time>2019-07-21T08:47:43Z</time>
      </trkpt>
      <trkpt lat="46.92103" lon="0.59627">
        <ele>47.799999237061</ele>
        <time>2019-07-21T08:47:52Z</time>
      </trkpt>
      <trkpt lat="46.92135" lon="0.59656">
        <ele>45.799999237061</ele>
        <time>2019-07-21T08:48:19Z</time>
      </trkpt>
      <trkpt lat="46.92138" lon="0.5966">
        <ele>45.799999237061</ele>
        <time>2019-07-21T08:48:22Z</time>
      </trkpt>
      <trkpt lat="46.92142" lon="0.59663">
        <ele>45.799999237061</ele>
        <time>2019-07-21T08:48:25Z</time>
      </trkpt>
      <trkpt lat="46.9217" lon="0.5969">
        <ele>47.799999237061</ele>
        <time>2019-07-21T08:48:47Z</time>
      </trkpt>
      <trkpt lat="46.92184" lon="0.59705">
        <ele>47.799999237061</ele>
        <time>2019-07-21T08:48:59Z</time>
      </trkpt>
      <trkpt lat="46.92213" lon="0.59734">
        <ele>48.799999237061</ele>
        <time>2019-07-21T08:49:23Z</time>
      </trkpt>
      <trkpt lat="46.92223" lon="0.59743">
        <ele>48.799999237061</ele>
        <time>2019-07-21T08:49:32Z</time>
      </trkpt>
      <trkpt lat="46.92261" lon="0.5978">
        <ele>47.799999237061</ele>
        <time>2019-07-21T08:50:04Z</time>
      </trkpt>
      <trkpt lat="46.92265" lon="0.59785">
        <ele>46.799999237061</ele>
        <time>2019-07-21T08:50:09Z</time>
      </trkpt>
      <trkpt lat="46.92284" lon="0.59803">
        <ele>46.799999237061</ele>
        <time>2019-07-21T08:50:25Z</time>
      </trkpt>
      <trkpt lat="46.92286" lon="0.59805">
        <ele>46.799999237061</ele>
        <time>2019-07-21T08:50:27Z</time>
      </trkpt>
      <trkpt lat="46.92299" lon="0.59817">
        <ele>47.799999237061</ele>
        <time>2019-07-21T08:50:37Z</time>
      </trkpt>
      <trkpt lat="46.92301" lon="0.5982">
        <ele>47.799999237061</ele>
        <time>2019-07-21T08:50:39Z</time>
      </trkpt>
      <trkpt lat="46.9234" lon="0.59859">
        <ele>45.799999237061</ele>
        <time>2019-07-21T08:51:12Z</time>
      </trkpt>
      <trkpt lat="46.92381" lon="0.59897">
        <ele>47.799999237061</ele>
        <time>2019-07-21T08:51:42Z</time>
      </trkpt>
      <trkpt lat="46.92417" lon="0.59938">
        <ele>48.799999237061</ele>
        <time>2019-07-21T08:52:13Z</time>
      </trkpt>
      <trkpt lat="46.92454" lon="0.59981">
        <ele>48.799999237061</ele>
        <time>2019-07-21T08:52:45Z</time>
      </trkpt>
      <trkpt lat="46.92494" lon="0.60021">
        <ele>48.799999237061</ele>
        <time>2019-07-21T08:53:19Z</time>
      </trkpt>
      <trkpt lat="46.92523" lon="0.60051">
        <ele>49.799999237061</ele>
        <time>2019-07-21T08:53:43Z</time>
      </trkpt>
      <trkpt lat="46.92536" lon="0.60084">
        <ele>49.799999237061</ele>
        <time>2019-07-21T08:54:01Z</time>
      </trkpt>
      <trkpt lat="46.92538" lon="0.60088">
        <ele>49.799999237061</ele>
        <time>2019-07-21T08:54:03Z</time>
      </trkpt>
      <trkpt lat="46.92543" lon="0.60096">
        <ele>49.799999237061</ele>
        <time>2019-07-21T08:54:08Z</time>
      </trkpt>
      <trkpt lat="46.92546" lon="0.60098">
        <ele>48.799999237061</ele>
        <time>2019-07-21T08:54:10Z</time>
      </trkpt>
      <trkpt lat="46.92549" lon="0.601">
        <ele>48.799999237061</ele>
        <time>2019-07-21T08:54:12Z</time>
      </trkpt>
      <trkpt lat="46.92551" lon="0.601">
        <ele>48.799999237061</ele>
        <time>2019-07-21T08:54:14Z</time>
      </trkpt>
      <trkpt lat="46.92563" lon="0.60094">
        <ele>49.799999237061</ele>
        <time>2019-07-21T08:54:22Z</time>
      </trkpt>
      <trkpt lat="46.92566" lon="0.60093">
        <ele>49.799999237061</ele>
        <time>2019-07-21T08:54:24Z</time>
      </trkpt>
      <trkpt lat="46.92568" lon="0.60094">
        <ele>49.799999237061</ele>
        <time>2019-07-21T08:54:26Z</time>
      </trkpt>
      <trkpt lat="46.9261" lon="0.60129">
        <ele>48.799999237061</ele>
        <time>2019-07-21T08:54:58Z</time>
      </trkpt>
      <trkpt lat="46.92642" lon="0.60156">
        <ele>49.799999237061</ele>
        <time>2019-07-21T08:55:24Z</time>
      </trkpt>
      <trkpt lat="46.92681" lon="0.60194">
        <ele>49.799999237061</ele>
        <time>2019-07-21T08:55:57Z</time>
      </trkpt>
      <trkpt lat="46.92707" lon="0.60218">
        <ele>48.799999237061</ele>
        <time>2019-07-21T08:56:18Z</time>
      </trkpt>
      <trkpt lat="46.92722" lon="0.60235">
        <ele>49.799999237061</ele>
        <time>2019-07-21T08:56:31Z</time>
      </trkpt>
      <trkpt lat="46.92739" lon="0.6025">
        <ele>49.799999237061</ele>
        <time>2019-07-21T08:56:45Z</time>
      </trkpt>
      <trkpt lat="46.92755" lon="0.60267">
        <ele>49.799999237061</ele>
        <time>2019-07-21T08:56:59Z</time>
      </trkpt>
      <trkpt lat="46.9277" lon="0.60285">
        <ele>49.799999237061</ele>
        <time>2019-07-21T08:57:13Z</time>
      </trkpt>
      <trkpt lat="46.9278" lon="0.60299">
        <ele>49.799999237061</ele>
        <time>2019-07-21T08:57:23Z</time>
      </trkpt>
      <trkpt lat="46.92782" lon="0.60303">
        <ele>48.799999237061</ele>
        <time>2019-07-21T08:57:25Z</time>
      </trkpt>
      <trkpt lat="46.92784" lon="0.60313">
        <ele>49.799999237061</ele>
        <time>2019-07-21T08:57:30Z</time>
      </trkpt>
      <trkpt lat="46.92793" lon="0.60338">
        <ele>50.799999237061</ele>
        <time>2019-07-21T08:57:44Z</time>
      </trkpt>
      <trkpt lat="46.92797" lon="0.60344">
        <ele>49.799999237061</ele>
        <time>2019-07-21T08:57:48Z</time>
      </trkpt>
      <trkpt lat="46.92801" lon="0.60348">
        <ele>50.799999237061</ele>
        <time>2019-07-21T08:57:52Z</time>
      </trkpt>
      <trkpt lat="46.92805" lon="0.60354">
        <ele>49.799999237061</ele>
        <time>2019-07-21T08:57:56Z</time>
      </trkpt>
      <trkpt lat="46.92806" lon="0.60357">
        <ele>49.799999237061</ele>
        <time>2019-07-21T08:57:58Z</time>
      </trkpt>
      <trkpt lat="46.92814" lon="0.60395">
        <ele>50.799999237061</ele>
        <time>2019-07-21T08:58:17Z</time>
      </trkpt>
      <trkpt lat="46.92816" lon="0.60409">
        <ele>51.799999237061</ele>
        <time>2019-07-21T08:58:24Z</time>
      </trkpt>
      <trkpt lat="46.92817" lon="0.60412">
        <ele>51.799999237061</ele>
        <time>2019-07-21T08:58:26Z</time>
      </trkpt>
      <trkpt lat="46.92821" lon="0.60415">
        <ele>52.799999237061</ele>
        <time>2019-07-21T08:58:30Z</time>
      </trkpt>
      <trkpt lat="46.92823" lon="0.6042">
        <ele>51.799999237061</ele>
        <time>2019-07-21T08:58:34Z</time>
      </trkpt>
      <trkpt lat="46.92825" lon="0.60422">
        <ele>51.799999237061</ele>
        <time>2019-07-21T08:58:37Z</time>
      </trkpt>
      <trkpt lat="46.92845" lon="0.60484">
        <ele>54.799999237061</ele>
        <time>2019-07-21T08:59:11Z</time>
      </trkpt>
      <trkpt lat="46.92864" lon="0.60545">
        <ele>58.799999237061</ele>
        <time>2019-07-21T08:59:46Z</time>
      </trkpt>
      <trkpt lat="46.92884" lon="0.60605">
        <ele>62.799999237061</ele>
        <time>2019-07-21T09:00:21Z</time>
      </trkpt>
      <trkpt lat="46.92904" lon="0.60667">
        <ele>58.799999237061</ele>
        <time>2019-07-21T09:00:57Z</time>
      </trkpt>
      <trkpt lat="46.9292" lon="0.60714">
        <ele>59.799999237061</ele>
        <time>2019-07-21T09:01:24Z</time>
      </trkpt>
      <trkpt lat="46.92942" lon="0.60759">
        <ele>55.799999237061</ele>
        <time>2019-07-21T09:01:51Z</time>
      </trkpt>
      <trkpt lat="46.92973" lon="0.60803">
        <ele>51.799999237061</ele>
        <time>2019-07-21T09:02:22Z</time>
      </trkpt>
      <trkpt lat="46.93011" lon="0.60843">
        <ele>49.799999237061</ele>
        <time>2019-07-21T09:02:56Z</time>
      </trkpt>
      <trkpt lat="46.93033" lon="0.60862">
        <ele>49.799999237061</ele>
        <time>2019-07-21T09:03:16Z</time>
      </trkpt>
      <trkpt lat="46.9304" lon="0.60865">
        <ele>48.799999237061</ele>
        <time>2019-07-21T09:03:21Z</time>
      </trkpt>
      <trkpt lat="46.93043" lon="0.60867">
        <ele>48.799999237061</ele>
        <time>2019-07-21T09:03:24Z</time>
      </trkpt>
      <trkpt lat="46.93081" lon="0.60895">
        <ele>48.799999237061</ele>
        <time>2019-07-21T09:03:54Z</time>
      </trkpt>
      <trkpt lat="46.93117" lon="0.60911">
        <ele>48.799999237061</ele>
        <time>2019-07-21T09:04:21Z</time>
      </trkpt>
      <trkpt lat="46.9312" lon="0.60913">
        <ele>48.799999237061</ele>
        <time>2019-07-21T09:04:23Z</time>
      </trkpt>
      <trkpt lat="46.93122" lon="0.60915">
        <ele>48.799999237061</ele>
        <time>2019-07-21T09:04:25Z</time>
      </trkpt>
      <trkpt lat="46.93154" lon="0.60958">
        <ele>49.799999237061</ele>
        <time>2019-07-21T09:04:58Z</time>
      </trkpt>
      <trkpt lat="46.93168" lon="0.60982">
        <ele>51.799999237061</ele>
        <time>2019-07-21T09:05:14Z</time>
      </trkpt>
      <trkpt lat="46.9317" lon="0.60991">
        <ele>52.799999237061</ele>
        <time>2019-07-21T09:05:19Z</time>
      </trkpt>
      <trkpt lat="46.93185" lon="0.61022">
        <ele>51.799999237061</ele>
        <time>2019-07-21T09:05:38Z</time>
      </trkpt>
      <trkpt lat="46.93196" lon="0.61047">
        <ele>50.799999237061</ele>
        <time>2019-07-21T09:05:52Z</time>
      </trkpt>
      <trkpt lat="46.93206" lon="0.61071">
        <ele>52.799999237061</ele>
        <time>2019-07-21T09:06:06Z</time>
      </trkpt>
      <trkpt lat="46.93216" lon="0.61095">
        <ele>52.799999237061</ele>
        <time>2019-07-21T09:06:20Z</time>
      </trkpt>
      <trkpt lat="46.93225" lon="0.61119">
        <ele>52.799999237061</ele>
        <time>2019-07-21T09:06:34Z</time>
      </trkpt>
      <trkpt lat="46.93235" lon="0.61143">
        <ele>53.799999237061</ele>
        <time>2019-07-21T09:06:47Z</time>
      </trkpt>
      <trkpt lat="46.93245" lon="0.61166">
        <ele>54.799999237061</ele>
        <time>2019-07-21T09:07:00Z</time>
      </trkpt>
      <trkpt lat="46.93247" lon="0.61167">
        <ele>53.799999237061</ele>
        <time>2019-07-21T09:07:02Z</time>
      </trkpt>
      <trkpt lat="46.93252" lon="0.61169">
        <ele>52.799999237061</ele>
        <time>2019-07-21T09:07:05Z</time>
      </trkpt>
      <trkpt lat="46.93255" lon="0.61168">
        <ele>53.799999237061</ele>
        <time>2019-07-21T09:07:07Z</time>
      </trkpt>
      <trkpt lat="46.93258" lon="0.61167">
        <ele>53.799999237061</ele>
        <time>2019-07-21T09:07:09Z</time>
      </trkpt>
      <trkpt lat="46.9326" lon="0.61166">
        <ele>53.799999237061</ele>
        <time>2019-07-21T09:07:11Z</time>
      </trkpt>
      <trkpt lat="46.93265" lon="0.61156">
        <ele>53.799999237061</ele>
        <time>2019-07-21T09:07:18Z</time>
      </trkpt>
      <trkpt lat="46.93279" lon="0.61125">
        <ele>53.799999237061</ele>
        <time>2019-07-21T09:07:35Z</time>
      </trkpt>
      <trkpt lat="46.93292" lon="0.61095">
        <ele>52.799999237061</ele>
        <time>2019-07-21T09:07:51Z</time>
      </trkpt>
      <trkpt lat="46.93296" lon="0.61087">
        <ele>52.799999237061</ele>
        <time>2019-07-21T09:07:56Z</time>
      </trkpt>
      <trkpt lat="46.93301" lon="0.61074">
        <ele>52.799999237061</ele>
        <time>2019-07-21T09:08:03Z</time>
      </trkpt>
      <trkpt lat="46.93331" lon="0.61021">
        <ele>51.799999237061</ele>
        <time>2019-07-21T09:08:35Z</time>
      </trkpt>
      <trkpt lat="46.93339" lon="0.61007">
        <ele>51.799999237061</ele>
        <time>2019-07-21T09:08:43Z</time>
      </trkpt>
      <trkpt lat="46.93361" lon="0.60973">
        <ele>50.799999237061</ele>
        <time>2019-07-21T09:09:04Z</time>
      </trkpt>
      <trkpt lat="46.93374" lon="0.60951">
        <ele>49.799999237061</ele>
        <time>2019-07-21T09:09:17Z</time>
      </trkpt>
      <trkpt lat="46.93395" lon="0.60916">
        <ele>49.799999237061</ele>
        <time>2019-07-21T09:09:38Z</time>
      </trkpt>
      <trkpt lat="46.93409" lon="0.60896">
        <ele>49.799999237061</ele>
        <time>2019-07-21T09:09:51Z</time>
      </trkpt>
      <trkpt lat="46.93411" lon="0.60894">
        <ele>49.799999237061</ele>
        <time>2019-07-21T09:09:53Z</time>
      </trkpt>
      <trkpt lat="46.93413" lon="0.60892">
        <ele>49.799999237061</ele>
        <time>2019-07-21T09:09:55Z</time>
      </trkpt>
      <trkpt lat="46.93424" lon="0.60888">
        <ele>50.799999237061</ele>
        <time>2019-07-21T09:10:03Z</time>
      </trkpt>
      <trkpt lat="46.93427" lon="0.60887">
        <ele>50.799999237061</ele>
        <time>2019-07-21T09:10:05Z</time>
      </trkpt>
      <trkpt lat="46.93433" lon="0.60889">
        <ele>49.799999237061</ele>
        <time>2019-07-21T09:10:09Z</time>
      </trkpt>
      <trkpt lat="46.93444" lon="0.60898">
        <ele>48.799999237061</ele>
        <time>2019-07-21T09:10:18Z</time>
      </trkpt>
      <trkpt lat="46.93446" lon="0.609">
        <ele>48.799999237061</ele>
        <time>2019-07-21T09:10:20Z</time>
      </trkpt>
      <trkpt lat="46.93452" lon="0.6091">
        <ele>48.799999237061</ele>
        <time>2019-07-21T09:10:26Z</time>
      </trkpt>
      <trkpt lat="46.93461" lon="0.6094">
        <ele>48.799999237061</ele>
        <time>2019-07-21T09:10:41Z</time>
      </trkpt>
      <trkpt lat="46.93474" lon="0.6097">
        <ele>48.799999237061</ele>
        <time>2019-07-21T09:10:58Z</time>
      </trkpt>
      <trkpt lat="46.93484" lon="0.60983">
        <ele>48.799999237061</ele>
        <time>2019-07-21T09:11:08Z</time>
      </trkpt>
      <trkpt lat="46.93507" lon="0.60995">
        <ele>48.799999237061</ele>
        <time>2019-07-21T09:11:25Z</time>
      </trkpt>
      <trkpt lat="46.93562" lon="0.61004">
        <ele>47.799999237061</ele>
        <time>2019-07-21T09:12:02Z</time>
      </trkpt>
      <trkpt lat="46.93571" lon="0.61006">
        <ele>47.799999237061</ele>
        <time>2019-07-21T09:12:09Z</time>
      </trkpt>
      <trkpt lat="46.93576" lon="0.61009">
        <ele>47.799999237061</ele>
        <time>2019-07-21T09:12:12Z</time>
      </trkpt>
      <trkpt lat="46.93623" lon="0.61019">
        <ele>48.799999237061</ele>
        <time>2019-07-21T09:12:45Z</time>
      </trkpt>
      <trkpt lat="46.93643" lon="0.61023">
        <ele>48.799999237061</ele>
        <time>2019-07-21T09:12:58Z</time>
      </trkpt>
      <trkpt lat="46.93662" lon="0.61025">
        <ele>49.799999237061</ele>
        <time>2019-07-21T09:13:11Z</time>
      </trkpt>
      <trkpt lat="46.93682" lon="0.61028">
        <ele>50.799999237061</ele>
        <time>2019-07-21T09:13:24Z</time>
      </trkpt>
      <trkpt lat="46.93701" lon="0.61032">
        <ele>50.799999237061</ele>
        <time>2019-07-21T09:13:38Z</time>
      </trkpt>
      <trkpt lat="46.93721" lon="0.61035">
        <ele>51.799999237061</ele>
        <time>2019-07-21T09:13:52Z</time>
      </trkpt>
      <trkpt lat="46.9374" lon="0.61037">
        <ele>50.799999237061</ele>
        <time>2019-07-21T09:14:05Z</time>
      </trkpt>
      <trkpt lat="46.93749" lon="0.61038">
        <ele>50.799999237061</ele>
        <time>2019-07-21T09:14:11Z</time>
      </trkpt>
      <trkpt lat="46.93751" lon="0.61039">
        <ele>50.799999237061</ele>
        <time>2019-07-21T09:14:13Z</time>
      </trkpt>
      <trkpt lat="46.93753" lon="0.61041">
        <ele>51.799999237061</ele>
        <time>2019-07-21T09:14:15Z</time>
      </trkpt>
      <trkpt lat="46.93754" lon="0.61044">
        <ele>51.799999237061</ele>
        <time>2019-07-21T09:14:17Z</time>
      </trkpt>
      <trkpt lat="46.93755" lon="0.61053">
        <ele>50.799999237061</ele>
        <time>2019-07-21T09:14:21Z</time>
      </trkpt>
      <trkpt lat="46.93754" lon="0.61096">
        <ele>49.799999237061</ele>
        <time>2019-07-21T09:14:42Z</time>
      </trkpt>
      <trkpt lat="46.93754" lon="0.61132">
        <ele>49.799999237061</ele>
        <time>2019-07-21T09:14:58Z</time>
      </trkpt>
      <trkpt lat="46.93761" lon="0.61201">
        <ele>48.799999237061</ele>
        <time>2019-07-21T09:15:30Z</time>
      </trkpt>
      <trkpt lat="46.93765" lon="0.61225">
        <ele>48.799999237061</ele>
        <time>2019-07-21T09:15:42Z</time>
      </trkpt>
      <trkpt lat="46.93766" lon="0.61247">
        <ele>48.799999237061</ele>
        <time>2019-07-21T09:15:52Z</time>
      </trkpt>
      <trkpt lat="46.93771" lon="0.61289">
        <ele>48.799999237061</ele>
        <time>2019-07-21T09:16:12Z</time>
      </trkpt>
      <trkpt lat="46.93771" lon="0.61294">
        <ele>48.799999237061</ele>
        <time>2019-07-21T09:16:15Z</time>
      </trkpt>
      <trkpt lat="46.93774" lon="0.61325">
        <ele>49.799999237061</ele>
        <time>2019-07-21T09:16:30Z</time>
      </trkpt>
      <trkpt lat="46.93774" lon="0.61331">
        <ele>49.799999237061</ele>
        <time>2019-07-21T09:16:33Z</time>
      </trkpt>
      <trkpt lat="46.93777" lon="0.61348">
        <ele>49.799999237061</ele>
        <time>2019-07-21T09:16:41Z</time>
      </trkpt>
      <trkpt lat="46.93777" lon="0.61385">
        <ele>51.799999237061</ele>
        <time>2019-07-21T09:16:59Z</time>
      </trkpt>
      <trkpt lat="46.93775" lon="0.61403">
        <ele>51.799999237061</ele>
        <time>2019-07-21T09:17:08Z</time>
      </trkpt>
      <trkpt lat="46.93776" lon="0.61406">
        <ele>52.799999237061</ele>
        <time>2019-07-21T09:17:10Z</time>
      </trkpt>
      <trkpt lat="46.93777" lon="0.61409">
        <ele>52.799999237061</ele>
        <time>2019-07-21T09:17:12Z</time>
      </trkpt>
      <trkpt lat="46.9378" lon="0.6141">
        <ele>52.799999237061</ele>
        <time>2019-07-21T09:17:14Z</time>
      </trkpt>
      <trkpt lat="46.93782" lon="0.6141">
        <ele>52.799999237061</ele>
        <time>2019-07-21T09:17:16Z</time>
      </trkpt>
      <trkpt lat="46.93821" lon="0.61397">
        <ele>53.799999237061</ele>
        <time>2019-07-21T09:17:44Z</time>
      </trkpt>
      <trkpt lat="46.9384" lon="0.6139">
        <ele>53.799999237061</ele>
        <time>2019-07-21T09:17:57Z</time>
      </trkpt>
      <trkpt lat="46.9386" lon="0.61381">
        <ele>53.799999237061</ele>
        <time>2019-07-21T09:18:11Z</time>
      </trkpt>
      <trkpt lat="46.93878" lon="0.61372">
        <ele>53.799999237061</ele>
        <time>2019-07-21T09:18:25Z</time>
      </trkpt>
      <trkpt lat="46.93884" lon="0.61369">
        <ele>53.799999237061</ele>
        <time>2019-07-21T09:18:29Z</time>
      </trkpt>
      <trkpt lat="46.93886" lon="0.61369">
        <ele>53.799999237061</ele>
        <time>2019-07-21T09:18:32Z</time>
      </trkpt>
      <trkpt lat="46.93887" lon="0.61369">
        <ele>53.799999237061</ele>
        <time>2019-07-21T09:18:35Z</time>
      </trkpt>
      <trkpt lat="46.93887" lon="0.61369">
        <ele>53.799999237061</ele>
        <time>2019-07-21T09:19:47Z</time>
      </trkpt>
      <trkpt lat="46.93889" lon="0.61367">
        <ele>52.799999237061</ele>
        <time>2019-07-21T09:19:50Z</time>
      </trkpt>
      <trkpt lat="46.93897" lon="0.61363">
        <ele>53.799999237061</ele>
        <time>2019-07-21T09:19:58Z</time>
      </trkpt>
      <trkpt lat="46.93903" lon="0.61361">
        <ele>53.799999237061</ele>
        <time>2019-07-21T09:20:04Z</time>
      </trkpt>
      <trkpt lat="46.93903" lon="0.61361">
        <ele>55.799999237061</ele>
        <time>2019-07-21T09:21:22Z</time>
      </trkpt>
      <trkpt lat="46.93903" lon="0.61361">
        <ele>54.799999237061</ele>
        <time>2019-07-21T09:22:34Z</time>
      </trkpt>
      <trkpt lat="46.93903" lon="0.61361">
        <ele>54.799999237061</ele>
        <time>2019-07-21T09:22:35Z</time>
      </trkpt>
      <trkpt lat="46.93903" lon="0.61361">
        <ele>54.799999237061</ele>
        <time>2019-07-21T09:22:41Z</time>
      </trkpt>
      <trkpt lat="46.93903" lon="0.61359">
        <ele>53.799999237061</ele>
        <time>2019-07-21T09:22:49Z</time>
      </trkpt>
      <trkpt lat="46.93905" lon="0.61359">
        <ele>53.799999237061</ele>
        <time>2019-07-21T09:23:01Z</time>
      </trkpt>
      <trkpt lat="46.9395" lon="0.61338">
        <ele>53.799999237061</ele>
        <time>2019-07-21T09:23:39Z</time>
      </trkpt>
      <trkpt lat="46.93996" lon="0.61317">
        <ele>48.799999237061</ele>
        <time>2019-07-21T09:24:12Z</time>
      </trkpt>
      <trkpt lat="46.9404" lon="0.61295">
        <ele>50.799999237061</ele>
        <time>2019-07-21T09:24:46Z</time>
      </trkpt>
      <trkpt lat="46.94084" lon="0.61275">
        <ele>50.799999237061</ele>
        <time>2019-07-21T09:25:20Z</time>
      </trkpt>
      <trkpt lat="46.94106" lon="0.61268">
        <ele>51.799999237061</ele>
        <time>2019-07-21T09:25:36Z</time>
      </trkpt>
      <trkpt lat="46.94118" lon="0.61266">
        <ele>51.799999237061</ele>
        <time>2019-07-21T09:25:45Z</time>
      </trkpt>
      <trkpt lat="46.94136" lon="0.61266">
        <ele>51.799999237061</ele>
        <time>2019-07-21T09:25:58Z</time>
      </trkpt>
      <trkpt lat="46.94153" lon="0.61269">
        <ele>53.799999237061</ele>
        <time>2019-07-21T09:26:11Z</time>
      </trkpt>
      <trkpt lat="46.94166" lon="0.61276">
        <ele>54.799999237061</ele>
        <time>2019-07-21T09:26:22Z</time>
      </trkpt>
      <trkpt lat="46.94205" lon="0.61315">
        <ele>56.799999237061</ele>
        <time>2019-07-21T09:26:56Z</time>
      </trkpt>
      <trkpt lat="46.94221" lon="0.61329">
        <ele>57.799999237061</ele>
        <time>2019-07-21T09:27:09Z</time>
      </trkpt>
      <trkpt lat="46.94242" lon="0.61348">
        <ele>57.799999237061</ele>
        <time>2019-07-21T09:27:27Z</time>
      </trkpt>
      <trkpt lat="46.94242" lon="0.61349">
        <ele>57.799999237061</ele>
        <time>2019-07-21T09:27:28Z</time>
      </trkpt>
      <trkpt lat="46.94243" lon="0.6135">
        <ele>57.799999237061</ele>
        <time>2019-07-21T09:27:29Z</time>
      </trkpt>
      <trkpt lat="46.94273" lon="0.61378">
        <ele>58.799999237061</ele>
        <time>2019-07-21T09:27:55Z</time>
      </trkpt>
      <trkpt lat="46.94289" lon="0.61392">
        <ele>57.799999237061</ele>
        <time>2019-07-21T09:28:09Z</time>
      </trkpt>
      <trkpt lat="46.94306" lon="0.61407">
        <ele>56.799999237061</ele>
        <time>2019-07-21T09:28:23Z</time>
      </trkpt>
      <trkpt lat="46.94346" lon="0.61444">
        <ele>59.799999237061</ele>
        <time>2019-07-21T09:28:56Z</time>
      </trkpt>
      <trkpt lat="46.9435" lon="0.61448">
        <ele>59.799999237061</ele>
        <time>2019-07-21T09:28:59Z</time>
      </trkpt>
      <trkpt lat="46.9435" lon="0.61449">
        <ele>60.799999237061</ele>
        <time>2019-07-21T09:29:00Z</time>
      </trkpt>
      <trkpt lat="46.94351" lon="0.61449">
        <ele>60.799999237061</ele>
        <time>2019-07-21T09:29:01Z</time>
      </trkpt>
      <trkpt lat="46.94359" lon="0.61456">
        <ele>61.799999237061</ele>
        <time>2019-07-21T09:29:09Z</time>
      </trkpt>
      <trkpt lat="46.94363" lon="0.6146">
        <ele>61.799999237061</ele>
        <time>2019-07-21T09:29:12Z</time>
      </trkpt>
      <trkpt lat="46.94381" lon="0.61475">
        <ele>61.799999237061</ele>
        <time>2019-07-21T09:29:26Z</time>
      </trkpt>
      <trkpt lat="46.94418" lon="0.61491">
        <ele>68.800003051758</ele>
        <time>2019-07-21T09:29:54Z</time>
      </trkpt>
      <trkpt lat="46.94434" lon="0.61493">
        <ele>69.800003051758</ele>
        <time>2019-07-21T09:30:05Z</time>
      </trkpt>
      <trkpt lat="46.94436" lon="0.61494">
        <ele>70.800003051758</ele>
        <time>2019-07-21T09:30:07Z</time>
      </trkpt>
      <trkpt lat="46.94443" lon="0.615">
        <ele>71.800003051758</ele>
        <time>2019-07-21T09:30:12Z</time>
      </trkpt>
      <trkpt lat="46.94457" lon="0.61504">
        <ele>70.800003051758</ele>
        <time>2019-07-21T09:30:21Z</time>
      </trkpt>
      <trkpt lat="46.94468" lon="0.6151">
        <ele>71.800003051758</ele>
        <time>2019-07-21T09:30:30Z</time>
      </trkpt>
      <trkpt lat="46.94508" lon="0.61524">
        <ele>72.800003051758</ele>
        <time>2019-07-21T09:30:50Z</time>
      </trkpt>
      <trkpt lat="46.94525" lon="0.61529">
        <ele>72.800003051758</ele>
        <time>2019-07-21T09:30:59Z</time>
      </trkpt>
      <trkpt lat="46.94535" lon="0.61534">
        <ele>71.800003051758</ele>
        <time>2019-07-21T09:31:04Z</time>
      </trkpt>
      <trkpt lat="46.94547" lon="0.61536">
        <ele>72.800003051758</ele>
        <time>2019-07-21T09:31:11Z</time>
      </trkpt>
      <trkpt lat="46.94565" lon="0.61542">
        <ele>73.800003051758</ele>
        <time>2019-07-21T09:31:21Z</time>
      </trkpt>
      <trkpt lat="46.94572" lon="0.61543">
        <ele>73.800003051758</ele>
        <time>2019-07-21T09:31:25Z</time>
      </trkpt>
      <trkpt lat="46.9458" lon="0.61546">
        <ele>74.800003051758</ele>
        <time>2019-07-21T09:31:30Z</time>
      </trkpt>
      <trkpt lat="46.94584" lon="0.61546">
        <ele>74.800003051758</ele>
        <time>2019-07-21T09:31:33Z</time>
      </trkpt>
      <trkpt lat="46.94589" lon="0.61549">
        <ele>75.800003051758</ele>
        <time>2019-07-21T09:31:38Z</time>
      </trkpt>
      <trkpt lat="46.946" lon="0.61558">
        <ele>74.800003051758</ele>
        <time>2019-07-21T09:31:47Z</time>
      </trkpt>
      <trkpt lat="46.94603" lon="0.61559">
        <ele>72.800003051758</ele>
        <time>2019-07-21T09:31:49Z</time>
      </trkpt>
      <trkpt lat="46.94606" lon="0.61559">
        <ele>72.800003051758</ele>
        <time>2019-07-21T09:31:51Z</time>
      </trkpt>
      <trkpt lat="46.94614" lon="0.61563">
        <ele>74.800003051758</ele>
        <time>2019-07-21T09:31:58Z</time>
      </trkpt>
      <trkpt lat="46.94633" lon="0.61567">
        <ele>74.800003051758</ele>
        <time>2019-07-21T09:32:11Z</time>
      </trkpt>
      <trkpt lat="46.94638" lon="0.6157">
        <ele>75.800003051758</ele>
        <time>2019-07-21T09:32:16Z</time>
      </trkpt>
      <trkpt lat="46.94644" lon="0.61572">
        <ele>75.800003051758</ele>
        <time>2019-07-21T09:32:20Z</time>
      </trkpt>
      <trkpt lat="46.94647" lon="0.61575">
        <ele>75.800003051758</ele>
        <time>2019-07-21T09:32:23Z</time>
      </trkpt>
      <trkpt lat="46.94649" lon="0.61575">
        <ele>76.800003051758</ele>
        <time>2019-07-21T09:32:25Z</time>
      </trkpt>
      <trkpt lat="46.94675" lon="0.6158">
        <ele>76.800003051758</ele>
        <time>2019-07-21T09:32:43Z</time>
      </trkpt>
      <trkpt lat="46.9469" lon="0.61586">
        <ele>79.800003051758</ele>
        <time>2019-07-21T09:32:55Z</time>
      </trkpt>
      <trkpt lat="46.94698" lon="0.61588">
        <ele>78.800003051758</ele>
        <time>2019-07-21T09:33:00Z</time>
      </trkpt>
      <trkpt lat="46.94706" lon="0.61593">
        <ele>76.800003051758</ele>
        <time>2019-07-21T09:33:06Z</time>
      </trkpt>
      <trkpt lat="46.94747" lon="0.61603">
        <ele>75.800003051758</ele>
        <time>2019-07-21T09:33:25Z</time>
      </trkpt>
      <trkpt lat="46.94763" lon="0.61612">
        <ele>73.800003051758</ele>
        <time>2019-07-21T09:33:32Z</time>
      </trkpt>
      <trkpt lat="46.94769" lon="0.61613">
        <ele>73.800003051758</ele>
        <time>2019-07-21T09:33:35Z</time>
      </trkpt>
      <trkpt lat="46.94775" lon="0.61616">
        <ele>70.800003051758</ele>
        <time>2019-07-21T09:33:39Z</time>
      </trkpt>
      <trkpt lat="46.94789" lon="0.61629">
        <ele>64.800003051758</ele>
        <time>2019-07-21T09:33:52Z</time>
      </trkpt>
      <trkpt lat="46.94792" lon="0.6163">
        <ele>63.799999237061</ele>
        <time>2019-07-21T09:33:54Z</time>
      </trkpt>
      <trkpt lat="46.94794" lon="0.6163">
        <ele>62.799999237061</ele>
        <time>2019-07-21T09:33:56Z</time>
      </trkpt>
      <trkpt lat="46.94797" lon="0.61629">
        <ele>61.799999237061</ele>
        <time>2019-07-21T09:33:58Z</time>
      </trkpt>
      <trkpt lat="46.94806" lon="0.61621">
        <ele>59.799999237061</ele>
        <time>2019-07-21T09:34:05Z</time>
      </trkpt>
      <trkpt lat="46.94843" lon="0.61577">
        <ele>56.799999237061</ele>
        <time>2019-07-21T09:34:36Z</time>
      </trkpt>
      <trkpt lat="46.94865" lon="0.61548">
        <ele>51.799999237061</ele>
        <time>2019-07-21T09:34:56Z</time>
      </trkpt>
      <trkpt lat="46.94876" lon="0.61524">
        <ele>50.799999237061</ele>
        <time>2019-07-21T09:35:09Z</time>
      </trkpt>
      <trkpt lat="46.94885" lon="0.61501">
        <ele>51.799999237061</ele>
        <time>2019-07-21T09:35:22Z</time>
      </trkpt>
      <trkpt lat="46.94889" lon="0.61497">
        <ele>50.799999237061</ele>
        <time>2019-07-21T09:35:25Z</time>
      </trkpt>
      <trkpt lat="46.94901" lon="0.61472">
        <ele>49.799999237061</ele>
        <time>2019-07-21T09:35:40Z</time>
      </trkpt>
      <trkpt lat="46.94906" lon="0.61466">
        <ele>49.799999237061</ele>
        <time>2019-07-21T09:35:46Z</time>
      </trkpt>
      <trkpt lat="46.94906" lon="0.61464">
        <ele>52.799999237061</ele>
        <time>2019-07-21T09:36:55Z</time>
      </trkpt>
      <trkpt lat="46.94906" lon="0.61464">
        <ele>51.799999237061</ele>
        <time>2019-07-21T09:36:56Z</time>
      </trkpt>
      <trkpt lat="46.94905" lon="0.61464">
        <ele>51.799999237061</ele>
        <time>2019-07-21T09:36:58Z</time>
      </trkpt>
      <trkpt lat="46.94905" lon="0.61464">
        <ele>51.799999237061</ele>
        <time>2019-07-21T09:37:05Z</time>
      </trkpt>
      <trkpt lat="46.94905" lon="0.61464">
        <ele>51.799999237061</ele>
        <time>2019-07-21T09:37:07Z</time>
      </trkpt>
      <trkpt lat="46.94905" lon="0.61461">
        <ele>51.799999237061</ele>
        <time>2019-07-21T09:37:10Z</time>
      </trkpt>
      <trkpt lat="46.94905" lon="0.61458">
        <ele>51.799999237061</ele>
        <time>2019-07-21T09:37:12Z</time>
      </trkpt>
      <trkpt lat="46.9491" lon="0.61445">
        <ele>51.799999237061</ele>
        <time>2019-07-21T09:37:20Z</time>
      </trkpt>
      <trkpt lat="46.94933" lon="0.61411">
        <ele>49.799999237061</ele>
        <time>2019-07-21T09:37:42Z</time>
      </trkpt>
      <trkpt lat="46.9495" lon="0.61399">
        <ele>49.799999237061</ele>
        <time>2019-07-21T09:37:55Z</time>
      </trkpt>
      <trkpt lat="46.94996" lon="0.6139">
        <ele>51.799999237061</ele>
        <time>2019-07-21T09:38:28Z</time>
      </trkpt>
      <trkpt lat="46.95013" lon="0.61383">
        <ele>50.799999237061</ele>
        <time>2019-07-21T09:38:39Z</time>
      </trkpt>
      <trkpt lat="46.95023" lon="0.61372">
        <ele>50.799999237061</ele>
        <time>2019-07-21T09:38:47Z</time>
      </trkpt>
      <trkpt lat="46.95027" lon="0.61365">
        <ele>50.799999237061</ele>
        <time>2019-07-21T09:38:52Z</time>
      </trkpt>
      <trkpt lat="46.95029" lon="0.61361">
        <ele>50.799999237061</ele>
        <time>2019-07-21T09:38:54Z</time>
      </trkpt>
      <trkpt lat="46.95051" lon="0.61308">
        <ele>49.799999237061</ele>
        <time>2019-07-21T09:39:24Z</time>
      </trkpt>
      <trkpt lat="46.95084" lon="0.61257">
        <ele>49.799999237061</ele>
        <time>2019-07-21T09:39:58Z</time>
      </trkpt>
      <trkpt lat="46.95087" lon="0.61253">
        <ele>48.799999237061</ele>
        <time>2019-07-21T09:40:03Z</time>
      </trkpt>
      <trkpt lat="46.95088" lon="0.61252">
        <ele>48.799999237061</ele>
        <time>2019-07-21T09:40:30Z</time>
      </trkpt>
      <trkpt lat="46.95088" lon="0.61252">
        <ele>49.799999237061</ele>
        <time>2019-07-21T09:40:31Z</time>
      </trkpt>
      <trkpt lat="46.95089" lon="0.61249">
        <ele>49.799999237061</ele>
        <time>2019-07-21T09:40:35Z</time>
      </trkpt>
      <trkpt lat="46.95093" lon="0.61243">
        <ele>49.799999237061</ele>
        <time>2019-07-21T09:40:40Z</time>
      </trkpt>
      <trkpt lat="46.95095" lon="0.61237">
        <ele>50.799999237061</ele>
        <time>2019-07-21T09:40:44Z</time>
      </trkpt>
      <trkpt lat="46.95096" lon="0.61234">
        <ele>49.799999237061</ele>
        <time>2019-07-21T09:40:46Z</time>
      </trkpt>
      <trkpt lat="46.9511" lon="0.61218">
        <ele>49.799999237061</ele>
        <time>2019-07-21T09:40:59Z</time>
      </trkpt>
      <trkpt lat="46.95145" lon="0.61173">
        <ele>48.799999237061</ele>
        <time>2019-07-21T09:41:32Z</time>
      </trkpt>
      <trkpt lat="46.95183" lon="0.61125">
        <ele>46.799999237061</ele>
        <time>2019-07-21T09:42:08Z</time>
      </trkpt>
      <trkpt lat="46.95193" lon="0.61114">
        <ele>47.799999237061</ele>
        <time>2019-07-21T09:42:17Z</time>
      </trkpt>
      <trkpt lat="46.9523" lon="0.61073">
        <ele>45.799999237061</ele>
        <time>2019-07-21T09:42:50Z</time>
      </trkpt>
      <trkpt lat="46.95258" lon="0.61052">
        <ele>45.799999237061</ele>
        <time>2019-07-21T09:43:13Z</time>
      </trkpt>
      <trkpt lat="46.95275" lon="0.61045">
        <ele>45.799999237061</ele>
        <time>2019-07-21T09:43:26Z</time>
      </trkpt>
      <trkpt lat="46.95295" lon="0.61036">
        <ele>46.799999237061</ele>
        <time>2019-07-21T09:43:41Z</time>
      </trkpt>
      <trkpt lat="46.95345" lon="0.6103">
        <ele>46.799999237061</ele>
        <time>2019-07-21T09:44:16Z</time>
      </trkpt>
      <trkpt lat="46.95392" lon="0.61025">
        <ele>45.799999237061</ele>
        <time>2019-07-21T09:44:48Z</time>
      </trkpt>
      <trkpt lat="46.95438" lon="0.61023">
        <ele>44.799999237061</ele>
        <time>2019-07-21T09:45:19Z</time>
      </trkpt>
      <trkpt lat="46.95442" lon="0.61022">
        <ele>43.799999237061</ele>
        <time>2019-07-21T09:45:22Z</time>
      </trkpt>
      <trkpt lat="46.95488" lon="0.6102">
        <ele>44.799999237061</ele>
        <time>2019-07-21T09:45:55Z</time>
      </trkpt>
      <trkpt lat="46.95535" lon="0.61018">
        <ele>45.799999237061</ele>
        <time>2019-07-21T09:46:27Z</time>
      </trkpt>
      <trkpt lat="46.95581" lon="0.61007">
        <ele>45.799999237061</ele>
        <time>2019-07-21T09:47:00Z</time>
      </trkpt>
      <trkpt lat="46.95598" lon="0.61004">
        <ele>47.799999237061</ele>
        <time>2019-07-21T09:47:13Z</time>
      </trkpt>
      <trkpt lat="46.95606" lon="0.61">
        <ele>47.799999237061</ele>
        <time>2019-07-21T09:47:19Z</time>
      </trkpt>
      <trkpt lat="46.95651" lon="0.60978">
        <ele>46.799999237061</ele>
        <time>2019-07-21T09:47:54Z</time>
      </trkpt>
      <trkpt lat="46.95665" lon="0.60972">
        <ele>48.799999237061</ele>
        <time>2019-07-21T09:48:04Z</time>
      </trkpt>
      <trkpt lat="46.95668" lon="0.60969">
        <ele>48.799999237061</ele>
        <time>2019-07-21T09:48:07Z</time>
      </trkpt>
      <trkpt lat="46.95681" lon="0.60947">
        <ele>49.799999237061</ele>
        <time>2019-07-21T09:48:22Z</time>
      </trkpt>
      <trkpt lat="46.95686" lon="0.60942">
        <ele>49.799999237061</ele>
        <time>2019-07-21T09:48:27Z</time>
      </trkpt>
      <trkpt lat="46.9569" lon="0.6094">
        <ele>48.799999237061</ele>
        <time>2019-07-21T09:48:29Z</time>
      </trkpt>
      <trkpt lat="46.95702" lon="0.6094">
        <ele>47.799999237061</ele>
        <time>2019-07-21T09:48:37Z</time>
      </trkpt>
      <trkpt lat="46.95704" lon="0.6094">
        <ele>47.799999237061</ele>
        <time>2019-07-21T09:48:39Z</time>
      </trkpt>
      <trkpt lat="46.95731" lon="0.6094">
        <ele>47.799999237061</ele>
        <time>2019-07-21T09:48:57Z</time>
      </trkpt>
      <trkpt lat="46.95736" lon="0.60941">
        <ele>47.799999237061</ele>
        <time>2019-07-21T09:49:00Z</time>
      </trkpt>
      <trkpt lat="46.9574" lon="0.60943">
        <ele>47.799999237061</ele>
        <time>2019-07-21T09:49:03Z</time>
      </trkpt>
      <trkpt lat="46.95742" lon="0.60943">
        <ele>47.799999237061</ele>
        <time>2019-07-21T09:49:04Z</time>
      </trkpt>
      <trkpt lat="46.95744" lon="0.60943">
        <ele>46.799999237061</ele>
        <time>2019-07-21T09:49:05Z</time>
      </trkpt>
      <trkpt lat="46.95784" lon="0.60941">
        <ele>50.799999237061</ele>
        <time>2019-07-21T09:49:30Z</time>
      </trkpt>
      <trkpt lat="46.95795" lon="0.6094">
        <ele>49.799999237061</ele>
        <time>2019-07-21T09:49:38Z</time>
      </trkpt>
      <trkpt lat="46.95801" lon="0.60941">
        <ele>49.799999237061</ele>
        <time>2019-07-21T09:49:42Z</time>
      </trkpt>
      <trkpt lat="46.95809" lon="0.60943">
        <ele>49.799999237061</ele>
        <time>2019-07-21T09:49:48Z</time>
      </trkpt>
      <trkpt lat="46.95814" lon="0.60943">
        <ele>49.799999237061</ele>
        <time>2019-07-21T09:49:52Z</time>
      </trkpt>
      <trkpt lat="46.95853" lon="0.60937">
        <ele>47.799999237061</ele>
        <time>2019-07-21T09:50:20Z</time>
      </trkpt>
      <trkpt lat="46.95872" lon="0.60934">
        <ele>47.799999237061</ele>
        <time>2019-07-21T09:50:33Z</time>
      </trkpt>
      <trkpt lat="46.9589" lon="0.60929">
        <ele>47.799999237061</ele>
        <time>2019-07-21T09:50:46Z</time>
      </trkpt>
      <trkpt lat="46.9592" lon="0.60928">
        <ele>48.799999237061</ele>
        <time>2019-07-21T09:51:06Z</time>
      </trkpt>
      <trkpt lat="46.95939" lon="0.60928">
        <ele>47.799999237061</ele>
        <time>2019-07-21T09:51:18Z</time>
      </trkpt>
      <trkpt lat="46.95958" lon="0.6093">
        <ele>47.799999237061</ele>
        <time>2019-07-21T09:51:29Z</time>
      </trkpt>
      <trkpt lat="46.95978" lon="0.60929">
        <ele>46.799999237061</ele>
        <time>2019-07-21T09:51:42Z</time>
      </trkpt>
      <trkpt lat="46.95998" lon="0.60929">
        <ele>47.799999237061</ele>
        <time>2019-07-21T09:51:55Z</time>
      </trkpt>
      <trkpt lat="46.96002" lon="0.6093">
        <ele>47.799999237061</ele>
        <time>2019-07-21T09:51:58Z</time>
      </trkpt>
      <trkpt lat="46.9605" lon="0.60929">
        <ele>47.799999237061</ele>
        <time>2019-07-21T09:52:30Z</time>
      </trkpt>
      <trkpt lat="46.96097" lon="0.60927">
        <ele>48.799999237061</ele>
        <time>2019-07-21T09:53:02Z</time>
      </trkpt>
      <trkpt lat="46.96126" lon="0.60931">
        <ele>48.799999237061</ele>
        <time>2019-07-21T09:53:23Z</time>
      </trkpt>
      <trkpt lat="46.96164" lon="0.6093">
        <ele>46.799999237061</ele>
        <time>2019-07-21T09:53:51Z</time>
      </trkpt>
      <trkpt lat="46.96167" lon="0.6093">
        <ele>46.799999237061</ele>
        <time>2019-07-21T09:53:53Z</time>
      </trkpt>
      <trkpt lat="46.96171" lon="0.60931">
        <ele>46.799999237061</ele>
        <time>2019-07-21T09:53:56Z</time>
      </trkpt>
      <trkpt lat="46.96219" lon="0.60931">
        <ele>46.799999237061</ele>
        <time>2019-07-21T09:54:31Z</time>
      </trkpt>
      <trkpt lat="46.96266" lon="0.60932">
        <ele>46.799999237061</ele>
        <time>2019-07-21T09:55:04Z</time>
      </trkpt>
      <trkpt lat="46.96313" lon="0.60931">
        <ele>45.799999237061</ele>
        <time>2019-07-21T09:55:38Z</time>
      </trkpt>
      <trkpt lat="46.9636" lon="0.60931">
        <ele>45.799999237061</ele>
        <time>2019-07-21T09:56:13Z</time>
      </trkpt>
      <trkpt lat="46.96377" lon="0.60931">
        <ele>46.799999237061</ele>
        <time>2019-07-21T09:56:25Z</time>
      </trkpt>
      <trkpt lat="46.96416" lon="0.60933">
        <ele>44.799999237061</ele>
        <time>2019-07-21T09:56:52Z</time>
      </trkpt>
      <trkpt lat="46.96429" lon="0.60931">
        <ele>44.799999237061</ele>
        <time>2019-07-21T09:57:02Z</time>
      </trkpt>
      <trkpt lat="46.96433" lon="0.6093">
        <ele>45.799999237061</ele>
        <time>2019-07-21T09:57:05Z</time>
      </trkpt>
      <trkpt lat="46.96435" lon="0.6093">
        <ele>45.799999237061</ele>
        <time>2019-07-21T09:57:07Z</time>
      </trkpt>
      <trkpt lat="46.96436" lon="0.60931">
        <ele>47.799999237061</ele>
        <time>2019-07-21T09:57:17Z</time>
      </trkpt>
      <trkpt lat="46.96436" lon="0.60931">
        <ele>47.799999237061</ele>
        <time>2019-07-21T09:58:17Z</time>
      </trkpt>
      <trkpt lat="46.96439" lon="0.60929">
        <ele>47.799999237061</ele>
        <time>2019-07-21T09:58:21Z</time>
      </trkpt>
      <trkpt lat="46.96486" lon="0.60928">
        <ele>43.799999237061</ele>
        <time>2019-07-21T09:58:55Z</time>
      </trkpt>
      <trkpt lat="46.96533" lon="0.60927">
        <ele>44.799999237061</ele>
        <time>2019-07-21T09:59:28Z</time>
      </trkpt>
      <trkpt lat="46.96572" lon="0.60926">
        <ele>44.799999237061</ele>
        <time>2019-07-21T09:59:56Z</time>
      </trkpt>
      <trkpt lat="46.96591" lon="0.60927">
        <ele>44.799999237061</ele>
        <time>2019-07-21T10:00:10Z</time>
      </trkpt>
      <trkpt lat="46.96611" lon="0.60925">
        <ele>43.799999237061</ele>
        <time>2019-07-21T10:00:24Z</time>
      </trkpt>
      <trkpt lat="46.9663" lon="0.60925">
        <ele>45.799999237061</ele>
        <time>2019-07-21T10:00:38Z</time>
      </trkpt>
      <trkpt lat="46.96658" lon="0.60923">
        <ele>44.900001525879</ele>
        <time>2019-07-21T10:00:58Z</time>
      </trkpt>
      <trkpt lat="46.96677" lon="0.60921">
        <ele>45.900001525879</ele>
        <time>2019-07-21T10:01:12Z</time>
      </trkpt>
      <trkpt lat="46.96697" lon="0.60918">
        <ele>44.900001525879</ele>
        <time>2019-07-21T10:01:26Z</time>
      </trkpt>
      <trkpt lat="46.96705" lon="0.60917">
        <ele>44.900001525879</ele>
        <time>2019-07-21T10:01:32Z</time>
      </trkpt>
      <trkpt lat="46.96709" lon="0.60916">
        <ele>45.900001525879</ele>
        <time>2019-07-21T10:01:35Z</time>
      </trkpt>
      <trkpt lat="46.96711" lon="0.60915">
        <ele>45.900001525879</ele>
        <time>2019-07-21T10:01:37Z</time>
      </trkpt>
      <trkpt lat="46.96713" lon="0.60916">
        <ele>45.900001525879</ele>
        <time>2019-07-21T10:01:39Z</time>
      </trkpt>
      <trkpt lat="46.96715" lon="0.60917">
        <ele>44.900001525879</ele>
        <time>2019-07-21T10:01:41Z</time>
      </trkpt>
      <trkpt lat="46.96717" lon="0.60916">
        <ele>47.900001525879</ele>
        <time>2019-07-21T10:02:34Z</time>
      </trkpt>
      <trkpt lat="46.96722" lon="0.60913">
        <ele>46.900001525879</ele>
        <time>2019-07-21T10:02:38Z</time>
      </trkpt>
      <trkpt lat="46.96743" lon="0.6091">
        <ele>44.900001525879</ele>
        <time>2019-07-21T10:02:53Z</time>
      </trkpt>
      <trkpt lat="46.96748" lon="0.6091">
        <ele>44.900001525879</ele>
        <time>2019-07-21T10:02:57Z</time>
      </trkpt>
      <trkpt lat="46.96796" lon="0.60902">
        <ele>44.900001525879</ele>
        <time>2019-07-21T10:03:29Z</time>
      </trkpt>
      <trkpt lat="46.96822" lon="0.60901">
        <ele>44.900001525879</ele>
        <time>2019-07-21T10:03:45Z</time>
      </trkpt>
      <trkpt lat="46.9683" lon="0.60899">
        <ele>43.900001525879</ele>
        <time>2019-07-21T10:03:51Z</time>
      </trkpt>
      <trkpt lat="46.96835" lon="0.60897">
        <ele>45.900001525879</ele>
        <time>2019-07-21T10:03:55Z</time>
      </trkpt>
      <trkpt lat="46.96837" lon="0.60895">
        <ele>46.900001525879</ele>
        <time>2019-07-21T10:03:57Z</time>
      </trkpt>
      <trkpt lat="46.96853" lon="0.60892">
        <ele>48.900001525879</ele>
        <time>2019-07-21T10:04:08Z</time>
      </trkpt>
      <trkpt lat="46.96858" lon="0.6089">
        <ele>49.900001525879</ele>
        <time>2019-07-21T10:04:12Z</time>
      </trkpt>
      <trkpt lat="46.96901" lon="0.60888">
        <ele>49.900001525879</ele>
        <time>2019-07-21T10:04:40Z</time>
      </trkpt>
      <trkpt lat="46.96939" lon="0.60889">
        <ele>47.900001525879</ele>
        <time>2019-07-21T10:05:05Z</time>
      </trkpt>
      <trkpt lat="46.96958" lon="0.60888">
        <ele>47.900001525879</ele>
        <time>2019-07-21T10:05:18Z</time>
      </trkpt>
      <trkpt lat="46.96978" lon="0.60885">
        <ele>46.900001525879</ele>
        <time>2019-07-21T10:05:31Z</time>
      </trkpt>
      <trkpt lat="46.96997" lon="0.60882">
        <ele>45.900001525879</ele>
        <time>2019-07-21T10:05:44Z</time>
      </trkpt>
      <trkpt lat="46.97016" lon="0.60878">
        <ele>46.900001525879</ele>
        <time>2019-07-21T10:05:57Z</time>
      </trkpt>
      <trkpt lat="46.97036" lon="0.60873">
        <ele>46.900001525879</ele>
        <time>2019-07-21T10:06:10Z</time>
      </trkpt>
      <trkpt lat="46.97055" lon="0.60867">
        <ele>46.900001525879</ele>
        <time>2019-07-21T10:06:23Z</time>
      </trkpt>
      <trkpt lat="46.97073" lon="0.60862">
        <ele>46.900001525879</ele>
        <time>2019-07-21T10:06:35Z</time>
      </trkpt>
      <trkpt lat="46.97092" lon="0.60859">
        <ele>44.900001525879</ele>
        <time>2019-07-21T10:06:47Z</time>
      </trkpt>
      <trkpt lat="46.97111" lon="0.60855">
        <ele>44.900001525879</ele>
        <time>2019-07-21T10:06:59Z</time>
      </trkpt>
      <trkpt lat="46.97114" lon="0.60854">
        <ele>44.900001525879</ele>
        <time>2019-07-21T10:07:01Z</time>
      </trkpt>
      <trkpt lat="46.97133" lon="0.60845">
        <ele>45.900001525879</ele>
        <time>2019-07-21T10:07:15Z</time>
      </trkpt>
      <trkpt lat="46.97147" lon="0.60846">
        <ele>45.900001525879</ele>
        <time>2019-07-21T10:07:24Z</time>
      </trkpt>
      <trkpt lat="46.97192" lon="0.60835">
        <ele>44.900001525879</ele>
        <time>2019-07-21T10:07:54Z</time>
      </trkpt>
      <trkpt lat="46.97211" lon="0.60828">
        <ele>45.900001525879</ele>
        <time>2019-07-21T10:08:07Z</time>
      </trkpt>
      <trkpt lat="46.97229" lon="0.60823">
        <ele>45.900001525879</ele>
        <time>2019-07-21T10:08:19Z</time>
      </trkpt>
      <trkpt lat="46.97245" lon="0.60823">
        <ele>45.900001525879</ele>
        <time>2019-07-21T10:08:29Z</time>
      </trkpt>
      <trkpt lat="46.97247" lon="0.60824">
        <ele>45.900001525879</ele>
        <time>2019-07-21T10:08:31Z</time>
      </trkpt>
      <trkpt lat="46.9725" lon="0.60826">
        <ele>45.900001525879</ele>
        <time>2019-07-21T10:08:33Z</time>
      </trkpt>
      <trkpt lat="46.97252" lon="0.60829">
        <ele>46.900001525879</ele>
        <time>2019-07-21T10:08:35Z</time>
      </trkpt>
      <trkpt lat="46.97255" lon="0.60841">
        <ele>47.900001525879</ele>
        <time>2019-07-21T10:08:42Z</time>
      </trkpt>
      <trkpt lat="46.97261" lon="0.60851">
        <ele>46.900001525879</ele>
        <time>2019-07-21T10:08:48Z</time>
      </trkpt>
      <trkpt lat="46.97271" lon="0.60898">
        <ele>48.900001525879</ele>
        <time>2019-07-21T10:09:11Z</time>
      </trkpt>
      <trkpt lat="46.97272" lon="0.6092">
        <ele>50.900001525879</ele>
        <time>2019-07-21T10:09:21Z</time>
      </trkpt>
      <trkpt lat="46.97277" lon="0.60974">
        <ele>55.900001525879</ele>
        <time>2019-07-21T10:09:47Z</time>
      </trkpt>
      <trkpt lat="46.97281" lon="0.61001">
        <ele>56.900001525879</ele>
        <time>2019-07-21T10:10:00Z</time>
      </trkpt>
      <trkpt lat="46.97284" lon="0.61027">
        <ele>59.900001525879</ele>
        <time>2019-07-21T10:10:12Z</time>
      </trkpt>
      <trkpt lat="46.97286" lon="0.6104">
        <ele>60.900001525879</ele>
        <time>2019-07-21T10:10:18Z</time>
      </trkpt>
      <trkpt lat="46.97286" lon="0.61079">
        <ele>61.900001525879</ele>
        <time>2019-07-21T10:10:36Z</time>
      </trkpt>
      <trkpt lat="46.97281" lon="0.61155">
        <ele>65.900001525879</ele>
        <time>2019-07-21T10:11:08Z</time>
      </trkpt>
      <trkpt lat="46.97275" lon="0.61202">
        <ele>66.900001525879</ele>
        <time>2019-07-21T10:11:29Z</time>
      </trkpt>
      <trkpt lat="46.97274" lon="0.61243">
        <ele>69.900001525879</ele>
        <time>2019-07-21T10:11:48Z</time>
      </trkpt>
      <trkpt lat="46.97275" lon="0.61249">
        <ele>69.900001525879</ele>
        <time>2019-07-21T10:11:51Z</time>
      </trkpt>
      <trkpt lat="46.97274" lon="0.61269">
        <ele>69.900001525879</ele>
        <time>2019-07-21T10:12:00Z</time>
      </trkpt>
      <trkpt lat="46.97275" lon="0.61341">
        <ele>70.900001525879</ele>
        <time>2019-07-21T10:12:30Z</time>
      </trkpt>
      <trkpt lat="46.97276" lon="0.61393">
        <ele>72.900001525879</ele>
        <time>2019-07-21T10:12:52Z</time>
      </trkpt>
      <trkpt lat="46.97278" lon="0.61399">
        <ele>72.900001525879</ele>
        <time>2019-07-21T10:12:55Z</time>
      </trkpt>
      <trkpt lat="46.97297" lon="0.61444">
        <ele>74.900001525879</ele>
        <time>2019-07-21T10:13:17Z</time>
      </trkpt>
      <trkpt lat="46.97299" lon="0.6145">
        <ele>75.900001525879</ele>
        <time>2019-07-21T10:13:20Z</time>
      </trkpt>
      <trkpt lat="46.97324" lon="0.6151">
        <ele>73.900001525879</ele>
        <time>2019-07-21T10:13:47Z</time>
      </trkpt>
      <trkpt lat="46.97329" lon="0.61524">
        <ele>75.900001525879</ele>
        <time>2019-07-21T10:13:54Z</time>
      </trkpt>
      <trkpt lat="46.97329" lon="0.61526">
        <ele>75.900001525879</ele>
        <time>2019-07-21T10:13:55Z</time>
      </trkpt>
      <trkpt lat="46.9733" lon="0.61529">
        <ele>75.900001525879</ele>
        <time>2019-07-21T10:13:56Z</time>
      </trkpt>
      <trkpt lat="46.9733" lon="0.61533">
        <ele>74.900001525879</ele>
        <time>2019-07-21T10:13:57Z</time>
      </trkpt>
      <trkpt lat="46.97329" lon="0.61535">
        <ele>74.900001525879</ele>
        <time>2019-07-21T10:13:58Z</time>
      </trkpt>
      <trkpt lat="46.97328" lon="0.61538">
        <ele>74.900001525879</ele>
        <time>2019-07-21T10:14:00Z</time>
      </trkpt>
      <trkpt lat="46.97326" lon="0.61542">
        <ele>73.900001525879</ele>
        <time>2019-07-21T10:14:03Z</time>
      </trkpt>
      <trkpt lat="46.97324" lon="0.61548">
        <ele>74.900001525879</ele>
        <time>2019-07-21T10:14:12Z</time>
      </trkpt>
      <trkpt lat="46.97323" lon="0.61558">
        <ele>75.900001525879</ele>
        <time>2019-07-21T10:14:20Z</time>
      </trkpt>
      <trkpt lat="46.97323" lon="0.61561">
        <ele>76.900001525879</ele>
        <time>2019-07-21T10:15:15Z</time>
      </trkpt>
      <trkpt lat="46.97323" lon="0.61562">
        <ele>76.900001525879</ele>
        <time>2019-07-21T10:15:32Z</time>
      </trkpt>
      <trkpt lat="46.97323" lon="0.61562">
        <ele>76.900001525879</ele>
        <time>2019-07-21T10:15:33Z</time>
      </trkpt>
    </trkseg>
  </trk>
</gpx>